Provisional Data: Kishacoquillas Creek near Belleville, PA


Please select a monitoring station.
Please select start date.
Please select start date.

Toggle Unit: C/F Toggle Unit: C/F
Sample Time Temperature (C) Temperature (F) Specific Conductivity (mS/cm) pH   Turbidity (NTU+) DO (mg/L)
8/9/2021 12:00:00 AM 20.01 68.018 0.526 7.94 16.83 5.65
8/9/2021 12:15:00 AM 19.95 67.91 0.525 7.92 15.01 5.59
8/9/2021 12:30:00 AM 19.89 67.802 0.525 7.91 15.44 5.55
8/9/2021 12:45:00 AM 19.83 67.694 0.525 7.9 14.01 5.49
8/9/2021 1:00:00 AM 19.77 67.586 0.524 7.89 16.11 5.43
8/9/2021 1:15:00 AM 19.71 67.478 0.524 7.88 19.78 5.39
8/9/2021 1:30:00 AM 19.66 67.388 0.524 7.87 17.65 5.38
8/9/2021 1:45:00 AM 19.6 67.28 0.523 7.86 15.99 5.33
8/9/2021 2:00:00 AM 19.55 67.19 0.523 7.85 15.21 5.3
8/9/2021 2:15:00 AM 19.49 67.082 0.522 7.84 18.57 5.25
8/9/2021 2:30:00 AM 19.44 66.992 0.522 7.83 25.11 5.23
8/9/2021 2:45:00 AM 19.39 66.902 0.521 7.83 19.43 5.22
8/9/2021 3:00:00 AM 19.34 66.812 0.521 7.82 11.84 5.21
8/9/2021 3:15:00 AM 19.28 66.704 0.521 7.82 14.26 5.2
8/9/2021 3:30:00 AM 19.23 66.614 0.52 7.81 16.61 5.19
8/9/2021 3:45:00 AM 19.17 66.506 0.52 7.81 11.67 5.16
8/9/2021 4:00:00 AM 19.12 66.416 0.52 7.8 10.1 5.12
8/9/2021 4:15:00 AM 19.07 66.326 0.52 7.8 9.64 5.12
8/9/2021 4:30:00 AM 19.02 66.236 0.52 7.79 16.9 5.11
8/9/2021 4:45:00 AM 18.97 66.146 0.52 7.79 9.62 5.11
8/9/2021 5:00:00 AM 18.93 66.074 0.52 7.78 10.16 5.08
8/9/2021 5:15:00 AM 18.88 65.984 0.521 7.78 9.66 5.09
8/9/2021 5:30:00 AM 18.83 65.894 0.521 7.78 9.28 5.08
8/9/2021 5:45:00 AM 18.79 65.82201 0.521 7.78 7.66 5.1
8/9/2021 6:00:00 AM 18.75 65.75 0.521 7.78 9.07 5.1
8/9/2021 6:15:00 AM 18.7 65.66 0.522 7.78 11.07 5.1
8/9/2021 6:30:00 AM 18.65 65.57 0.522 7.78 7.73 5.1
8/9/2021 6:45:00 AM 18.6 65.48 0.522 7.77 8.12 5.14
8/9/2021 7:00:00 AM 18.56 65.408 0.523 7.77 6.87 5.16
8/9/2021 7:15:00 AM 18.52 65.336 0.523 7.78 6.79 5.2
8/9/2021 7:30:00 AM 18.49 65.282 0.524 7.78 6.47 5.26
8/9/2021 7:45:00 AM 18.47 65.246 0.524 7.78 7.32 5.34
8/9/2021 8:00:00 AM 18.45 65.21 0.524 7.79 8.39 5.43
8/9/2021 8:15:00 AM 18.45 65.21 0.524 7.79 8.39 5.56
8/9/2021 8:30:00 AM 18.45 65.21 0.524 7.81 7.06 5.71
8/9/2021 8:45:00 AM 18.47 65.246 0.525 7.81 5.68 5.82
8/9/2021 9:00:00 AM 18.51 65.318 0.525 7.83 5.13 5.99
8/9/2021 9:15:00 AM 18.55 65.39 0.526 7.84 4.9 6.15
8/9/2021 9:30:00 AM 18.6 65.48 0.526 7.85 16.85 6.33
8/9/2021 9:45:00 AM 18.65 65.57 0.527 7.87 4.44 6.54
8/9/2021 10:00:00 AM 18.73 65.714 0.527 7.88 5.99 6.67
8/9/2021 10:15:00 AM 18.81 65.858 0.528 7.89 5.02 6.87
8/9/2021 10:30:00 AM 18.92 66.056 0.529 7.91 5.07 7.03
8/9/2021 10:45:00 AM 19.02 66.236 0.529 7.92 5.9 7.25
8/9/2021 11:00:00 AM 19.15 66.47 0.53 7.94 4.26 7.4
8/9/2021 11:15:00 AM 19.3 66.74 0.53 7.95 5.18 7.58
8/9/2021 11:30:00 AM 19.47 67.046 0.531 7.97 4.7 7.79
8/9/2021 11:45:00 AM 19.64 67.352 0.531 7.99 4.43 8
8/9/2021 12:00:00 PM 19.82 67.676 0.531 8 4.82 8.17
8/9/2021 12:15:00 PM 20.03 68.054 0.532 8.03 5.49 8.43
8/9/2021 12:30:00 PM 20.23 68.414 0.532 8.04 4.48 8.57
8/9/2021 12:45:00 PM 20.44 68.792 0.532 8.06 9.35 8.73
8/9/2021 1:00:00 PM 20.65 69.17 0.532 8.08 4.87 8.88
8/9/2021 1:15:00 PM 20.84 69.512 0.529 8.09 5.22 8.97
8/9/2021 1:30:00 PM 21.05 69.89 0.533 8.1 5.24 9.05
8/9/2021 1:45:00 PM 21.25 70.25 0.532 8.12 4.22 9.19
8/9/2021 2:00:00 PM 21.46 70.628 0.532 8.13 4.74 9.31
8/9/2021 2:15:00 PM 21.64 70.952 0.532 8.14 4.54 9.39
8/9/2021 2:30:00 PM 21.72 71.096 0.534 8.15 7.29 9.4
8/9/2021 2:45:00 PM 21.81 71.258 0.532 8.15 7.63 9.42
8/9/2021 3:00:00 PM 21.9 71.42 0.531 8.16 6.08 9.44
8/9/2021 3:15:00 PM 21.96 71.528 0.532 8.17 5.41 9.42
8/9/2021 3:30:00 PM 22.08 71.744 0.532 8.18 6 9.45
8/9/2021 3:45:00 PM 22.16 71.888 0.528 8.18 5.3 9.45
8/9/2021 4:00:00 PM 22.23 72.014 0.527 8.19 6.23 9.49
8/9/2021 4:15:00 PM 22.32 72.176 0.528 8.19 6.73 9.5
8/9/2021 4:30:00 PM 22.37 72.266 0.529 8.2 5.33 9.49
8/9/2021 4:45:00 PM 22.41 72.338 0.529 8.21 6.69 9.42
8/9/2021 5:00:00 PM 22.45 72.41 0.53 8.21 6.1 9.28
8/9/2021 5:15:00 PM 22.45 72.41 0.533 8.21 7.55 9.16
8/9/2021 5:30:00 PM 22.44 72.392 0.534 8.21 7.14 9.06
8/9/2021 5:45:00 PM 22.42 72.356 0.535 8.2 12.07 8.9
8/9/2021 6:00:00 PM 22.39 72.302 0.533 8.2 60.63 8.74
8/9/2021 6:15:00 PM 22.36 72.248 0.533 8.19 9.81 8.58
8/9/2021 6:30:00 PM 22.32 72.176 0.534 8.18 11.01 8.4
8/9/2021 6:45:00 PM 22.26 72.068 0.536 8.17 12.71 8.16
8/9/2021 7:00:00 PM 22.19 71.942 0.536 8.15 12.05 7.84
8/9/2021 7:15:00 PM 22.14 71.852 0.536 8.14 11.37 7.67
8/9/2021 7:30:00 PM 22.08 71.744 0.538 8.12 10.37 7.45
8/9/2021 7:45:00 PM 22.03 71.654 0.538 8.11 10.11 7.22
8/9/2021 8:00:00 PM 21.97 71.546 0.538 8.1 9.66 7.05
8/9/2021 8:15:00 PM 21.9 71.42 0.538 8.09 7.23 6.88
8/9/2021 8:30:00 PM 21.84 71.312 0.538 8.07 7.25 6.71
8/9/2021 8:45:00 PM 21.77 71.186 0.538 8.06 7.1 6.54
8/9/2021 9:00:00 PM 21.7 71.06 0.538 8.05 7.07 6.41
8/9/2021 9:15:00 PM 21.63 70.934 0.538 8.03 7.79 6.28
8/9/2021 9:30:00 PM 21.57 70.826 0.538 8.02 7.52 6.15
8/9/2021 9:45:00 PM 21.5 70.7 0.537 8.01 7.96 6.01
8/9/2021 10:00:00 PM 21.44 70.592 0.537 8 7.61 5.96
8/9/2021 10:15:00 PM 21.38 70.484 0.537 7.99 10.96 5.84
8/9/2021 10:30:00 PM 21.32 70.376 0.537 7.98 7.41 5.76
8/9/2021 10:45:00 PM 21.26 70.268 0.536 7.97 14.3 5.71
8/9/2021 11:00:00 PM 21.2 70.16 0.536 7.96 7.75 5.62
8/9/2021 11:15:00 PM 21.14 70.052 0.535 7.95 10.95 5.56
8/9/2021 11:30:00 PM 21.08 69.944 0.535 7.94 9.77 5.5
8/9/2021 11:45:00 PM 21.02 69.836 0.535 7.93 8.51 5.42
8/10/2021 12:00:00 AM 20.95 69.71 0.534 7.92 9.25 5.39
8/10/2021 12:15:00 AM 20.89 69.602 0.534 7.91 8.85 5.33
8/10/2021 12:30:00 AM 20.83 69.494 0.533 7.9 9.98 5.27
8/10/2021 12:45:00 AM 20.77 69.386 0.533 7.89 11.94 5.23
8/10/2021 1:00:00 AM 20.71 69.278 0.532 7.88 9.67 5.18
8/10/2021 1:15:00 AM 20.65 69.17 0.532 7.87 9.51 5.14
8/10/2021 1:30:00 AM 20.59 69.062 0.531 7.87 9.11 5.13
8/10/2021 1:45:00 AM 20.54 68.972 0.531 7.86 8.88 5.09
8/10/2021 2:00:00 AM 20.49 68.882 0.53 7.85 8.8 5.06
8/10/2021 2:15:00 AM 20.43 68.774 0.53 7.85 13.76 5.04
8/10/2021 2:30:00 AM 20.38 68.684 0.529 7.84 8.96 4.99
8/10/2021 2:45:00 AM 20.32 68.576 0.529 7.83 8.74 4.98
8/10/2021 3:00:00 AM 20.28 68.504 0.528 7.82 9.18 4.95
8/10/2021 3:15:00 AM 20.23 68.414 0.528 7.82 9.57 4.93
8/10/2021 3:30:00 AM 20.18 68.324 0.527 7.81 9.4 4.91
8/10/2021 3:45:00 AM 20.15 68.27 0.527 7.81 10.06 4.92
8/10/2021 4:00:00 AM 20.11 68.198 0.526 7.81 9.89 4.9
8/10/2021 4:15:00 AM 20.07 68.126 0.526 7.8 9.99 4.89
8/10/2021 4:30:00 AM 20.04 68.07201 0.525 7.8 9.84 4.88
8/10/2021 4:45:00 AM 20.01 68.018 0.525 7.79 10.2 4.87
8/10/2021 5:00:00 AM 19.97 67.946 0.525 7.79 9.84 4.86
8/10/2021 5:15:00 AM 19.94 67.892 0.524 7.79 12 4.87
8/10/2021 5:30:00 AM 19.91 67.838 0.524 7.79 10.42 4.86
8/10/2021 5:45:00 AM 19.88 67.784 0.524 7.78 10.93 4.86
8/10/2021 6:00:00 AM 19.84 67.712 0.524 7.78 10.7 4.86
8/10/2021 6:15:00 AM 19.8 67.64 0.524 7.78 10.15 4.86
8/10/2021 6:30:00 AM 19.77 67.586 0.524 7.77 10.96 4.86
8/10/2021 6:45:00 AM 19.72 67.496 0.524 7.77 10.85 4.87
8/10/2021 7:00:00 AM 19.68 67.424 0.524 7.77 10.98 4.89
8/10/2021 7:15:00 AM 19.65 67.37 0.524 7.77 10.64 4.93
8/10/2021 7:30:00 AM 19.62 67.316 0.525 7.78 10.75 5.01
8/10/2021 7:45:00 AM 19.59 67.262 0.525 7.78 11.74 5.07
8/10/2021 8:00:00 AM 19.57 67.226 0.526 7.79 11.92 5.15
8/10/2021 8:15:00 AM 19.59 67.262 0.526 7.79 11.86 5.29
8/10/2021 8:30:00 AM 19.6 67.28 0.527 7.8 12.42 5.43
8/10/2021 8:45:00 AM 19.6 67.28 0.527 7.81 12.5 5.52
8/10/2021 9:00:00 AM 19.61 67.298 0.528 7.82 12.69 5.65
8/10/2021 9:15:00 AM 19.61 67.298 0.526 7.83 14.67 5.69
8/10/2021 9:30:00 AM 19.91 67.838 0.568 7.79 17.98 5.65
8/10/2021 9:45:00 AM 19.78 67.604 0.55 7.82 15.99 5.83
8/10/2021 10:00:00 AM 19.75 67.55 0.542 7.83 16.48 5.94
8/10/2021 10:15:00 AM 19.71 67.478 0.537 7.84 14.94 5.99
8/10/2021 10:30:00 AM 19.72 67.496 0.534 7.86 15.78 6.19
8/10/2021 10:45:00 AM 19.82 67.676 0.532 7.87 15.91 6.46
8/10/2021 11:00:00 AM 19.96 67.92799 0.532 7.89 15.69 6.73
8/10/2021 11:15:00 AM 20.02 68.036 0.527 7.91 19.99 6.72
8/10/2021 11:30:00 AM 21.06 69.908 0.707 7.66 105.3 6.39
8/10/2021 11:45:00 AM 20.58 69.044 0.647 7.76 49.46 6.55
8/10/2021 12:00:00 PM 20.36 68.648 0.605 7.83 25.93 6.84
8/10/2021 12:15:00 PM 20.4 68.72 0.579 7.89 17.21 7.17
8/10/2021 12:30:00 PM 20.31 68.558 0.567 7.9 17.15 7.05
8/10/2021 12:45:00 PM 20.3 68.54 0.545 7.94 26.85 7.12
8/10/2021 1:00:00 PM 22.49 72.482 0.499 7.91 386.3 6.59
8/10/2021 1:15:00 PM 21.01 69.818 0.51 7.92 133.2 6.67
8/10/2021 1:30:00 PM 20.51 68.918 0.509 7.93 67.6 6.61
8/10/2021 1:45:00 PM 20.21 68.378 0.505 7.94 45.66 6.61
8/10/2021 2:00:00 PM 20.1 68.18 0.505 7.95 42.91 6.78
8/10/2021 2:15:00 PM 20.2 68.36 0.949 7.67 59.09 6.86
8/10/2021 2:30:00 PM 20.45 68.81 0.678 7.79 49.42 6.9
8/10/2021 2:45:00 PM 20.78 69.404 0.977 7.62 71.17 6.87
8/10/2021 3:00:00 PM 20.99 69.782 0.594 7.71 90.19 6.85
8/10/2021 3:15:00 PM 21.24 70.232 0.497 7.81 60.55 6.7
8/10/2021 3:30:00 PM 21.54 70.772 0.451 7.85 60.07 6.51
8/10/2021 3:45:00 PM 21.71 71.078 0.419 7.84 85.43 6.17
8/10/2021 4:00:00 PM 21.79 71.222 0.398 7.82 72.78 5.88
8/10/2021 4:15:00 PM 21.88 71.384 0.383 7.8 82.73 5.66
8/10/2021 4:30:00 PM 21.9 71.42 0.375 7.77 89.83 5.37
8/10/2021 4:45:00 PM 21.96 71.528 0.37 7.74 86.46 5.15
8/10/2021 5:00:00 PM 22.09 71.762 0.367 7.72 92.16 5.06
8/10/2021 5:15:00 PM 22.16 71.888 0.366 7.7 88.45 4.96
8/10/2021 5:30:00 PM 22.25 72.05 0.367 7.69 99.15 4.9
8/10/2021 5:45:00 PM 22.41 72.338 0.367 7.68 95.67 4.96
8/10/2021 6:00:00 PM 22.48 72.464 0.367 7.68 103.1 4.93
8/10/2021 6:15:00 PM 22.49 72.482 0.37 7.68 95.08 4.92
8/10/2021 6:30:00 PM 22.43 72.374 0.383 7.69 72.57 4.96
8/10/2021 6:45:00 PM 22.25 72.05 0.404 7.71 70.26 5.08
8/10/2021 7:00:00 PM 21.98 71.564 0.43 7.74 63.04 5.27
8/10/2021 7:15:00 PM 21.72 71.096 0.452 7.77 58.07 5.46
8/10/2021 7:30:00 PM 21.45 70.61 0.472 7.81 59.68 5.65
8/10/2021 7:45:00 PM 21.21 70.17799 0.485 7.85 46.2 5.83
8/10/2021 8:00:00 PM 21.02 69.836 0.494 7.87 47.66 5.93
8/10/2021 8:15:00 PM 20.88 69.584 0.499 7.89 44.13 5.95
8/10/2021 8:30:00 PM 20.75 69.35 0.5 7.89 49.34 5.9
8/10/2021 8:45:00 PM 20.64 69.152 0.5 7.89 49.84 5.84
8/10/2021 9:00:00 PM 20.55 68.99 0.497 7.88 50.51 5.77
8/10/2021 9:15:00 PM 20.49 68.882 0.494 7.88 48.75 5.73
8/10/2021 9:30:00 PM 20.44 68.792 0.489 7.86 56.16 5.63
8/10/2021 9:45:00 PM 20.41 68.738 0.485 7.85 57.22 5.55
8/10/2021 10:00:00 PM 20.38 68.684 0.481 7.84 50.82 5.48
8/10/2021 10:15:00 PM 20.37 68.666 0.477 7.83 45.41 5.4
8/10/2021 10:30:00 PM 20.37 68.666 0.473 7.81 57.12 5.25
8/10/2021 10:45:00 PM 20.38 68.684 0.471 7.8 50.94 5.23
8/10/2021 11:00:00 PM 20.38 68.684 0.468 7.8 47.64 5.16
8/10/2021 11:15:00 PM 20.38 68.684 0.467 7.79 45.07 5.1
8/10/2021 11:30:00 PM 20.38 68.684 0.467 7.78 96.75 5.06
8/10/2021 11:45:00 PM 20.36 68.648 0.466 7.77 47.57 5.01
8/11/2021 12:00:00 AM 20.34 68.612 0.466 7.76 49.78 5.01
8/11/2021 12:15:00 AM 20.31 68.558 0.466 7.76 56.87 4.97
8/11/2021 12:30:00 AM 20.28 68.504 0.467 7.75 46.26 4.92
8/11/2021 12:45:00 AM 20.24 68.432 0.467 7.74 65.48 4.88
8/11/2021 1:00:00 AM 20.2 68.36 0.468 7.73 63.91 4.86
8/11/2021 1:15:00 AM 20.15 68.27 0.469 7.73 56.8 4.81
8/11/2021 1:30:00 AM 20.11 68.198 0.47 7.72 55.4 4.8
8/11/2021 1:45:00 AM 20.05 68.09 0.472 7.72 46.87 4.77
8/11/2021 2:00:00 AM 19.99 67.982 0.473 7.72 49.41 4.76
8/11/2021 2:15:00 AM 19.94 67.892 0.475 7.71 105.6 4.74
8/11/2021 2:30:00 AM 19.89 67.802 0.478 7.71 46.99 4.72
8/11/2021 2:45:00 AM 19.84 67.712 0.48 7.71 41.59 4.73
8/11/2021 3:00:00 AM 19.79 67.622 0.482 7.7 45.87 4.74
8/11/2021 3:15:00 AM 19.74 67.532 0.485 7.7 53.86 4.71
8/11/2021 3:30:00 AM 19.69 67.442 0.487 7.7 48.42 4.71
8/11/2021 3:45:00 AM 19.64 67.352 0.489 7.7 59.71 4.7
8/11/2021 4:00:00 AM 19.6 67.28 0.492 7.7 69.76 4.76
8/11/2021 4:15:00 AM 19.55 67.19 0.494 7.7 51.06 4.72
8/11/2021 4:30:00 AM 19.5 67.1 0.495 7.7 70.21 4.76
8/11/2021 4:45:00 AM 19.46 67.028 0.497 7.7 75.14 4.78
8/11/2021 5:00:00 AM 19.4 66.92 0.498 7.7 91.93 4.76
8/11/2021 5:15:00 AM 19.35 66.83 0.499 7.71 95.69 4.81
8/11/2021 5:30:00 AM 19.3 66.74 0.499 7.71 117.4 4.8
8/11/2021 5:45:00 AM 19.25 66.65 0.5 7.71 123.1 4.84
8/11/2021 6:00:00 AM 19.21 66.578 0.5 7.71 105.9 4.83
8/11/2021 6:15:00 AM 19.16 66.488 0.501 7.71 77.55 4.91
8/11/2021 6:30:00 AM 19.12 66.416 0.501 7.71 98.87 4.9
8/11/2021 6:45:00 AM 19.07 66.326 0.501 7.71 102 4.9
8/11/2021 7:00:00 AM 19.04 66.272 0.501 7.71 110.7 4.86
8/11/2021 7:15:00 AM 19 66.2 0.501 7.72 114.4 4.97
8/11/2021 7:30:00 AM 18.98 66.164 0.501 7.72 151.1 5.04
8/11/2021 7:45:00 AM 18.95 66.11 0.502 7.72 110.5 5.06
8/11/2021 8:00:00 AM 18.94 66.092 0.502 7.73 101.6 5.17
8/11/2021 8:15:00 AM 18.93 66.074 0.503 7.73 101.1 5.24
8/11/2021 8:30:00 AM 18.93 66.074 0.504 7.74 103.9 5.33
8/11/2021 8:45:00 AM 18.94 66.092 0.504 7.74 94.19 5.41
8/11/2021 9:00:00 AM 18.97 66.146 0.505 7.76 93.97 5.55
8/11/2021 9:15:00 AM 19.01 66.218 0.506 7.77 96.62 5.69
8/11/2021 9:30:00 AM 19.04 66.272 0.507 7.78 121.3 5.85
8/11/2021 9:45:00 AM 19.06 66.308 0.508 7.79 106.1 5.95
8/11/2021 10:00:00 AM 19.09 66.362 0.509 7.8 130 6.05
8/11/2021 10:15:00 AM 19.16 66.488 0.51 7.81 134.9 6.2
8/11/2021 10:30:00 AM 19.28 66.704 0.511 7.82 111.3 6.37
8/11/2021 10:45:00 AM 19.42 66.956 0.512 7.83 98.71 6.53
8/11/2021 11:00:00 AM 19.57 67.226 0.513 7.85 104.9 6.69
8/11/2021 11:15:00 AM 19.73 67.514 0.515 7.86 99.08 6.82
8/11/2021 11:30:00 AM 19.93 67.874 0.516 7.87 88.78 7.01
8/11/2021 11:45:00 AM 20.11 68.198 0.517 7.89 100.4 7.19
8/11/2021 12:00:00 PM 20.22 68.396 0.519 7.9 108.9 7.27
8/11/2021 12:15:00 PM 20.39 68.702 0.52 7.91 102 7.41
8/11/2021 12:30:00 PM 20.56 69.008 0.521 7.93 105.8 7.51
8/11/2021 12:45:00 PM 20.76 69.368 0.523 7.94 110.8 7.67
8/11/2021 1:00:00 PM 20.91 69.638 0.525 7.96 134.5 7.85
8/11/2021 1:15:00 PM 21.08 69.944 0.527 7.97 92.23 7.91
8/11/2021 1:30:00 PM 21.36 70.448 0.524 7.99 104.4 8.05
8/11/2021 1:45:00 PM 21.61 70.898 0.525 8 72.05 8.16
8/11/2021 2:00:00 PM 21.85 71.33 0.525 8.02 120.8 8.31
8/11/2021 2:15:00 PM 22.07 71.726 0.522 8.03 143.1 8.35
8/11/2021 2:30:00 PM 22.29 72.122 0.523 8.04 115.8 8.4
8/11/2021 2:45:00 PM 22.46 72.42799 0.526 8.06 128.8 8.48
8/11/2021 3:00:00 PM 22.47 72.446 0.524 8.06 131.3 8.41
8/11/2021 3:15:00 PM 22.57 72.626 0.532 8.06 138.6 8.38
8/11/2021 3:30:00 PM 22.66 72.788 0.53 8.07 129.6 8.34
8/11/2021 3:45:00 PM 22.56 72.608 0.528 7.86 151.4 8.1
8/11/2021 4:00:00 PM 22.37 72.266 0.525 8.05 111.3 7.75
8/11/2021 4:15:00 PM 22.43 72.374 0.673 7.96 123.8 7.42
8/11/2021 4:30:00 PM 22.33 72.194 0.609 7.92 138.3 7.14
8/11/2021 4:45:00 PM 22.09 71.762 0.566 7.94 171.8 6.85
8/11/2021 5:00:00 PM 21.93 71.474 0.55 7.95 154.3 6.72
8/11/2021 5:15:00 PM 21.88 71.384 0.545 7.95 87.16 6.66
8/11/2021 5:30:00 PM 22 71.6 0.546 7.97 151.9 6.78
8/11/2021 5:45:00 PM 21.99 71.582 0.543 7.97 156.2 6.88
8/11/2021 6:00:00 PM 21.92 71.456 0.539 7.97 151 6.78
8/11/2021 6:15:00 PM 21.9 71.42 0.537 7.97 161 6.67
8/11/2021 6:30:00 PM 21.89 71.402 0.535 7.97 171.7 6.67
8/11/2021 6:45:00 PM 21.85 71.33 0.535 7.98 158.7 6.7
8/11/2021 7:00:00 PM 21.78 71.204 0.533 7.98 114.2 6.55
8/11/2021 7:15:00 PM 21.67 71.006 0.534 7.97 178.8 6.4
8/11/2021 7:30:00 PM 21.57 70.826 0.533 7.96 168.9 6.25
8/11/2021 7:45:00 PM 21.49 70.682 0.533 7.95 170.2 6.12
8/11/2021 8:00:00 PM 21.4 70.52 0.534 7.94 158.6 6.04
8/11/2021 8:15:00 PM 21.32 70.376 0.535 7.93 178 5.96
8/11/2021 8:30:00 PM 21.25 70.25 0.534 7.93 176.1 5.89
8/11/2021 8:45:00 PM 21.19 70.142 0.533 7.92 175.8 5.79
8/11/2021 9:00:00 PM 21.16 70.088 0.532 7.92 180.7 5.74
8/11/2021 9:15:00 PM 21.12 70.016 0.532 7.91 175.9 5.71
8/11/2021 9:30:00 PM 21.09 69.962 0.531 7.91 167.1 5.63
8/11/2021 9:45:00 PM 21.05 69.89 0.53 7.9 197.2 5.59
8/11/2021 10:00:00 PM 21.01 69.818 0.53 7.89 208.8 5.51
8/11/2021 10:15:00 PM 20.96 69.728 0.529 7.88 211.3 5.44
8/11/2021 10:30:00 PM 20.91 69.638 0.528 7.88 217.8 5.41
8/11/2021 10:45:00 PM 20.85 69.53 0.528 7.86 198.1 5.33
8/11/2021 11:00:00 PM 20.79 69.422 0.527 7.85 170.1 5.26
8/11/2021 11:15:00 PM 20.73 69.314 0.526 7.84 124.1 5.19
8/11/2021 11:30:00 PM 20.67 69.206 0.525 7.83 121.4 5.12
8/11/2021 11:45:00 PM 20.62 69.116 0.525 7.82 121.7 5.05
8/12/2021 12:00:00 AM 20.56 69.008 0.524 7.81 108.9 4.95
8/12/2021 12:15:00 AM 20.52 68.936 0.525 7.81 125.1 4.96
8/12/2021 12:30:00 AM 20.47 68.846 0.526 7.8 116.9 4.95
8/12/2021 12:45:00 AM 20.43 68.774 0.527 7.8 120.8 4.95
8/12/2021 1:00:00 AM 20.38 68.684 0.528 7.8 143.6 4.89
8/12/2021 1:15:00 AM 20.32 68.576 0.529 7.8 133.3 4.96
8/12/2021 1:30:00 AM 20.27 68.486 0.53 7.8 128.8 4.95
8/12/2021 1:45:00 AM 20.21 68.378 0.531 7.8 107.1 4.96
8/12/2021 2:00:00 AM 20.16 68.288 0.532 7.8 107.9 4.96
8/12/2021 2:15:00 AM 20.1 68.18 0.532 7.8 109.8 4.97
8/12/2021 2:30:00 AM 20.04 68.07201 0.533 7.8 109.1 4.97
8/12/2021 2:45:00 AM 19.98 67.964 0.533 7.8 151.2 4.97
8/12/2021 3:00:00 AM 19.92 67.856 0.533 7.79 128.1 4.99
8/12/2021 3:15:00 AM 19.85 67.73 0.534 7.79 151.2 4.97
8/12/2021 3:30:00 AM 19.79 67.622 0.534 7.79 122.4 4.98
8/12/2021 3:45:00 AM 19.73 67.514 0.534 7.78 127.3 4.97
8/12/2021 4:00:00 AM 19.67 67.406 0.534 7.78 170 4.96
8/12/2021 4:15:00 AM 19.61 67.298 0.534 7.78 126.6 4.99
8/12/2021 4:30:00 AM 19.56 67.208 0.534 7.78 156.1 4.99
8/12/2021 4:45:00 AM 19.51 67.118 0.534 7.78 144.6 5.01
8/12/2021 5:00:00 AM 19.46 67.028 0.534 7.78 392.6 4.97
8/12/2021 5:15:00 AM 19.41 66.938 0.534 7.78 145.6 5.01
8/12/2021 5:30:00 AM 19.36 66.848 0.534 7.78 140 4.99
8/12/2021 5:45:00 AM 19.3 66.74 0.534 7.78 129.3 5.03
8/12/2021 6:00:00 AM 19.25 66.65 0.534 7.78 340.2 5.03
8/12/2021 6:15:00 AM 19.21 66.578 0.534 7.78 383 5.03
8/12/2021 6:30:00 AM 19.17 66.506 0.535 7.78 326.2 5.04
8/12/2021 6:45:00 AM 19.14 66.452 0.535 7.78 155.3 5.05
8/12/2021 7:00:00 AM 19.11 66.398 0.535 7.78 98.67 5.09
8/12/2021 7:15:00 AM 19.08 66.344 0.533 7.78 122.6 5.09
8/12/2021 7:30:00 AM 19.06 66.308 0.532 7.78 140.9 5.17
8/12/2021 7:45:00 AM 19.06 66.308 0.537 7.79 110.7 5.24
8/12/2021 8:00:00 AM 19.05 66.29 0.535 7.79 136.7 5.3
8/12/2021 8:15:00 AM 19.05 66.29 0.535 7.8 158.7 5.41
8/12/2021 8:30:00 AM 19.05 66.29 0.533 7.81 99.56 5.51
8/12/2021 8:45:00 AM 19.08 66.344 0.535 7.82 112 5.63
8/12/2021 9:00:00 AM 19.11 66.398 0.534 7.82 5093 5.77
8/12/2021 9:15:00 AM 19.14 66.452 0.535 7.84 5093 5.9
8/12/2021 9:30:00 AM 19.2 66.56 0.536 7.85 5093 6.04
8/12/2021 9:45:00 AM 19.28 66.704 0.538 7.86 5093 6.2
8/12/2021 10:00:00 AM 19.36 66.848 0.535 7.87 5093 6.34
8/12/2021 10:15:00 AM 19.45 67.01 0.538 7.88 5093 6.46
8/12/2021 10:30:00 AM 19.55 67.19 0.54 7.89 5093 6.58
8/12/2021 10:45:00 AM 19.66 67.388 0.541 7.9 5092 6.71
8/12/2021 11:00:00 AM 19.79 67.622 0.542 7.91 5093 6.86
8/12/2021 11:15:00 AM 19.94 67.892 0.542 7.92 5092 7.02
8/12/2021 11:30:00 AM 20.1 68.18 0.543 7.94 5092 7.15
8/12/2021 11:45:00 AM 20.24 68.432 0.544 7.95 5092 7.31
8/12/2021 12:00:00 PM 20.46 68.828 0.545 7.96 5092 7.46
8/12/2021 12:15:00 PM 20.7 69.26 0.546 7.98 5092 7.63
8/12/2021 12:30:00 PM 20.9 69.62 0.547 7.99 5092 7.74
8/12/2021 12:45:00 PM 21.12 70.016 0.548 8.01 5092 7.9
8/12/2021 1:00:00 PM 21.25 70.25 0.549 8.02 5092 7.93
8/12/2021 1:15:00 PM 21.41 70.538 0.55 8.03 5092 8
8/12/2021 1:30:00 PM 21.66 70.988 0.548 8.04 5092 8.1
8/12/2021 1:45:00 PM 21.8 71.24 0.55 8.05 5092 8.14
8/12/2021 2:00:00 PM 21.98 71.564 0.548 8.06 5092 8.19
8/12/2021 2:15:00 PM 22.14 71.852 0.546 8.07 5092 8.23
8/12/2021 2:30:00 PM 22.36 72.248 0.547 8.08 5092 8.29
8/12/2021 2:45:00 PM 22.41 72.338 0.549 8.08 5092 8.26
8/12/2021 3:00:00 PM 22.62 72.716 0.548 8.09 5092 8.31
8/12/2021 3:15:00 PM 22.72 72.896 0.55 8.09 5092 8.28
8/12/2021 3:30:00 PM 22.85 73.13 0.548 8.1 5092 8.29
8/12/2021 3:45:00 PM 22.98 73.364 0.547 8.11 5092 8.3
8/12/2021 4:00:00 PM 23.08 73.544 0.548 8.11 5092 8.31
8/12/2021 4:15:00 PM 23.16 73.688 0.548 8.11 5092 8.28
8/12/2021 4:30:00 PM 23.22 73.796 0.548 8.11 5092 8.24
8/12/2021 4:45:00 PM 23.27 73.886 0.548 8.11 5092 8.19
8/12/2021 5:00:00 PM 23.29 73.922 0.547 8.11 5092 8.13
8/12/2021 5:15:00 PM 23.28 73.904 0.547 8.11 5092 8.03
8/12/2021 5:30:00 PM 23.27 73.886 0.548 8.1 5092 7.93
8/12/2021 5:45:00 PM 23.23 73.814 0.549 8.09 5092 7.81
8/12/2021 6:00:00 PM 23.21 73.778 0.55 8.08 5092 7.67
8/12/2021 6:15:00 PM 23.17 73.706 0.548 8.07 5092 7.53
8/12/2021 6:30:00 PM 23.06 73.508 0.549 8.06 5092 7.34
8/12/2021 6:45:00 PM 23.01 73.418 0.549 8.05 5092 7.15
8/12/2021 7:00:00 PM 22.95 73.31 0.55 8.04 5092 6.98
8/12/2021 7:15:00 PM 22.9 73.22 0.548 8.03 5092 6.84
8/12/2021 7:30:00 PM 22.84 73.112 0.55 8.02 5092 6.69
8/12/2021 7:45:00 PM 22.79 73.022 0.55 8.01 5092 6.54
8/12/2021 8:00:00 PM 22.74 72.932 0.55 8 5092 6.39
8/12/2021 8:15:00 PM 22.69 72.842 0.549 7.99 5092 6.27
8/12/2021 8:30:00 PM 22.64 72.752 0.549 7.98 5092 6.15
8/12/2021 8:45:00 PM 22.58 72.644 0.549 7.97 5092 6.06
8/12/2021 9:00:00 PM 22.5 72.5 0.549 7.96 5092 5.96
8/12/2021 9:15:00 PM 22.43 72.374 0.55 7.96 5092 5.88
8/12/2021 9:30:00 PM 22.35 72.23 0.551 7.95 5092 5.8
8/12/2021 9:45:00 PM 22.28 72.104 0.553 7.95 5092 5.74
8/12/2021 10:00:00 PM 22.21 71.978 0.553 7.94 5092 5.68
8/12/2021 10:15:00 PM 22.13 71.834 0.554 7.94 5092 5.6
8/12/2021 10:30:00 PM 22.06 71.708 0.553 7.94 5092 5.55
8/12/2021 10:45:00 PM 21.98 71.564 0.553 7.93 5092 5.47
8/12/2021 11:00:00 PM 21.91 71.438 0.551 7.93 5092 5.43
8/12/2021 11:15:00 PM 21.85 71.33 0.55 7.92 5092 5.37
8/12/2021 11:30:00 PM 21.79 71.222 0.548 7.92 5092 5.34
8/12/2021 11:45:00 PM 21.73 71.114 0.547 7.91 5092 5.28
8/13/2021 12:00:00 AM 21.67 71.006 0.545 7.91 5092 5.23
8/13/2021 12:15:00 AM 21.61 70.898 0.546 7.9 5092 5.19
8/13/2021 12:30:00 AM 21.56 70.808 0.545 7.89 5092 5.16
8/13/2021 12:45:00 AM 21.5 70.7 0.545 7.89 5092 5.13
8/13/2021 1:00:00 AM 21.45 70.61 0.544 7.88 5092 5.09
8/13/2021 1:15:00 AM 21.4 70.52 0.543 7.88 5092 5.06
8/13/2021 1:30:00 AM 21.34 70.412 0.543 7.87 5092 5.02
8/13/2021 1:45:00 AM 21.28 70.304 0.542 7.87 5092 5.03
8/13/2021 2:00:00 AM 21.23 70.214 0.542 7.86 5092 5
8/13/2021 2:15:00 AM 21.17 70.106 0.541 7.86 5092 4.96
8/13/2021 2:30:00 AM 21.11 69.998 0.541 7.85 5092 4.93
8/13/2021 2:45:00 AM 21.05 69.89 0.54 7.84 5092 4.93
8/13/2021 3:00:00 AM 20.99 69.782 0.54 7.84 5092 4.89
8/13/2021 3:15:00 AM 20.94 69.692 0.539 7.84 5092 4.88
8/13/2021 3:30:00 AM 20.88 69.584 0.539 7.83 5092 4.85
8/13/2021 3:45:00 AM 20.82 69.476 0.538 7.83 5092 4.84
8/13/2021 4:00:00 AM 20.76 69.368 0.538 7.82 5092 4.82
8/13/2021 4:15:00 AM 20.7 69.26 0.537 7.82 5092 4.82
8/13/2021 4:30:00 AM 20.64 69.152 0.536 7.82 5092 4.79
8/13/2021 4:45:00 AM 20.58 69.044 0.536 7.81 5092 4.77
8/13/2021 5:00:00 AM 20.52 68.936 0.535 7.81 5092 4.75
8/13/2021 5:15:00 AM 20.46 68.828 0.535 7.81 5092 4.76
8/13/2021 5:30:00 AM 20.39 68.702 0.534 7.8 5092 4.77
8/13/2021 5:45:00 AM 20.33 68.594 0.534 7.8 5092 4.76
8/13/2021 6:00:00 AM 20.27 68.486 0.534 7.8 5092 4.79
8/13/2021 6:15:00 AM 20.21 68.378 0.534 7.8 5092 4.77
8/13/2021 6:30:00 AM 20.14 68.252 0.533 7.79 5092 4.78
8/13/2021 6:45:00 AM 20.09 68.162 0.533 7.79 5092 4.78
8/13/2021 7:00:00 AM 20.03 68.054 0.533 7.8 5092 4.81
8/13/2021 7:15:00 AM 19.99 67.982 0.534 7.8 5092 4.83
8/13/2021 7:30:00 AM 19.94 67.892 0.534 7.8 5092 4.89
8/13/2021 7:45:00 AM 19.91 67.838 0.534 7.8 5092 4.92
8/13/2021 8:00:00 AM 19.89 67.802 0.534 7.8 5092 4.99
8/13/2021 8:15:00 AM 19.87 67.766 0.535 7.81 5093 5.1
8/13/2021 8:30:00 AM 19.87 67.766 0.535 7.82 5092 5.17
8/13/2021 8:45:00 AM 19.87 67.766 0.535 7.82 5092 5.27
8/13/2021 9:00:00 AM 19.9 67.82 0.536 7.83 5092 5.36
8/13/2021 9:15:00 AM 19.93 67.874 0.537 7.84 5092 5.5
8/13/2021 9:30:00 AM 19.98 67.964 0.537 7.85 5092 5.62
8/13/2021 9:45:00 AM 20.03 68.054 0.538 7.86 5092 5.77
8/13/2021 10:00:00 AM 20.1 68.18 0.538 7.87 5092 5.9
8/13/2021 10:15:00 AM 20.18 68.324 0.539 7.88 5092 6.04
8/13/2021 10:30:00 AM 20.28 68.504 0.54 7.89 5092 6.19
8/13/2021 10:45:00 AM 20.39 68.702 0.54 7.9 5092 6.36
8/13/2021 11:00:00 AM 20.53 68.954 0.541 7.91 5092 6.52
8/13/2021 11:15:00 AM 20.66 69.188 0.542 7.92 5092 6.7
8/13/2021 11:30:00 AM 20.83 69.494 0.542 7.94 5092 6.85
8/13/2021 11:45:00 AM 21.01 69.818 0.543 7.95 5092 7.03
8/13/2021 12:00:00 PM 21.19 70.142 0.543 7.97 5092 7.21
8/13/2021 12:15:00 PM 21.4 70.52 0.543 7.98 5092 7.37
8/13/2021 12:30:00 PM 21.6 70.88 0.544 8 5092 7.57
8/13/2021 12:45:00 PM 21.82 71.276 0.544 8.01 5092 7.71
8/13/2021 1:00:00 PM 22.03 71.654 0.542 8.02 5092 7.88
8/13/2021 1:15:00 PM 22.24 72.032 0.541 8.03 5092 7.99
8/13/2021 1:30:00 PM 22.47 72.446 0.542 8.05 5092 8.11
8/13/2021 1:45:00 PM 22.66 72.788 0.542 8.06 5092 8.2
8/13/2021 2:00:00 PM 22.71 72.878 0.539 8.06 5092 8.11
8/13/2021 2:15:00 PM 22.91 73.238 0.538 8.07 5092 8.2
8/13/2021 2:30:00 PM 23.02 73.436 0.538 8.08 5092 8.2
8/13/2021 2:45:00 PM 23.03 73.454 0.538 8.08 5092 8.12
8/13/2021 3:00:00 PM 23 73.4 0.533 8.07 5092 7.97
8/13/2021 3:15:00 PM 22.98 73.364 0.533 8.07 5092 7.85
8/13/2021 3:30:00 PM 23.01 73.418 0.528 8.08 5092 7.87
8/13/2021 3:45:00 PM 23.08 73.544 0.529 8.09 5092 7.89
8/13/2021 4:00:00 PM 23 73.4 0.528 8.08 5092 7.77
8/13/2021 4:15:00 PM 23.01 73.418 0.526 8.08 5092 7.68
8/13/2021 4:30:00 PM 23.06 73.508 0.532 8.09 5092 7.77
8/13/2021 4:45:00 PM 23.09 73.562 0.531 8.09 5092 7.76
8/13/2021 5:00:00 PM 23.03 73.454 0.532 8.09 5092 7.63
8/13/2021 5:15:00 PM 22.96 73.328 0.53 8.08 5092 7.46
8/13/2021 5:30:00 PM 23.05 73.49 0.53 8.09 5092 7.45
8/13/2021 5:45:00 PM 23.08 73.544 0.531 8.09 5092 7.48
8/13/2021 6:00:00 PM 23.06 73.508 0.531 8.09 5092 7.4
8/13/2021 6:15:00 PM 22.99 73.382 0.531 8.08 5092 7.28
8/13/2021 6:30:00 PM 22.89 73.202 0.531 8.07 5092 7.09
8/13/2021 6:45:00 PM 22.84 73.112 0.532 8.06 5092 6.92
8/13/2021 7:00:00 PM 22.8 73.04 0.531 8.05 5092 6.81
8/13/2021 7:15:00 PM 22.75 72.95 0.531 8.04 5092 6.68
8/13/2021 7:30:00 PM 22.68 72.824 0.532 8.03 5092 6.55
8/13/2021 7:45:00 PM 22.6 72.68 0.532 8.02 5092 6.42
8/13/2021 8:00:00 PM 22.52 72.536 0.532 8.01 5092 6.28
8/13/2021 8:15:00 PM 22.45 72.41 0.532 8.01 5092 6.18
8/13/2021 8:30:00 PM 22.39 72.302 0.531 8 5092 6.08
8/13/2021 8:45:00 PM 22.32 72.176 0.532 7.99 5092 5.98
8/13/2021 9:00:00 PM 22.25 72.05 0.532 7.98 5092 5.9
8/13/2021 9:15:00 PM 22.18 71.924 0.532 7.97 5092 5.78
8/13/2021 9:30:00 PM 22.12 71.816 0.532 7.96 5092 5.67
8/13/2021 9:45:00 PM 22.07 71.726 0.532 7.96 5092 5.61
8/13/2021 10:00:00 PM 22.02 71.636 0.533 7.95 5092 5.58
8/13/2021 10:15:00 PM 21.97 71.546 0.533 7.95 5092 5.53
8/13/2021 10:30:00 PM 21.92 71.456 0.533 7.94 5092 5.46
8/13/2021 10:45:00 PM 21.87 71.366 0.533 7.93 5092 5.39
8/13/2021 11:00:00 PM 21.82 71.276 0.534 7.93 5092 5.33
8/13/2021 11:15:00 PM 21.77 71.186 0.533 7.92 5092 5.29
8/13/2021 11:30:00 PM 21.7 71.06 0.526 7.93 5092 5.29
8/13/2021 11:45:00 PM 22.37 72.266 0.58 7.85 5092 5.27
8/14/2021 12:00:00 AM 21.98 71.564 0.541 7.86 5092 5.23
8/14/2021 12:15:00 AM 21.85 71.33 0.54 7.86 5092 5.19
8/14/2021 12:30:00 AM 21.72 71.096 0.532 7.86 5092 5.19
8/14/2021 12:45:00 AM 21.63 70.934 0.527 7.86 5092 5.13
8/14/2021 1:00:00 AM 21.54 70.772 0.524 7.84 5092 4.91
8/14/2021 1:15:00 AM 21.39 70.502 0.521 7.84 5092 4.92
8/14/2021 1:30:00 AM 21.3 70.34 0.519 7.85 5092 4.96
8/14/2021 1:45:00 AM 21.22 70.196 0.517 7.84 5092 4.94
8/14/2021 2:00:00 AM 21.17 70.106 0.517 7.84 5092 4.92
8/14/2021 2:15:00 AM 21.12 70.016 0.515 7.83 5092 4.84
8/14/2021 2:30:00 AM 21.08 69.944 0.512 7.83 5092 4.77
8/14/2021 2:45:00 AM 21.04 69.872 0.51 7.82 5092 4.75
8/14/2021 3:00:00 AM 20.99 69.782 0.509 7.81 5092 4.78
8/14/2021 3:15:00 AM 20.96 69.728 0.508 7.8 5092 4.66
8/14/2021 3:30:00 AM 20.92 69.656 0.504 7.8 5092 4.61
8/14/2021 3:45:00 AM 20.88 69.584 0.497 7.79 5092 4.55
8/14/2021 4:00:00 AM 20.85 69.53 0.491 7.78 5092 4.52
8/14/2021 4:15:00 AM 20.81 69.458 0.486 7.77 5092 4.53
8/14/2021 4:30:00 AM 20.78 69.404 0.481 7.76 5092 4.49
8/14/2021 4:45:00 AM 20.75 69.35 0.478 7.75 5092 4.45
8/14/2021 5:00:00 AM 20.71 69.278 0.475 7.75 5092 4.44
8/14/2021 5:15:00 AM 20.66 69.188 0.471 7.73 5092 4.4
8/14/2021 5:30:00 AM 20.62 69.116 0.469 7.72 5092 4.35
8/14/2021 5:45:00 AM 20.58 69.044 0.467 7.71 5092 4.26
8/14/2021 6:00:00 AM 20.52 68.936 0.467 7.7 5092 4.21
8/14/2021 6:15:00 AM 20.46 68.828 0.466 7.7 5092 4.29
8/14/2021 6:30:00 AM 20.4 68.72 0.467 7.7 5092 4.35
8/14/2021 6:45:00 AM 20.36 68.648 0.467 7.7 5092 4.31
8/14/2021 7:00:00 AM 20.32 68.576 0.467 7.69 5092 4.3
8/14/2021 7:15:00 AM 20.29 68.522 0.469 7.69 5092 4.33
8/14/2021 7:30:00 AM 20.25 68.45 0.473 7.69 5092 4.38
8/14/2021 7:45:00 AM 20.22 68.396 0.478 7.7 5092 4.41
8/14/2021 8:00:00 AM 20.18 68.324 0.485 7.71 5092 4.54
8/14/2021 8:15:00 AM 20.13 68.234 0.491 7.73 5092 4.67
8/14/2021 8:30:00 AM 20.08 68.144 0.497 7.74 5092 4.8
8/14/2021 8:45:00 AM 20.02 68.036 0.503 7.76 5093 4.97
8/14/2021 9:00:00 AM 19.96 67.92799 0.507 7.77 5092 5.08
8/14/2021 9:15:00 AM 19.92 67.856 0.511 7.79 5092 5.27
8/14/2021 9:30:00 AM 19.88 67.784 0.513 7.81 5093 5.43
8/14/2021 9:45:00 AM 19.84 67.712 0.514 7.82 5093 5.56
8/14/2021 10:00:00 AM 19.8 67.64 0.514 7.83 5092 5.81
8/14/2021 10:15:00 AM 19.77 67.586 0.512 7.85 5092 5.99
8/14/2021 10:30:00 AM 19.74 67.532 0.511 7.85 5092 6.02
8/14/2021 10:45:00 AM 19.74 67.532 0.508 7.86 5093 6.12
8/14/2021 11:00:00 AM 19.82 67.676 0.504 7.87 5092 6.26
8/14/2021 11:15:00 AM 19.88 67.784 0.5 7.87 5093 6.32
8/14/2021 11:30:00 AM 19.96 67.92799 0.496 7.88 5092 6.39
8/14/2021 11:45:00 AM 20.02 68.036 0.492 7.88 5092 6.43
8/14/2021 12:00:00 PM 20.15 68.27 0.489 7.89 5092 6.59
8/14/2021 12:15:00 PM 20.28 68.504 0.486 7.9 5092 6.64
8/14/2021 12:30:00 PM 20.4 68.72 0.483 7.9 5092 6.73
8/14/2021 12:45:00 PM 20.46 68.828 0.482 7.91 5092 6.78
8/14/2021 1:00:00 PM 20.53 68.954 0.481 7.91 5092 6.81
8/14/2021 1:15:00 PM 20.69 69.242 0.481 7.93 5092 7.04
8/14/2021 1:30:00 PM 20.75 69.35 0.481 7.93 5092 6.94
8/14/2021 1:45:00 PM 20.84 69.512 0.482 7.94 5092 7.14
8/14/2021 2:00:00 PM 21.1 69.98 0.483 7.96 5092 7.37
8/14/2021 2:15:00 PM 21.31 70.358 0.484 7.98 5092 7.55
8/14/2021 2:30:00 PM 21.49 70.682 0.485 7.99 5092 7.69
8/14/2021 2:45:00 PM 21.43 70.574 0.486 7.99 5092 7.57
8/14/2021 3:00:00 PM 21.4 70.52 0.488 7.99 5092 7.54
8/14/2021 3:15:00 PM 21.4 70.52 0.489 8 5092 7.5
8/14/2021 3:30:00 PM 21.33 70.394 0.491 8 5092 7.37
8/14/2021 3:45:00 PM 21.34 70.412 0.493 8 5092 7.45
8/14/2021 4:00:00 PM 21.44 70.592 0.494 8.02 5092 7.59
8/14/2021 4:15:00 PM 21.49 70.682 0.495 8.02 5092 7.67
8/14/2021 4:30:00 PM 21.6 70.88 0.495 8.04 5092 7.81
8/14/2021 4:45:00 PM 21.7 71.06 0.495 8.05 5092 7.93
8/14/2021 5:00:00 PM 21.63 70.934 0.497 8.05 5092 7.81
8/14/2021 5:15:00 PM 21.6 70.88 0.497 8.06 5092 7.8
8/14/2021 5:30:00 PM 21.56 70.808 0.497 8.06 5092 7.73
8/14/2021 5:45:00 PM 21.52 70.736 0.499 8.06 5092 7.66
8/14/2021 6:00:00 PM 21.52 70.736 0.501 8.06 5092 7.66
8/14/2021 6:15:00 PM 21.45 70.61 0.501 8.06 5092 7.54
8/14/2021 6:30:00 PM 21.37 70.466 0.503 8.05 5092 7.4
8/14/2021 6:45:00 PM 21.25 70.25 0.503 8.04 5092 7.23
8/14/2021 7:00:00 PM 21.15 70.07 0.504 8.03 5092 7.08
8/14/2021 7:15:00 PM 21.06 69.908 0.505 8.02 5092 6.95
8/14/2021 7:30:00 PM 20.99 69.782 0.506 8.02 5092 6.87
8/14/2021 7:45:00 PM 20.92 69.656 0.506 8.01 5092 6.77
8/14/2021 8:00:00 PM 20.84 69.512 0.507 8.01 5092 6.66
8/14/2021 8:15:00 PM 20.76 69.368 0.509 8 5092 6.53
8/14/2021 8:30:00 PM 20.68 69.224 0.509 7.99 5092 6.44
8/14/2021 8:45:00 PM 20.59 69.062 0.51 7.98 5092 6.32
8/14/2021 9:00:00 PM 20.5 68.9 0.51 7.97 5092 6.24
8/14/2021 9:15:00 PM 20.41 68.738 0.511 7.96 5092 6.13
8/14/2021 9:30:00 PM 20.32 68.576 0.512 7.95 5092 6.06
8/14/2021 9:45:00 PM 20.25 68.45 0.512 7.94 5092 5.97
8/14/2021 10:00:00 PM 20.16 68.288 0.513 7.94 5092 5.92
8/14/2021 10:15:00 PM 20.09 68.162 0.513 7.93 5092 5.86
8/14/2021 10:30:00 PM 20.01 68.018 0.514 7.93 5092 5.83
8/14/2021 10:45:00 PM 19.94 67.892 0.514 7.92 5092 5.79
8/14/2021 11:00:00 PM 19.85 67.73 0.514 7.92 5092 5.76
8/14/2021 11:15:00 PM 19.77 67.586 0.514 7.91 5092 5.7
8/14/2021 11:30:00 PM 19.68 67.424 0.514 7.91 5092 5.66
8/14/2021 11:45:00 PM 19.59 67.262 0.514 7.9 5092 5.63
8/15/2021 12:00:00 AM 19.5 67.1 0.515 7.9 5092 5.58
8/15/2021 12:15:00 AM 19.41 66.938 0.516 7.89 5092 5.57
8/15/2021 12:30:00 AM 19.33 66.794 0.516 7.89 5092 5.53
8/15/2021 12:45:00 AM 19.24 66.632 0.517 7.89 5093 5.55
8/15/2021 1:00:00 AM 19.15 66.47 0.517 7.88 5093 5.52
8/15/2021 1:15:00 AM 19.08 66.344 0.518 7.88 5093 5.5
8/15/2021 1:30:00 AM 19 66.2 0.518 7.87 5092 5.48
8/15/2021 1:45:00 AM 18.92 66.056 0.518 7.87 5093 5.44
8/15/2021 2:00:00 AM 18.85 65.93 0.52 7.87 5093 5.45
8/15/2021 2:15:00 AM 18.79 65.82201 0.52 7.87 5092 5.45
8/15/2021 2:30:00 AM 18.72 65.696 0.52 7.86 5093 5.4
8/15/2021 2:45:00 AM 18.65 65.57 0.52 7.86 5093 5.42
8/15/2021 3:00:00 AM 18.58 65.444 0.519 7.86 5093 5.41
8/15/2021 3:15:00 AM 18.52 65.336 0.521 7.86 5093 5.39
8/15/2021 3:30:00 AM 18.46 65.228 0.522 7.85 5093 5.41
8/15/2021 3:45:00 AM 18.39 65.102 0.522 7.85 5093 5.38
8/15/2021 4:00:00 AM 18.33 64.994 0.523 7.85 5093 5.39
8/15/2021 4:15:00 AM 18.27 64.886 0.523 7.85 5093 5.39
8/15/2021 4:30:00 AM 18.2 64.76 0.524 7.85 5093 5.38
8/15/2021 4:45:00 AM 18.14 64.652 0.524 7.85 5093 5.37
8/15/2021 5:00:00 AM 18.09 64.562 0.523 7.85 5093 5.42
8/15/2021 5:15:00 AM 18.03 64.454 0.524 7.85 5093 5.4
8/15/2021 5:30:00 AM 17.97 64.346 0.524 7.84 5093 5.4
8/15/2021 5:45:00 AM 17.92 64.256 0.524 7.85 5093 5.41
8/15/2021 6:00:00 AM 17.86 64.148 0.524 7.84 5093 5.41
8/15/2021 6:15:00 AM 17.8 64.04 0.522 7.84 5093 5.43
8/15/2021 6:30:00 AM 17.75 63.95 0.525 7.84 5093 5.42
8/15/2021 6:45:00 AM 17.7 63.86 0.525 7.84 5093 5.44
8/15/2021 7:00:00 AM 17.66 63.788 0.525 7.84 5093 5.47
8/15/2021 7:15:00 AM 17.63 63.734 0.525 7.84 5093 5.52
8/15/2021 7:30:00 AM 17.59 63.662 0.525 7.85 5093 5.55
8/15/2021 7:45:00 AM 17.57 63.626 0.525 7.85 5093 5.65
8/15/2021 8:00:00 AM 17.55 63.59 0.525 7.86 5093 5.7
8/15/2021 8:15:00 AM 17.54 63.572 0.525 7.86 5093 5.81
8/15/2021 8:30:00 AM 17.54 63.572 0.525 7.87 5093 5.92
8/15/2021 8:45:00 AM 17.54 63.572 0.526 7.88 5093 6.04
8/15/2021 9:00:00 AM 17.54 63.572 0.526 7.89 5093 6.11
8/15/2021 9:15:00 AM 17.57 63.626 0.526 7.89 5093 6.29
8/15/2021 9:30:00 AM 17.59 63.662 0.526 7.9 5093 6.42
8/15/2021 9:45:00 AM 17.61 63.698 0.524 7.91 5093 6.55
8/15/2021 10:00:00 AM 17.68 63.824 0.526 7.93 5093 6.73
8/15/2021 10:15:00 AM 17.74 63.932 0.527 7.94 5093 6.88
8/15/2021 10:30:00 AM 17.79 64.022 0.527 7.96 5093 7.09
8/15/2021 10:45:00 AM 17.86 64.148 0.528 7.97 5093 7.25
8/15/2021 11:00:00 AM 17.96 64.328 0.528 7.98 5093 7.44
8/15/2021 11:15:00 AM 18.01 64.418 0.528 8 5093 7.55
8/15/2021 11:30:00 AM 18.18 64.724 0.529 8.01 5093 7.72
8/15/2021 11:45:00 AM 18.37 65.066 0.529 8.02 5093 7.85
8/15/2021 12:00:00 PM 18.56 65.408 0.529 8.04 5093 8
8/15/2021 12:15:00 PM 18.8 65.84 0.53 8.05 5093 8.19
8/15/2021 12:30:00 PM 19.02 66.236 0.53 8.06 5093 8.36
8/15/2021 12:45:00 PM 19.14 66.452 0.53 8.08 5093 8.47
8/15/2021 1:00:00 PM 19.27 66.686 0.531 8.09 5093 8.59
8/15/2021 1:15:00 PM 19.34 66.812 0.522 8.1 5093 8.64
8/15/2021 1:30:00 PM 19.36 66.848 0.524 8.11 5093 8.69
8/15/2021 1:45:00 PM 19.36 66.848 0.527 8.12 5093 8.71
8/15/2021 2:00:00 PM 19.35 66.83 0.526 8.13 5092 8.7
8/15/2021 2:15:00 PM 19.33 66.794 0.527 8.13 5092 8.65
8/15/2021 2:30:00 PM 19.31 66.758 0.528 8.13 5093 8.64
8/15/2021 2:45:00 PM 19.3 66.74 0.527 8.14 5092 8.59
8/15/2021 3:00:00 PM 19.3 66.74 0.525 8.15 5092 8.61
8/15/2021 3:15:00 PM 19.3 66.74 0.524 8.15 5093 8.55
8/15/2021 3:30:00 PM 19.29 66.722 0.525 8.15 5092 8.5
8/15/2021 3:45:00 PM 19.31 66.758 0.524 8.16 5092 8.49
8/15/2021 4:00:00 PM 19.35 66.83 0.523 8.16 5093 8.51
8/15/2021 4:15:00 PM 19.37 66.866 0.522 8.17 5093 8.49
8/15/2021 4:30:00 PM 19.41 66.938 0.524 8.17 5093 8.56
8/15/2021 4:45:00 PM 19.44 66.992 0.524 8.18 5093 8.55
8/15/2021 5:00:00 PM 19.44 66.992 0.525 8.18 5092 8.47
8/15/2021 5:15:00 PM 19.45 67.01 0.525 8.18 5093 8.41
8/15/2021 5:30:00 PM 19.45 67.01 0.526 8.18 5092 8.4
8/15/2021 5:45:00 PM 19.44 66.992 0.525 8.18 5093 8.34
8/15/2021 6:00:00 PM 19.4 66.92 0.525 8.17 5093 8.17
8/15/2021 6:15:00 PM 19.36 66.848 0.524 8.16 5093 7.99
8/15/2021 6:30:00 PM 19.31 66.758 0.526 8.16 5093 7.91
8/15/2021 6:45:00 PM 19.27 66.686 0.526 8.15 5093 7.81
8/15/2021 7:00:00 PM 19.22 66.596 0.525 8.14 5093 7.69
8/15/2021 7:15:00 PM 19.17 66.506 0.526 8.14 5093 7.57
8/15/2021 7:30:00 PM 19.12 66.416 0.526 8.13 5093 7.45
8/15/2021 7:45:00 PM 19.08 66.344 0.526 8.12 5093 7.3
8/15/2021 8:00:00 PM 19.04 66.272 0.526 8.11 5093 7.17
8/15/2021 8:15:00 PM 19 66.2 0.526 8.1 5093 7.04
8/15/2021 8:30:00 PM 18.98 66.164 0.527 8.1 5093 6.94
8/15/2021 8:45:00 PM 18.95 66.11 0.527 8.09 5093 6.82
8/15/2021 9:00:00 PM 18.92 66.056 0.527 8.08 5093 6.72
8/15/2021 9:15:00 PM 18.9 66.02 0.527 8.07 5093 6.62
8/15/2021 9:30:00 PM 18.87 65.966 0.527 8.06 3414 6.55
8/15/2021 9:45:00 PM 18.84 65.912 0.527 8.05 3358 6.46
8/15/2021 10:00:00 PM 18.8 65.84 0.527 8.05 3804 6.44
8/15/2021 10:15:00 PM 18.77 65.786 0.527 8.04 5039 6.34
8/15/2021 10:30:00 PM 18.73 65.714 0.527 8.03 4347 6.28
8/15/2021 10:45:00 PM 18.69 65.642 0.527 8.03 4179 6.24
8/15/2021 11:00:00 PM 18.66 65.588 0.527 8.02 3664 6.18
8/15/2021 11:15:00 PM 18.62 65.516 0.527 8.01 3609 6.14
8/15/2021 11:30:00 PM 18.58 65.444 0.527 8.01 3549 6.09
8/15/2021 11:45:00 PM 18.54 65.372 0.527 8 3504 6.04
8/16/2021 12:00:00 AM 18.51 65.318 0.527 7.99 3480 6
8/16/2021 12:15:00 AM 18.48 65.264 0.527 7.98 3469 5.94
8/16/2021 12:30:00 AM 18.45 65.21 0.526 7.98 3435 5.91
8/16/2021 12:45:00 AM 18.42 65.156 0.526 7.97 3424 5.87
8/16/2021 1:00:00 AM 18.39 65.102 0.526 7.96 3406 5.81
8/16/2021 1:15:00 AM 18.37 65.066 0.526 7.95 3416 5.78
8/16/2021 1:30:00 AM 18.34 65.012 0.525 7.95 3378 5.77
8/16/2021 1:45:00 AM 18.32 64.976 0.525 7.94 3375 5.75
8/16/2021 2:00:00 AM 18.3 64.94 0.525 7.93 3371 5.68
8/16/2021 2:15:00 AM 18.28 64.904 0.524 7.93 3403 5.7
8/16/2021 2:30:00 AM 18.26 64.868 0.524 7.92 3393 5.65
8/16/2021 2:45:00 AM 18.24 64.832 0.523 7.92 3358 5.65
8/16/2021 3:00:00 AM 18.21 64.778 0.524 7.91 3351 5.61
8/16/2021 3:15:00 AM 18.19 64.742 0.524 7.91 3335 5.6
8/16/2021 3:30:00 AM 18.17 64.706 0.523 7.9 3330 5.58
8/16/2021 3:45:00 AM 18.14 64.652 0.523 7.9 3338 5.55
8/16/2021 4:00:00 AM 18.11 64.598 0.522 7.89 3311 5.54
8/16/2021 4:15:00 AM 18.09 64.562 0.522 7.89 3314 5.54
8/16/2021 4:30:00 AM 18.06 64.508 0.522 7.88 3313 5.52
8/16/2021 4:45:00 AM 18.04 64.472 0.522 7.88 3307 5.52
8/16/2021 5:00:00 AM 18.01 64.418 0.522 7.87 3308 5.51
8/16/2021 5:15:00 AM 17.98 64.364 0.522 7.87 3289 5.5
8/16/2021 5:30:00 AM 17.96 64.328 0.522 7.87 3272 5.49
8/16/2021 5:45:00 AM 17.93 64.274 0.522 7.87 3255 5.47
8/16/2021 6:00:00 AM 17.91 64.238 0.521 7.86 3206 5.49
8/16/2021 6:15:00 AM 17.88 64.184 0.521 7.86 3214 5.49
8/16/2021 6:30:00 AM 17.85 64.13 0.522 7.86 3221 5.51
8/16/2021 6:45:00 AM 17.83 64.094 0.522 7.86 3237 5.51
8/16/2021 7:00:00 AM 17.81 64.058 0.522 7.86 3240 5.51
8/16/2021 7:15:00 AM 17.8 64.04 0.522 7.86 3214 5.51
8/16/2021 7:30:00 AM 17.78 64.004 0.522 7.86 3197 5.52
8/16/2021 7:45:00 AM 17.76 63.968 0.522 7.86 3152 5.54
8/16/2021 8:00:00 AM 17.76 63.968 0.523 7.86 3117 5.6
8/16/2021 8:15:00 AM 17.74 63.932 0.523 7.86 3089 5.64
8/16/2021 8:30:00 AM 17.73 63.914 0.523 7.86 3113 5.66
8/16/2021 8:45:00 AM 17.72 63.896 0.523 7.86 3111 5.67
8/16/2021 9:00:00 AM 17.7 63.86 0.523 7.87 3183 5.72
8/16/2021 9:15:00 AM 17.7 63.86 0.524 7.87 3249 5.82
8/16/2021 9:30:00 AM 17.71 63.878 0.524 7.88 3251 5.9
8/16/2021 9:45:00 AM 17.69 63.842 0.525 7.88 3177 5.91
8/16/2021 10:00:00 AM 17.71 63.878 0.525 7.89 3168 6.04
8/16/2021 10:15:00 AM 17.78 64.004 0.525 7.91 3159 6.29
8/16/2021 10:30:00 AM 17.87 64.166 0.526 7.93 3173 6.56
8/16/2021 10:45:00 AM 17.97 64.346 0.525 7.94 3145 6.78
8/16/2021 11:00:00 AM 18.07 64.526 0.526 7.96 3140 7.04
8/16/2021 11:15:00 AM 18.16 64.688 0.527 7.98 3147 7.28
8/16/2021 11:30:00 AM 18.27 64.886 0.526 8 3111 7.52
8/16/2021 11:45:00 AM 18.34 65.012 0.525 8.01 3117 7.67
8/16/2021 12:00:00 PM 18.4 65.12 0.524 8.03 3108 7.82
8/16/2021 12:15:00 PM 18.41 65.138 0.524 8.03 3118 7.83
8/16/2021 12:30:00 PM 18.38 65.084 0.524 8.04 3142 7.75
8/16/2021 12:45:00 PM 18.38 65.084 0.525 8.04 3132 7.74
8/16/2021 1:00:00 PM 18.4 65.12 0.525 8.04 3144 7.79
8/16/2021 1:15:00 PM 18.38 65.084 0.526 8.04 3138 7.68
8/16/2021 1:30:00 PM 18.46 65.228 0.525 8.05 3133 7.83
8/16/2021 1:45:00 PM 18.52 65.336 0.525 8.06 3151 7.92
8/16/2021 2:00:00 PM 18.6 65.48 0.525 8.07 3156 8.08
8/16/2021 2:15:00 PM 18.6 65.48 0.526 8.08 3161 8.04
8/16/2021 2:30:00 PM 18.63 65.534 0.526 8.09 3142 8.15
8/16/2021 2:45:00 PM 18.66 65.588 0.527 8.1 3127 8.21
8/16/2021 3:00:00 PM 18.67 65.606 0.527 8.1 3076 8.17
8/16/2021 3:15:00 PM 18.66 65.588 0.527 8.11 3083 8.11
8/16/2021 3:30:00 PM 18.66 65.588 0.528 8.11 3085 8.13
8/16/2021 3:45:00 PM 18.64 65.552 0.528 8.12 3148 8.08
8/16/2021 4:00:00 PM 18.61 65.498 0.528 8.11 3141 8
8/16/2021 4:15:00 PM 18.58 65.444 0.528 8.11 3135 7.92
8/16/2021 4:30:00 PM 18.55 65.39 0.529 8.1 3131 7.78
8/16/2021 4:45:00 PM 18.53 65.354 0.529 8.1 3130 7.75
8/16/2021 5:00:00 PM 18.51 65.318 0.528 8.1 3111 7.73
8/16/2021 5:15:00 PM 18.59 65.462 0.531 8.1 3113 7.64
8/16/2021 5:30:00 PM 18.66 65.588 0.531 8.08 3104 7.47
8/16/2021 5:45:00 PM 18.52 65.336 0.531 8.07 3083 7.37
8/16/2021 6:00:00 PM 18.46 65.228 0.531 8.07 3130 7.31
8/16/2021 6:15:00 PM 18.43 65.174 0.531 8.07 3107 7.33
8/16/2021 6:30:00 PM 18.38 65.084 0.53 8.07 3124 7.3
8/16/2021 6:45:00 PM 18.35 65.03 0.53 8.06 3114 7.23
8/16/2021 7:00:00 PM 18.3 64.94 0.53 8.05 3106 7.11
8/16/2021 7:15:00 PM 18.26 64.868 0.53 8.05 3116 6.98
8/16/2021 7:30:00 PM 18.21 64.778 0.53 8.04 3115 6.9
8/16/2021 7:45:00 PM 18.17 64.706 0.519 8.04 3104 6.82
8/16/2021 8:00:00 PM 18.12 64.616 0.53 8.03 3159 6.73
8/16/2021 8:15:00 PM 18.07 64.526 0.531 8.02 3120 6.62
8/16/2021 8:30:00 PM 18.02 64.436 0.531 8.01 3160 6.55
8/16/2021 8:45:00 PM 17.97 64.346 0.531 8 3140 6.49
8/16/2021 9:00:00 PM 17.94 64.292 0.53 8 2869 6.4
8/16/2021 9:15:00 PM 17.9 64.22 0.53 7.99 3592 6.33
8/16/2021 9:30:00 PM 17.92 64.256 0.536 7.97 3901 6.21
8/16/2021 9:45:00 PM 17.89 64.202 0.536 7.96 3641 6.13
8/16/2021 10:00:00 PM 17.86 64.148 0.537 7.95 3612 6.07
8/16/2021 10:15:00 PM 17.82 64.076 0.539 7.94 3759 6.04
8/16/2021 10:30:00 PM 17.8 64.04 0.541 7.94 3735 6.01
8/16/2021 10:45:00 PM 17.78 64.004 0.542 7.93 3749 5.99
8/16/2021 11:00:00 PM 17.81 64.058 0.544 7.92 3621 5.95
8/16/2021 11:15:00 PM 17.74 63.932 0.542 7.92 3612 5.93
8/16/2021 11:30:00 PM 17.69 63.842 0.539 7.92 3582 5.9
8/16/2021 11:45:00 PM 17.64 63.752 0.536 7.92 4050 5.87
8/17/2021 12:00:00 AM 17.61 63.698 0.519 7.91 4177 5.89
8/17/2021 12:15:00 AM 17.58 63.644 0.534 7.9 3525 5.45
8/17/2021 12:30:00 AM 17.54 63.572 0.532 7.9 3556 4.96
8/17/2021 12:45:00 AM 17.52 63.536 0.531 7.9 3460 5.41
8/17/2021 1:00:00 AM 17.51 63.518 0.532 7.9 3466 5.49
8/17/2021 1:15:00 AM 17.5 63.5 0.531 7.89 3446 5.44
8/17/2021 1:30:00 AM 17.47 63.446 0.531 7.89 3424 5.39
8/17/2021 1:45:00 AM 17.45 63.41 0.53 7.89 3436 5.38
8/17/2021 2:00:00 AM 17.43 63.374 0.531 7.88 3420 5.38
8/17/2021 2:15:00 AM 17.41 63.338 0.531 7.88 3401 5.31
8/17/2021 2:30:00 AM 17.39 63.302 0.529 7.88 3414 5.23
8/17/2021 2:45:00 AM 17.36 63.248 0.528 7.87 3401 5.33
8/17/2021 3:00:00 AM 17.34 63.212 0.527 7.87 3402 5.36
8/17/2021 3:15:00 AM 17.33 63.194 0.526 7.87 3419 5.44
8/17/2021 3:30:00 AM 17.32 63.176 0.525 7.87 3411 5.51
8/17/2021 3:45:00 AM 17.3 63.14 0.524 7.87 3408 5.57
8/17/2021 4:00:00 AM 17.28 63.104 0.523 7.86 3411 5.56
8/17/2021 4:15:00 AM 17.26 63.068 0.522 7.86 3405 5.57
8/17/2021 4:30:00 AM 17.24 63.032 0.521 7.86 3396 5.55
8/17/2021 4:45:00 AM 17.23 63.014 0.521 7.85 3380 5.53
8/17/2021 5:00:00 AM 17.21 62.978 0.52 7.85 3418 5.54
8/17/2021 5:15:00 AM 17.2 62.96 0.52 7.85 3401 5.54
8/17/2021 5:30:00 AM 17.18 62.924 0.519 7.84 3385 5.61
8/17/2021 5:45:00 AM 17.16 62.888 0.519 7.84 3515 5.58
8/17/2021 6:00:00 AM 17.14 62.852 0.519 7.84 3528 5.6
8/17/2021 6:15:00 AM 17.13 62.834 0.519 7.83 3524 5.6
8/17/2021 6:30:00 AM 17.11 62.798 0.52 7.83 3518 5.62
8/17/2021 6:45:00 AM 17.1 62.78 0.52 7.83 3508 5.61
8/17/2021 7:00:00 AM 17.09 62.762 0.52 7.83 3501 5.61
8/17/2021 7:15:00 AM 17.08 62.744 0.52 7.83 3516 5.6
8/17/2021 7:30:00 AM 17.06 62.708 0.521 7.83 3516 5.62
8/17/2021 7:45:00 AM 17.05 62.69 0.521 7.83 3546 5.69
8/17/2021 8:00:00 AM 17.04 62.672 0.522 7.83 3568 5.78
8/17/2021 8:15:00 AM 17.04 62.672 0.522 7.84 3610 5.83
8/17/2021 8:30:00 AM 17.07 62.726 0.522 7.84 3453 5.93
8/17/2021 8:45:00 AM 17.09 62.762 0.522 7.85 3504 6.03
8/17/2021 9:00:00 AM 17.13 62.834 0.522 7.86 4147 6.18
8/17/2021 9:15:00 AM 17.17 62.906 0.522 7.87 2199 6.35
8/17/2021 9:30:00 AM 17.24 63.032 0.522 7.89 5093 6.55
8/17/2021 9:45:00 AM 17.33 63.194 0.523 7.91 769.1 6.82
8/17/2021 10:00:00 AM 17.43 63.374 0.523 7.92 776.1 7.02
8/17/2021 10:15:00 AM 17.5 63.5 0.523 7.94 762.3 7.13
8/17/2021 10:30:00 AM 17.63 63.734 0.523 7.95 755.4 7.36
8/17/2021 10:45:00 AM 17.78 64.004 0.523 7.97 756.8 7.61
8/17/2021 11:00:00 AM 17.91 64.238 0.523 7.98 752.7 7.76
8/17/2021 11:15:00 AM 17.95 64.31 0.522 8 754.2 7.84
8/17/2021 11:30:00 AM 17.98 64.364 0.522 8 749.1 7.83
8/17/2021 11:45:00 AM 18.07 64.526 0.522 8.01 741.7 8.02
8/17/2021 12:00:00 PM 18.09 64.562 0.522 8.02 5093 7.97
8/17/2021 12:15:00 PM 18.12 64.616 0.521 8.03 5093 8
8/17/2021 12:30:00 PM 18.14 64.652 0.522 8.03 676.6 8.01
8/17/2021 12:45:00 PM 18.18 64.724 0.521 8.04 773.9 8.08
8/17/2021 1:00:00 PM 18.21 64.778 0.521 8.05 711.2 8.13
8/17/2021 1:15:00 PM 18.24 64.832 0.521 8.05 700.8 8.1
8/17/2021 1:30:00 PM 18.29 64.922 0.521 8.07 1013 8.24
8/17/2021 1:45:00 PM 18.37 65.066 0.521 8.08 5093 8.39
8/17/2021 2:00:00 PM 18.44 65.192 0.52 8.1 1872 8.48
8/17/2021 2:15:00 PM 18.53 65.354 0.52 8.1 1798 8.56
8/17/2021 2:30:00 PM 18.64 65.552 0.519 8.12 1968 8.68
8/17/2021 2:45:00 PM 18.77 65.786 0.518 8.13 1983 8.81
8/17/2021 3:00:00 PM 18.9 66.02 0.518 8.15 1930 8.87
8/17/2021 3:15:00 PM 19.04 66.272 0.516 8.16 1895 9.02
8/17/2021 3:30:00 PM 19.19 66.542 0.516 8.17 1859 9.15
8/17/2021 3:45:00 PM 19.3 66.74 0.522 8.11 1836 9.13
8/17/2021 4:00:00 PM 19.38 66.884 0.519 8.13 1809 9.07
8/17/2021 4:15:00 PM 19.42 66.956 0.518 8.15 4042 9.08
8/17/2021 4:30:00 PM 19.43 66.974 0.517 8.15 2018 8.96
8/17/2021 4:45:00 PM 19.44 66.992 0.517 8.16 1973 8.84
8/17/2021 5:00:00 PM 19.45 67.01 0.516 8.16 1917 8.78
8/17/2021 5:15:00 PM 19.46 67.028 0.516 8.17 5093 8.73
8/17/2021 5:30:00 PM 19.46 67.028 0.515 8.16 5093 8.64
8/17/2021 5:45:00 PM 19.46 67.028 0.515 8.17 1107 8.49
8/17/2021 6:00:00 PM 19.48 67.064 0.516 8.17 1077 8.4
8/17/2021 6:15:00 PM 19.5 67.1 0.515 8.17 5093 8.38
8/17/2021 6:30:00 PM 19.51 67.118 0.514 8.17 567.9 8.26
8/17/2021 6:45:00 PM 19.52 67.136 0.514 8.16 570.3 8.15
8/17/2021 7:00:00 PM 19.54 67.172 0.514 8.16 578.7 8.07
8/17/2021 7:15:00 PM 19.54 67.172 0.513 8.16 931.3 7.9
8/17/2021 7:30:00 PM 19.53 67.154 0.514 8.15 1502 7.79
8/17/2021 7:45:00 PM 19.53 67.154 0.513 8.14 1479 7.58
8/17/2021 8:00:00 PM 19.5 67.1 0.513 8.13 1453 7.41
8/17/2021 8:15:00 PM 19.47 67.046 0.514 8.12 1430 7.29
8/17/2021 8:30:00 PM 19.45 67.01 0.514 8.11 481.5 7.18
8/17/2021 8:45:00 PM 19.41 66.938 0.515 8.09 503.5 7.02
8/17/2021 9:00:00 PM 19.36 66.848 0.515 8.08 489.9 6.92
8/17/2021 9:15:00 PM 19.32 66.776 0.516 8.07 872.7 6.86
8/17/2021 9:30:00 PM 19.28 66.704 0.516 8.06 458.8 6.78
8/17/2021 9:45:00 PM 19.25 66.65 0.516 8.05 460 6.72
8/17/2021 10:00:00 PM 19.22 66.596 0.516 8.04 459.8 6.65
8/17/2021 10:15:00 PM 19.19 66.542 0.516 8.03 490.8 6.58
8/17/2021 10:30:00 PM 19.16 66.488 0.516 8.03 489.4 6.51
8/17/2021 10:45:00 PM 19.14 66.452 0.516 8.02 502.6 6.45
8/17/2021 11:00:00 PM 19.11 66.398 0.517 8.02 547.7 6.39
8/17/2021 11:15:00 PM 19.09 66.362 0.517 8.01 563 6.2
8/17/2021 11:30:00 PM 19.07 66.326 0.517 8 5093 6.23
8/17/2021 11:45:00 PM 19.05 66.29 0.517 7.99 436.6 6.17
8/18/2021 12:00:00 AM 19.03 66.254 0.517 7.98 5093 6.09
8/18/2021 12:15:00 AM 19.01 66.218 0.517 7.98 402 6.04
8/18/2021 12:30:00 AM 18.99 66.182 0.517 7.97 412.5 6
8/18/2021 12:45:00 AM 18.96 66.128 0.517 7.96 413.7 5.95
8/18/2021 1:00:00 AM 18.94 66.092 0.517 7.95 481.4 5.91
8/18/2021 1:15:00 AM 18.92 66.056 0.517 7.94 463.3 5.87
8/18/2021 1:30:00 AM 18.9 66.02 0.517 7.94 452.7 5.83
8/18/2021 1:45:00 AM 18.88 65.984 0.516 7.93 432.9 5.79
8/18/2021 2:00:00 AM 18.87 65.966 0.516 7.92 436.8 5.76
8/18/2021 2:15:00 AM 18.84 65.912 0.516 7.91 421.1 5.67
8/18/2021 2:30:00 AM 18.82 65.876 0.516 7.91 551.3 5.67
8/18/2021 2:45:00 AM 18.8 65.84 0.516 7.9 1998 5.63
8/18/2021 3:00:00 AM 18.78 65.804 0.515 7.9 371.4 5.62
8/18/2021 3:15:00 AM 18.8 65.84 0.511 7.9 375 5.63
8/18/2021 3:30:00 AM 19.75 67.55 0.495 7.89 1324 5.72
8/18/2021 3:45:00 AM 19.75 67.55 0.484 7.87 395.5 5.71
8/18/2021 4:00:00 AM 19.31 66.758 0.491 7.86 385 5.69
8/18/2021 4:15:00 AM 19.02 66.236 0.496 7.86 376.5 5.65
8/18/2021 4:30:00 AM 18.9 66.02 0.497 7.85 373.4 5.6
8/18/2021 4:45:00 AM 18.81 65.858 0.498 7.84 370.7 5.31
8/18/2021 5:00:00 AM 18.76 65.768 0.499 7.83 379.9 5.45
8/18/2021 5:15:00 AM 18.72 65.696 0.5 7.83 383.2 5.48
8/18/2021 5:30:00 AM 18.71 65.67799 0.5 7.83 373.2 5.39
8/18/2021 5:45:00 AM 18.72 65.696 0.498 7.83 381.9 5.33
8/18/2021 6:00:00 AM 19.36 66.848 0.479 7.84 2646 5.54
8/18/2021 6:15:00 AM 19.73 67.514 0.433 7.84 616.1 5.64
8/18/2021 6:30:00 AM 19.22 66.596 0.459 7.82 431 5.52
8/18/2021 6:45:00 AM 19 66.2 0.469 7.83 4459 5.7
8/18/2021 7:00:00 AM 19.14 66.452 0.45 7.83 504.8 5.67
8/18/2021 7:15:00 AM 19.42 66.956 0.41 7.79 459.8 5.6
8/18/2021 7:30:00 AM 19.65 67.37 0.371 7.78 448.6 5.6
8/18/2021 7:45:00 AM 19.91 67.838 0.335 7.77 480.2 5.65
8/18/2021 8:00:00 AM 20.08 68.144 0.314 7.76 492.5 5.64
8/18/2021 8:15:00 AM 20.17 68.306 0.301 7.73 507.8 5.55
8/18/2021 8:30:00 AM 20.23 68.414 0.294 7.71 516.2 5.5
8/18/2021 8:45:00 AM 20.26 68.468 0.29 7.7 511.2 5.47
8/18/2021 9:00:00 AM 20.26 68.468 0.287 7.68 491.6 5.43
8/18/2021 9:15:00 AM 20.28 68.504 0.281 7.68 497.7 5.47
8/18/2021 9:30:00 AM 20.34 68.612 0.27 7.68 498.5 5.54
8/18/2021 9:45:00 AM 20.47 68.846 0.26 7.69 514.2 5.52
8/18/2021 10:00:00 AM 20.52 68.936 0.272 7.68 526.4 5.49
8/18/2021 10:15:00 AM 20.3 68.54 0.319 7.68 5092 5.48
8/18/2021 10:30:00 AM 19.9 67.82 0.383 7.7 418.2 5.51
8/18/2021 10:45:00 AM 19.6 67.28 0.413 7.73 372.6 5.55
8/18/2021 11:00:00 AM 19.68 67.424 0.406 7.74 354 5.56
8/18/2021 11:15:00 AM 19.88 67.784 0.384 7.74 346.9 5.54
8/18/2021 11:30:00 AM 20.15 68.27 0.369 7.73 349.1 5.46
8/18/2021 11:45:00 AM 20.4 68.72 0.358 7.72 363.3 5.37
8/18/2021 12:00:00 PM 20.53 68.954 0.348 7.7 379 5.3
8/18/2021 12:15:00 PM 20.67 69.206 0.342 7.69 1455 5.26
8/18/2021 12:30:00 PM 20.7 69.26 0.335 7.68 512.3 5.26
8/18/2021 12:45:00 PM 20.74 69.332 0.329 7.67 381.3 5.3
8/18/2021 1:00:00 PM 20.76 69.368 0.329 7.67 408.3 5.35
8/18/2021 1:15:00 PM 20.63 69.134 0.334 7.66 368.2 5.35
8/18/2021 1:30:00 PM 20.8 69.44 0.334 7.67 385 5.42
8/18/2021 1:45:00 PM 20.63 69.134 0.336 7.66 383.4 5.42
8/18/2021 2:00:00 PM 20.53 68.954 0.34 7.66 389.7 5.4
8/18/2021 2:15:00 PM 20.47 68.846 0.343 7.65 385.5 5.38
8/18/2021 2:30:00 PM 20.48 68.864 0.344 7.65 388.7 5.39
8/18/2021 2:45:00 PM 20.5 68.9 0.348 7.66 390.1 5.42
8/18/2021 3:00:00 PM 20.49 68.882 0.352 7.56 365.7 5.47
8/18/2021 3:15:00 PM 20.5 68.9 0.354 7.62 373 5.5
8/18/2021 3:30:00 PM 20.5 68.9 0.357 7.67 368.9 5.52
8/18/2021 3:45:00 PM 20.5 68.9 0.359 7.57 360.8 5.54
8/18/2021 4:00:00 PM 20.5 68.9 0.362 7.59 358.2 5.55
8/18/2021 4:15:00 PM 20.5 68.9 0.365 7.6 372.7 5.53
8/18/2021 4:30:00 PM 20.46 68.828 0.367 7.61 377.1 5.55
8/18/2021 4:45:00 PM 20.45 68.81 0.378 7.62 367.7 5.57
8/18/2021 5:00:00 PM 20.46 68.828 0.385 7.64 372.2 5.61
8/18/2021 5:15:00 PM 21.09 69.962 0.332 7.73 426 5.83
8/18/2021 5:30:00 PM 21.26 70.268 0.309 7.75 477.2 6.01
8/18/2021 5:45:00 PM 21.14 70.052 0.307 7.71 585.2 6.11
8/18/2021 6:00:00 PM 20.8 69.44 0.32 7.74 567.4 5.93
8/18/2021 6:15:00 PM 21.79 71.222 0.236 7.74 625.1 5.82
8/18/2021 6:30:00 PM 22.44 72.392 0.178 7.78 618.1 5.8
8/18/2021 6:45:00 PM 22.71 72.878 0.152 7.85 586.8 5.79
8/18/2021 7:00:00 PM 22.67 72.806 0.159 7.84 554.1 5.76
8/18/2021 7:15:00 PM 22.44 72.392 0.183 7.77 509 5.69
8/18/2021 7:30:00 PM 22.11 71.798 0.218 7.66 490.3 5.6
8/18/2021 7:45:00 PM 21.72 71.096 0.267 7.63 487.6 5.44
8/18/2021 8:00:00 PM 21.86 71.348 0.251 7.65 656.8 5.15
8/18/2021 8:15:00 PM 22.53 72.554 0.197 7.64 795.4 4.8
8/18/2021 8:30:00 PM 22.67 72.806 0.182 7.65 559.7 4.75
8/18/2021 8:45:00 PM 22.7 72.86 0.176 7.65 585.1 4.75
8/18/2021 9:00:00 PM 22.68 72.824 0.175 7.64 845.8 4.75
8/18/2021 9:15:00 PM 22.6 72.68 0.177 7.62 599.1 4.76
8/18/2021 9:30:00 PM 22.52 72.536 0.179 7.6 589 4.73
8/18/2021 9:45:00 PM 22.46 72.42799 0.178 7.58 409.9 4.67
8/18/2021 10:00:00 PM 22.41 72.338 0.177 7.56 387.3 4.63
8/18/2021 10:15:00 PM 22.34 72.212 0.177 7.54 358.1 4.59
8/18/2021 10:30:00 PM 22.23 72.014 0.18 7.52 338.4 4.57
8/18/2021 10:45:00 PM 22.08 71.744 0.185 7.5 347.3 4.54
8/18/2021 11:00:00 PM 21.93 71.474 0.191 7.48 338.9 4.52
8/18/2021 11:15:00 PM 21.77 71.186 0.198 7.46 404 4.49
8/18/2021 11:30:00 PM 21.61 70.898 0.206 7.45 408.4 4.48
8/18/2021 11:45:00 PM 21.47 70.646 0.213 7.45 291.7 4.5
8/19/2021 12:00:00 AM 21.33 70.394 0.221 7.44 221.6 4.52
8/19/2021 12:15:00 AM 21.19 70.142 0.228 7.44 223.2 4.55
8/19/2021 12:30:00 AM 21.02 69.836 0.237 7.44 221 4.56
8/19/2021 12:45:00 AM 20.81 69.458 0.248 7.45 224.5 4.57
8/19/2021 1:00:00 AM 20.6 69.08 0.258 7.44 225.2 4.6
8/19/2021 1:15:00 AM 20.39 68.702 0.268 7.44 226.3 4.63
8/19/2021 1:30:00 AM 20.2 68.36 0.276 7.45 225 4.68
8/19/2021 1:45:00 AM 20 68 0.284 7.45 235.3 4.73
8/19/2021 2:00:00 AM 19.82 67.676 0.291 7.46 220.5 4.79
8/19/2021 2:15:00 AM 19.64 67.352 0.299 7.46 215.6 4.86
8/19/2021 2:30:00 AM 19.46 67.028 0.306 7.47 216.5 4.93
8/19/2021 2:45:00 AM 19.3 66.74 0.312 7.47 227.8 4.99
8/19/2021 3:00:00 AM 19.14 66.452 0.317 7.48 226 5.06
8/19/2021 3:15:00 AM 19 66.2 0.323 7.48 228.2 5.14
8/19/2021 3:30:00 AM 18.86 65.948 0.33 7.48 227.9 5.2
8/19/2021 3:45:00 AM 18.73 65.714 0.336 7.49 229.4 5.26
8/19/2021 4:00:00 AM 18.61 65.498 0.342 7.49 228.3 5.33
8/19/2021 4:15:00 AM 18.49 65.282 0.347 7.5 227.4 5.38
8/19/2021 4:30:00 AM 18.38 65.084 0.352 7.51 225.6 5.45
8/19/2021 4:45:00 AM 18.28 64.904 0.357 7.51 223.9 5.5
8/19/2021 5:00:00 AM 18.19 64.742 0.362 7.51 226.3 5.55
8/19/2021 5:15:00 AM 18.09 64.562 0.366 7.52 228.4 5.6
8/19/2021 5:30:00 AM 18.01 64.418 0.369 7.52 249.7 5.65
8/19/2021 5:45:00 AM 17.93 64.274 0.373 7.53 249.4 5.68
8/19/2021 6:00:00 AM 17.86 64.148 0.377 7.53 229.7 5.72
8/19/2021 6:15:00 AM 17.79 64.022 0.38 7.54 229.9 5.76
8/19/2021 6:30:00 AM 17.73 63.914 0.383 7.54 232.9 5.79
8/19/2021 6:45:00 AM 17.67 63.806 0.387 7.55 225.8 5.82
8/19/2021 7:00:00 AM 17.62 63.716 0.39 7.55 227.8 5.85
8/19/2021 7:15:00 AM 17.58 63.644 0.392 7.56 231.5 5.88
8/19/2021 7:30:00 AM 17.53 63.554 0.396 7.56 231.5 5.9
8/19/2021 7:45:00 AM 17.49 63.482 0.398 7.57 234.4 5.93
8/19/2021 8:00:00 AM 17.44 63.392 0.402 7.57 222.5 5.95
8/19/2021 8:15:00 AM 17.41 63.338 0.404 7.57 225.2 5.98
8/19/2021 8:30:00 AM 17.39 63.302 0.406 7.57 226.4 5.98
8/19/2021 8:45:00 AM 17.37 63.266 0.408 7.58 259.3 6.01
8/19/2021 9:00:00 AM 17.35 63.23 0.41 7.58 241.3 6.03
8/19/2021 9:15:00 AM 17.34 63.212 0.411 7.58 244.8 6.05
8/19/2021 9:30:00 AM 17.33 63.194 0.412 7.59 246.4 6.07
8/19/2021 9:45:00 AM 17.33 63.194 0.413 7.59 226.2 6.09
8/19/2021 10:00:00 AM 17.33 63.194 0.414 7.59 239.2 6.11
8/19/2021 10:15:00 AM 17.33 63.194 0.414 7.59 229.6 6.13
8/19/2021 10:30:00 AM 17.33 63.194 0.415 7.6 248.6 6.14
8/19/2021 10:45:00 AM 17.33 63.194 0.416 7.6 254.7 6.17
8/19/2021 11:00:00 AM 17.35 63.23 0.416 7.6 243.8 6.19
8/19/2021 11:15:00 AM 17.36 63.248 0.418 7.6 240.2 6.22
8/19/2021 11:30:00 AM 17.39 63.302 0.419 7.6 256.1 6.24
8/19/2021 11:45:00 AM 17.45 63.41 0.419 7.61 252.1 6.28
8/19/2021 12:00:00 PM 17.52 63.536 0.42 7.61 264.1 6.33
8/19/2021 12:15:00 PM 17.55 63.59 0.421 7.61 248.3 6.36
8/19/2021 12:30:00 PM 17.59 63.662 0.423 7.62 247.1 6.37
8/19/2021 12:45:00 PM 17.67 63.806 0.423 7.62 243.2 6.42
8/19/2021 1:00:00 PM 17.83 64.094 0.424 7.63 287.6 6.49
8/19/2021 1:15:00 PM 17.98 64.364 0.426 7.63 279.8 6.55
8/19/2021 1:30:00 PM 18.05 64.49 0.427 7.63 281.2 6.58
8/19/2021 1:45:00 PM 18.21 64.778 0.428 7.63 271.9 6.64
8/19/2021 2:00:00 PM 18.38 65.084 0.429 7.64 252.3 6.69
8/19/2021 2:15:00 PM 18.4 65.12 0.429 7.64 289 6.69
8/19/2021 2:30:00 PM 18.47 65.246 0.43 7.65 259.9 6.7
8/19/2021 2:45:00 PM 18.48 65.264 0.431 7.65 271 6.7
8/19/2021 3:00:00 PM 18.56 65.408 0.432 7.65 275.6 6.72
8/19/2021 3:15:00 PM 18.71 65.67799 0.433 7.66 271 6.8
8/19/2021 3:30:00 PM 18.81 65.858 0.434 7.67 284.1 6.84
8/19/2021 3:45:00 PM 18.81 65.858 0.435 7.67 278.1 6.83
8/19/2021 4:00:00 PM 18.84 65.912 0.436 7.67 275.5 6.82
8/19/2021 4:15:00 PM 18.89 66.002 0.437 7.67 265.9 6.82
8/19/2021 4:30:00 PM 18.97 66.146 0.438 7.68 263.9 6.8
8/19/2021 4:45:00 PM 18.99 66.182 0.439 7.68 298 6.78
8/19/2021 5:00:00 PM 19 66.2 0.439 7.69 305.2 6.74
8/19/2021 5:15:00 PM 19.02 66.236 0.44 7.69 295.1 6.74
8/19/2021 5:30:00 PM 19.02 66.236 0.441 7.69 289.3 6.7
8/19/2021 5:45:00 PM 19.02 66.236 0.442 7.69 279.8 6.68
8/19/2021 6:00:00 PM 19.02 66.236 0.442 7.69 274.7 6.67
8/19/2021 6:15:00 PM 19.02 66.236 0.443 7.69 285.2 6.64
8/19/2021 6:30:00 PM 19.02 66.236 0.444 7.69 278.2 6.62
8/19/2021 6:45:00 PM 19.01 66.218 0.445 7.69 316.3 6.58
8/19/2021 7:00:00 PM 19 66.2 0.446 7.69 308 6.53
8/19/2021 7:15:00 PM 18.99 66.182 0.446 7.69 293.4 6.5
8/19/2021 7:30:00 PM 18.95 66.11 0.447 7.68 298.8 6.46
8/19/2021 7:45:00 PM 18.9 66.02 0.448 7.68 298.2 6.43
8/19/2021 8:00:00 PM 18.84 65.912 0.449 7.68 320.5 6.39
8/19/2021 8:15:00 PM 18.79 65.82201 0.449 7.68 299.1 6.36
8/19/2021 8:30:00 PM 18.73 65.714 0.45 7.67 296.8 6.34
8/19/2021 8:45:00 PM 18.68 65.624 0.451 7.67 327.7 6.31
8/19/2021 9:00:00 PM 18.63 65.534 0.451 7.67 321.6 6.28
8/19/2021 9:15:00 PM 18.58 65.444 0.452 7.67 309.1 6.25
8/19/2021 9:30:00 PM 18.52 65.336 0.453 7.66 319.1 6.22
8/19/2021 9:45:00 PM 18.46 65.228 0.454 7.66 337.1 6.2
8/19/2021 10:00:00 PM 18.41 65.138 0.454 7.66 345 6.18
8/19/2021 10:15:00 PM 18.34 65.012 0.455 7.66 338.6 6.17
8/19/2021 10:30:00 PM 18.27 64.886 0.456 7.65 355.9 6.16
8/19/2021 10:45:00 PM 18.2 64.76 0.457 7.65 348.7 6.14
8/19/2021 11:00:00 PM 18.11 64.598 0.458 7.65 352.5 6.14
8/19/2021 11:15:00 PM 18.03 64.454 0.459 7.64 354 6.14
8/19/2021 11:30:00 PM 17.94 64.292 0.459 7.65 357.3 6.14
8/19/2021 11:45:00 PM 17.84 64.112 0.46 7.64 328.8 6.14
8/20/2021 12:00:00 AM 17.75 63.95 0.462 7.64 348.6 6.14
8/20/2021 12:15:00 AM 17.66 63.788 0.462 7.64 322 6.15
8/20/2021 12:30:00 AM 17.57 63.626 0.463 7.64 358.7 6.16
8/20/2021 12:45:00 AM 17.47 63.446 0.464 7.64 353.4 6.17
8/20/2021 1:00:00 AM 17.38 63.284 0.464 7.63 325.9 6.17
8/20/2021 1:15:00 AM 17.29 63.122 0.465 7.64 333.9 6.18
8/20/2021 1:30:00 AM 17.2 62.96 0.466 7.64 362.1 6.19
8/20/2021 1:45:00 AM 17.11 62.798 0.467 7.64 375.1 6.21
8/20/2021 2:00:00 AM 17.03 62.654 0.468 7.64 379.3 6.22
8/20/2021 2:15:00 AM 16.95 62.51 0.468 7.64 361.1 6.23
8/20/2021 2:30:00 AM 16.88 62.384 0.469 7.64 376 6.24
8/20/2021 2:45:00 AM 16.8 62.24 0.47 7.64 372.8 6.25
8/20/2021 3:00:00 AM 16.73 62.114 0.47 7.64 388.3 6.26
8/20/2021 3:15:00 AM 16.65 61.97 0.471 7.64 410.5 6.29
8/20/2021 3:30:00 AM 16.58 61.844 0.471 7.64 384.2 6.3
8/20/2021 3:45:00 AM 16.51 61.718 0.472 7.64 333 6.32
8/20/2021 4:00:00 AM 16.44 61.592 0.473 7.64 340.3 6.33
8/20/2021 4:15:00 AM 16.38 61.484 0.473 7.65 338.1 6.34
8/20/2021 4:30:00 AM 16.32 61.376 0.474 7.65 348 6.36
8/20/2021 4:45:00 AM 16.26 61.268 0.475 7.65 379.2 6.37
8/20/2021 5:00:00 AM 16.21 61.178 0.475 7.65 376.6 6.38
8/20/2021 5:15:00 AM 16.15 61.07 0.475 7.65 384.8 6.39
8/20/2021 5:30:00 AM 16.11 60.998 0.475 7.65 476.1 6.4
8/20/2021 5:45:00 AM 16.07 60.926 0.475 7.65 367.6 6.42
8/20/2021 6:00:00 AM 16.02 60.836 0.476 7.65 333.2 6.42
8/20/2021 6:15:00 AM 15.98 60.764 0.476 7.65 331.7 6.43
8/20/2021 6:30:00 AM 15.95 60.71 0.476 7.65 341.2 6.45
8/20/2021 6:45:00 AM 15.91 60.638 0.477 7.65 365.3 6.45
8/20/2021 7:00:00 AM 15.88 60.584 0.477 7.65 523.9 6.47
8/20/2021 7:15:00 AM 15.86 60.548 0.477 7.65 506.5 6.48
8/20/2021 7:30:00 AM 15.84 60.512 0.477 7.66 410.7 6.51
8/20/2021 7:45:00 AM 15.81 60.458 0.477 7.66 404.7 6.52
8/20/2021 8:00:00 AM 15.8 60.44 0.478 7.66 393.9 6.55
8/20/2021 8:15:00 AM 15.79 60.422 0.477 7.67 389.3 6.58
8/20/2021 8:30:00 AM 15.78 60.404 0.478 7.67 438.8 6.61
8/20/2021 8:45:00 AM 15.78 60.404 0.478 7.67 435.5 6.65
8/20/2021 9:00:00 AM 15.79 60.422 0.478 7.67 452.3 6.69
8/20/2021 9:15:00 AM 15.8 60.44 0.478 7.68 403.4 6.73
8/20/2021 9:30:00 AM 15.8 60.44 0.479 7.68 820.2 6.77
8/20/2021 9:45:00 AM 15.82 60.476 0.479 7.69 479.9 6.8
8/20/2021 10:00:00 AM 15.84 60.512 0.479 7.69 518.4 6.84
8/20/2021 10:15:00 AM 15.86 60.548 0.479 7.69 425.4 6.89
8/20/2021 10:30:00 AM 15.89 60.602 0.48 7.7 414.2 6.95
8/20/2021 10:45:00 AM 15.91 60.638 0.48 7.7 404.3 6.99
8/20/2021 11:00:00 AM 15.95 60.71 0.481 7.71 405.7 7.03
8/20/2021 11:15:00 AM 16 60.8 0.481 7.71 416.8 7.09
8/20/2021 11:30:00 AM 16.04 60.872 0.481 7.72 419.3 7.15
8/20/2021 11:45:00 AM 16.12 61.016 0.482 7.73 419.3 7.21
8/20/2021 12:00:00 PM 16.17 61.106 0.482 7.73 407 7.27
8/20/2021 12:15:00 PM 16.29 61.322 0.483 7.74 429.5 7.32
8/20/2021 12:30:00 PM 16.46 61.628 0.483 7.75 425.7 7.4
8/20/2021 12:45:00 PM 16.63 61.934 0.483 7.76 461.8 7.48
8/20/2021 1:00:00 PM 16.81 62.258 0.483 7.76 449.7 7.56
8/20/2021 1:15:00 PM 16.99 62.582 0.484 7.77 525.4 7.63
8/20/2021 1:30:00 PM 17.19 62.942 0.484 7.78 480.3 7.69
8/20/2021 1:45:00 PM 17.4 63.32 0.485 7.79 447.5 7.77
8/20/2021 2:00:00 PM 17.61 63.698 0.484 7.8 438.3 7.81
8/20/2021 2:15:00 PM 17.77 63.986 0.484 7.81 454.2 7.85
8/20/2021 2:30:00 PM 17.92 64.256 0.485 7.81 423.3 7.87
8/20/2021 2:45:00 PM 18.02 64.436 0.486 7.82 418.7 7.87
8/20/2021 3:00:00 PM 18 64.4 0.485 7.82 457 7.76
8/20/2021 3:15:00 PM 18.15 64.67 0.485 7.82 403.1 7.8
8/20/2021 3:30:00 PM 18.37 65.066 0.486 7.82 437.7 7.83
8/20/2021 3:45:00 PM 18.51 65.318 0.486 7.83 441.2 7.84
8/20/2021 4:00:00 PM 18.62 65.516 0.488 7.83 439.6 7.8
8/20/2021 4:15:00 PM 18.69 65.642 0.486 7.83 396.6 7.77
8/20/2021 4:30:00 PM 18.74 65.732 0.487 7.83 415.5 7.72
8/20/2021 4:45:00 PM 18.8 65.84 0.488 7.83 431.6 7.66
8/20/2021 5:00:00 PM 18.9 66.02 0.488 7.83 435 7.65
8/20/2021 5:15:00 PM 19 66.2 0.488 7.84 481.9 7.61
8/20/2021 5:30:00 PM 19.03 66.254 0.489 7.83 469.1 7.54
8/20/2021 5:45:00 PM 19.06 66.308 0.49 7.83 443.4 7.45
8/20/2021 6:00:00 PM 19.08 66.344 0.49 7.83 422.3 7.36
8/20/2021 6:15:00 PM 19.1 66.38 0.49 7.83 416.2 7.3
8/20/2021 6:30:00 PM 19.12 66.416 0.491 7.82 430.6 7.22
8/20/2021 6:45:00 PM 19.13 66.434 0.491 7.82 444.1 7.13
8/20/2021 7:00:00 PM 19.13 66.434 0.492 7.81 443.6 7.04
8/20/2021 7:15:00 PM 19.1 66.38 0.492 7.81 437.9 6.93
8/20/2021 7:30:00 PM 19.08 66.344 0.492 7.8 398 6.85
8/20/2021 7:45:00 PM 19.05 66.29 0.493 7.8 420.7 6.79
8/20/2021 8:00:00 PM 19.02 66.236 0.493 7.79 417.4 6.73
8/20/2021 8:15:00 PM 18.97 66.146 0.493 7.79 405.7 6.65
8/20/2021 8:30:00 PM 18.92 66.056 0.493 7.79 466 6.57
8/20/2021 8:45:00 PM 18.87 65.966 0.493 7.78 416.5 6.5
8/20/2021 9:00:00 PM 18.81 65.858 0.493 7.77 393.7 6.46
8/20/2021 9:15:00 PM 18.76 65.768 0.491 7.76 400.3 6.41
8/20/2021 9:30:00 PM 18.73 65.714 0.486 7.76 409.2 6.33
8/20/2021 9:45:00 PM 18.73 65.714 0.479 7.74 424 6.23
8/20/2021 10:00:00 PM 18.76 65.768 0.472 7.73 363.6 6.13
8/20/2021 10:15:00 PM 18.61 65.498 0.476 7.74 359.3 6.17
8/20/2021 10:30:00 PM 18.45 65.21 0.47 7.74 372.8 6.15
8/20/2021 10:45:00 PM 19.17 66.506 0.402 7.72 329.2 5.85
8/20/2021 11:00:00 PM 20.03 68.054 0.324 7.69 340.8 5.38
8/20/2021 11:15:00 PM 20.3 68.54 0.293 7.65 378.5 5.16
8/20/2021 11:30:00 PM 20.38 68.684 0.278 7.62 353.2 5.06
8/20/2021 11:45:00 PM 20.37 68.666 0.27 7.59 343.3 5.03
8/21/2021 12:00:00 AM 20.31 68.558 0.268 7.57 344.9 5.04
8/21/2021 12:15:00 AM 20.2 68.36 0.27 7.56 304.3 5.06
8/21/2021 12:30:00 AM 20.04 68.07201 0.275 7.54 243.9 5.12
8/21/2021 12:45:00 AM 19.83 67.694 0.283 7.53 245.8 5.19
8/21/2021 1:00:00 AM 19.6 67.28 0.293 7.53 271.6 5.25
8/21/2021 1:15:00 AM 19.37 66.866 0.302 7.52 273 5.33
8/21/2021 1:30:00 AM 19.14 66.452 0.311 7.51 279.9 5.41
8/21/2021 1:45:00 AM 18.93 66.074 0.32 7.52 278.6 5.47
8/21/2021 2:00:00 AM 18.72 65.696 0.329 7.52 285.5 5.54
8/21/2021 2:15:00 AM 18.52 65.336 0.337 7.52 285.3 5.61
8/21/2021 2:30:00 AM 18.33 64.994 0.345 7.53 323.6 5.68
8/21/2021 2:45:00 AM 18.17 64.706 0.351 7.53 325.7 5.73
8/21/2021 3:00:00 AM 18.02 64.436 0.356 7.54 326.1 5.78
8/21/2021 3:15:00 AM 17.89 64.202 0.361 7.55 326.4 5.83
8/21/2021 3:30:00 AM 17.76 63.968 0.364 7.55 336.4 5.88
8/21/2021 3:45:00 AM 17.64 63.752 0.369 7.56 368.6 5.92
8/21/2021 4:00:00 AM 17.52 63.536 0.372 7.56 385.8 5.96
8/21/2021 4:15:00 AM 17.41 63.338 0.375 7.57 415.5 6
8/21/2021 4:30:00 AM 17.31 63.158 0.378 7.57 414.7 6.04
8/21/2021 4:45:00 AM 17.21 62.978 0.381 7.58 407.6 6.07
8/21/2021 5:00:00 AM 17.13 62.834 0.384 7.59 419.9 6.09
8/21/2021 5:15:00 AM 17.04 62.672 0.386 7.59 431.5 6.12
8/21/2021 5:30:00 AM 16.95 62.51 0.391 7.6 443 6.15
8/21/2021 5:45:00 AM 16.87 62.366 0.395 7.6 446.9 6.18
8/21/2021 6:00:00 AM 16.78 62.204 0.399 7.6 447.9 6.21
8/21/2021 6:15:00 AM 16.7 62.06 0.402 7.61 443.4 6.23
8/21/2021 6:30:00 AM 16.62 61.916 0.404 7.61 448.7 6.25
8/21/2021 6:45:00 AM 16.55 61.79 0.406 7.62 459.7 6.28
8/21/2021 7:00:00 AM 16.5 61.7 0.407 7.62 455.2 6.3
8/21/2021 7:15:00 AM 16.44 61.592 0.408 7.63 449.3 6.32
8/21/2021 7:30:00 AM 16.39 61.502 0.411 7.63 448.6 6.36
8/21/2021 7:45:00 AM 16.34 61.412 0.414 7.63 475 6.38
8/21/2021 8:00:00 AM 16.29 61.322 0.417 7.64 465.5 6.41
8/21/2021 8:15:00 AM 16.26 61.268 0.419 7.65 472 6.44
8/21/2021 8:30:00 AM 16.23 61.214 0.42 7.65 481.5 6.48
8/21/2021 8:45:00 AM 16.21 61.178 0.421 7.66 497.2 6.52
8/21/2021 9:00:00 AM 16.21 61.178 0.422 7.66 490.1 6.55
8/21/2021 9:15:00 AM 16.21 61.178 0.422 7.66 513.6 6.6
8/21/2021 9:30:00 AM 16.21 61.178 0.423 7.67 499.7 6.64
8/21/2021 9:45:00 AM 16.21 61.178 0.425 7.67 504.7 6.69
8/21/2021 10:00:00 AM 16.23 61.214 0.427 7.68 513.8 6.74
8/21/2021 10:15:00 AM 16.26 61.268 0.428 7.68 521.4 6.79
8/21/2021 10:30:00 AM 16.31 61.358 0.429 7.69 527 6.88
8/21/2021 10:45:00 AM 16.37 61.466 0.429 7.7 521.7 6.94
8/21/2021 11:00:00 AM 16.46 61.628 0.428 7.7 531.1 7
8/21/2021 11:15:00 AM 16.57 61.826 0.427 7.7 527.4 7.06
8/21/2021 11:30:00 AM 16.69 62.042 0.427 7.71 511 7.12
8/21/2021 11:45:00 AM 16.83 62.294 0.426 7.72 512.8 7.19
8/21/2021 12:00:00 PM 16.97 62.546 0.426 7.73 546.7 7.26
8/21/2021 12:15:00 PM 17.12 62.816 0.426 7.73 523.4 7.34
8/21/2021 12:30:00 PM 17.28 63.104 0.427 7.74 519.3 7.41
8/21/2021 12:45:00 PM 17.44 63.392 0.428 7.75 524.4 7.48
8/21/2021 1:00:00 PM 17.6 63.68 0.429 7.76 561.9 7.55
8/21/2021 1:15:00 PM 17.77 63.986 0.428 7.76 553.5 7.58
8/21/2021 1:30:00 PM 17.95 64.31 0.428 7.77 566.1 7.65
8/21/2021 1:45:00 PM 18.12 64.616 0.429 7.78 547 7.71
8/21/2021 2:00:00 PM 18.28 64.904 0.429 7.79 535 7.75
8/21/2021 2:15:00 PM 18.44 65.192 0.429 7.8 532.3 7.77
8/21/2021 2:30:00 PM 18.6 65.48 0.43 7.81 537 7.79
8/21/2021 2:45:00 PM 18.77 65.786 0.431 7.81 533.2 7.82
8/21/2021 3:00:00 PM 18.91 66.038 0.431 7.82 572 7.83
8/21/2021 3:15:00 PM 19.02 66.236 0.431 7.82 602.7 7.83
8/21/2021 3:30:00 PM 19.1 66.38 0.429 7.82 599.6 7.78
8/21/2021 3:45:00 PM 19.18 66.524 0.431 7.82 571.6 7.72
8/21/2021 4:00:00 PM 19.34 66.812 0.431 7.82 554.4 7.71
8/21/2021 4:15:00 PM 19.5 67.1 0.431 7.83 570.3 7.69
8/21/2021 4:30:00 PM 19.65 67.37 0.426 7.83 587.7 7.63
8/21/2021 4:45:00 PM 19.78 67.604 0.433 7.83 570.3 7.59
8/21/2021 5:00:00 PM 19.89 67.802 0.432 7.83 564.1 7.5
8/21/2021 5:15:00 PM 19.99 67.982 0.431 7.82 560 7.4
8/21/2021 5:30:00 PM 20.11 68.198 0.43 7.82 552.3 7.34
8/21/2021 5:45:00 PM 20.2 68.36 0.431 7.82 550.2 7.27
8/21/2021 6:00:00 PM 20.24 68.432 0.431 7.81 561.1 7.17
8/21/2021 6:15:00 PM 20.26 68.468 0.431 7.81 546.2 7.1
8/21/2021 6:30:00 PM 20.28 68.504 0.432 7.81 534.2 7.04
8/21/2021 6:45:00 PM 20.29 68.522 0.433 7.8 545.1 6.99
8/21/2021 7:00:00 PM 20.27 68.486 0.434 7.8 505.8 6.92
8/21/2021 7:15:00 PM 20.24 68.432 0.436 7.79 516.8 6.84
8/21/2021 7:30:00 PM 20.23 68.414 0.436 7.79 485.6 6.77
8/21/2021 7:45:00 PM 20.21 68.378 0.435 7.78 510.7 6.69
8/21/2021 8:00:00 PM 20.19 68.342 0.435 7.77 512.3 6.6
8/21/2021 8:15:00 PM 20.16 68.288 0.435 7.77 512.9 6.52
8/21/2021 8:30:00 PM 20.12 68.216 0.433 7.76 499 6.44
8/21/2021 8:45:00 PM 20.06 68.108 0.436 7.75 488.4 6.4
8/21/2021 9:00:00 PM 19.98 67.964 0.438 7.75 621.9 6.34
8/21/2021 9:15:00 PM 19.89 67.802 0.441 7.74 561.5 6.28
8/21/2021 9:30:00 PM 19.8 67.64 0.443 7.74 506.2 6.24
8/21/2021 9:45:00 PM 19.7 67.46 0.446 7.73 491.3 6.22
8/21/2021 10:00:00 PM 19.6 67.28 0.448 7.73 576.1 6.2
8/21/2021 10:15:00 PM 19.5 67.1 0.449 7.73 556.7 6.18
8/21/2021 10:30:00 PM 19.39 66.902 0.454 7.73 555.2 6.16
8/21/2021 10:45:00 PM 19.28 66.704 0.455 7.73 573.1 6.14
8/21/2021 11:00:00 PM 19.19 66.542 0.452 7.73 563.2 6.12
8/21/2021 11:15:00 PM 19.08 66.344 0.46 7.73 649.8 6.1
8/21/2021 11:30:00 PM 18.99 66.182 0.461 7.72 577.9 6.09
8/21/2021 11:45:00 PM 18.89 66.002 0.463 7.72 565.3 6.08
8/22/2021 12:00:00 AM 18.79 65.82201 0.462 7.72 572.2 6.07
8/22/2021 12:15:00 AM 18.69 65.642 0.464 7.72 570.9 6.07
8/22/2021 12:30:00 AM 18.58 65.444 0.465 7.72 554.6 6.08
8/22/2021 12:45:00 AM 18.47 65.246 0.466 7.71 733 6.07
8/22/2021 1:00:00 AM 18.36 65.048 0.466 7.71 667.5 6.09
8/22/2021 1:15:00 AM 18.25 64.85 0.467 7.71 519.4 6.09
8/22/2021 1:30:00 AM 18.14 64.652 0.466 7.71 506.3 6.11
8/22/2021 1:45:00 AM 18.03 64.454 0.467 7.71 474.5 6.11
8/22/2021 2:00:00 AM 17.92 64.256 0.467 7.71 466.9 6.13
8/22/2021 2:15:00 AM 17.81 64.058 0.468 7.71 508.4 6.14
8/22/2021 2:30:00 AM 17.7 63.86 0.468 7.71 519.8 6.16
8/22/2021 2:45:00 AM 17.59 63.662 0.468 7.71 517 6.18
8/22/2021 3:00:00 AM 17.48 63.464 0.469 7.71 500.6 6.2
8/22/2021 3:15:00 AM 17.39 63.302 0.469 7.7 478.2 6.21
8/22/2021 3:30:00 AM 17.29 63.122 0.47 7.71 482.9 6.23
8/22/2021 3:45:00 AM 17.2 62.96 0.47 7.71 515.8 6.24
8/22/2021 4:00:00 AM 17.09 62.762 0.471 7.71 489.3 6.25
8/22/2021 4:15:00 AM 17 62.6 0.472 7.71 473.3 6.28
8/22/2021 4:30:00 AM 16.9 62.42 0.473 7.71 434.9 6.3
8/22/2021 4:45:00 AM 16.81 62.258 0.474 7.71 432.2 6.32
8/22/2021 5:00:00 AM 16.71 62.078 0.474 7.72 419.3 6.34
8/22/2021 5:15:00 AM 16.61 61.898 0.474 7.72 423.8 6.36
8/22/2021 5:30:00 AM 16.51 61.718 0.475 7.72 424 6.39
8/22/2021 5:45:00 AM 16.41 61.538 0.475 7.72 414 6.4
8/22/2021 6:00:00 AM 16.33 61.394 0.475 7.72 405.5 6.43
8/22/2021 6:15:00 AM 16.25 61.25 0.475 7.72 413.2 6.44
8/22/2021 6:30:00 AM 16.18 61.124 0.475 7.72 437.5 6.46
8/22/2021 6:45:00 AM 16.1 60.98 0.475 7.72 410.2 6.49
8/22/2021 7:00:00 AM 16.04 60.872 0.475 7.72 459 6.5
8/22/2021 7:15:00 AM 15.99 60.782 0.475 7.72 428.9 6.53
8/22/2021 7:30:00 AM 15.95 60.71 0.474 7.72 419.2 6.55
8/22/2021 7:45:00 AM 15.92 60.656 0.474 7.72 458.8 6.58
8/22/2021 8:00:00 AM 15.89 60.602 0.473 7.72 439.7 6.6
8/22/2021 8:15:00 AM 15.87 60.566 0.473 7.72 432.5 6.64
8/22/2021 8:30:00 AM 15.86 60.548 0.472 7.72 448.8 6.68
8/22/2021 8:45:00 AM 15.86 60.548 0.472 7.73 459.1 6.72
8/22/2021 9:00:00 AM 15.87 60.566 0.471 7.74 442.3 6.79
8/22/2021 9:15:00 AM 15.88 60.584 0.471 7.74 451.4 6.86
8/22/2021 9:30:00 AM 15.9 60.62 0.471 7.74 434.8 6.94
8/22/2021 9:45:00 AM 15.93 60.674 0.47 7.74 471.5 7
8/22/2021 10:00:00 AM 15.96 60.728 0.47 7.76 483 7.07
8/22/2021 10:15:00 AM 16 60.8 0.47 7.76 468.6 7.15
8/22/2021 10:30:00 AM 16.06 60.908 0.469 7.77 425.8 7.25
8/22/2021 10:45:00 AM 16.12 61.016 0.469 7.78 452.9 7.34
8/22/2021 11:00:00 AM 16.25 61.25 0.469 7.79 452.1 7.46
8/22/2021 11:15:00 AM 16.34 61.412 0.469 7.8 438.6 7.53
8/22/2021 11:30:00 AM 16.38 61.484 0.469 7.8 454.9 7.57
8/22/2021 11:45:00 AM 16.4 61.52 0.47 7.81 463.8 7.59
8/22/2021 12:00:00 PM 16.43 61.574 0.47 7.81 438.3 7.57
8/22/2021 12:15:00 PM 16.45 61.61 0.47 7.82 456.5 7.58
8/22/2021 12:30:00 PM 16.5 61.7 0.47 7.82 465.7 7.61
8/22/2021 12:45:00 PM 16.58 61.844 0.47 7.82 453.5 7.7
8/22/2021 1:00:00 PM 16.64 61.952 0.47 7.83 454.3 7.75
8/22/2021 1:15:00 PM 16.68 62.024 0.47 7.84 500.4 7.79
8/22/2021 1:30:00 PM 16.73 62.114 0.47 7.85 494.5 7.78
8/22/2021 1:45:00 PM 16.79 62.222 0.471 7.85 453.4 7.79
8/22/2021 2:00:00 PM 16.87 62.366 0.471 7.86 458.2 7.81
8/22/2021 2:15:00 PM 16.92 62.456 0.47 7.86 444.9 7.82
8/22/2021 2:30:00 PM 16.98 62.564 0.471 7.86 457 7.82
8/22/2021 2:45:00 PM 17.04 62.672 0.471 7.87 451.9 7.84
8/22/2021 3:00:00 PM 17.08 62.744 0.471 7.87 458.5 7.82
8/22/2021 3:15:00 PM 17.14 62.852 0.471 7.88 443.8 7.8
8/22/2021 3:30:00 PM 17.22 62.996 0.471 7.88 432.4 7.82
8/22/2021 3:45:00 PM 17.29 63.122 0.471 7.89 463.1 7.82
8/22/2021 4:00:00 PM 17.34 63.212 0.471 7.88 472.2 7.8
8/22/2021 4:15:00 PM 17.37 63.266 0.471 7.88 469.6 7.75
8/22/2021 4:30:00 PM 17.4 63.32 0.471 7.88 467.3 7.69
8/22/2021 4:45:00 PM 17.44 63.392 0.472 7.88 470 7.65
8/22/2021 5:00:00 PM 17.49 63.482 0.472 7.89 457.9 7.62
8/22/2021 5:15:00 PM 17.53 63.554 0.472 7.89 447.7 7.59
8/22/2021 5:30:00 PM 17.56 63.608 0.472 7.88 449.4 7.54
8/22/2021 5:45:00 PM 17.57 63.626 0.473 7.88 452.8 7.44
8/22/2021 6:00:00 PM 17.58 63.644 0.474 7.87 461.2 7.36
8/22/2021 6:15:00 PM 17.6 63.68 0.474 7.86 477.3 7.31
8/22/2021 6:30:00 PM 17.61 63.698 0.475 7.86 441.3 7.26
8/22/2021 6:45:00 PM 17.61 63.698 0.475 7.86 439.2 7.23
8/22/2021 7:00:00 PM 17.6 63.68 0.476 7.86 464.1 7.19
8/22/2021 7:15:00 PM 17.57 63.626 0.476 7.85 461.2 7.13
8/22/2021 7:30:00 PM 17.54 63.572 0.477 7.84 448.1 7.05
8/22/2021 7:45:00 PM 17.51 63.518 0.478 7.84 903.1 6.99
8/22/2021 8:00:00 PM 17.48 63.464 0.479 7.83 478.9 6.94
8/22/2021 8:15:00 PM 17.45 63.41 0.479 7.83 486.5 6.9
8/22/2021 8:30:00 PM 17.42 63.356 0.48 7.83 416.4 6.86
8/22/2021 8:45:00 PM 17.39 63.302 0.48 7.83 430.8 6.81
8/22/2021 9:00:00 PM 17.35 63.23 0.481 7.82 433.8 6.77
8/22/2021 9:15:00 PM 17.33 63.194 0.482 7.82 430.5 6.72
8/22/2021 9:30:00 PM 17.29 63.122 0.482 7.81 436.2 6.68
8/22/2021 9:45:00 PM 17.25 63.05 0.483 7.81 454.3 6.66
8/22/2021 10:00:00 PM 17.22 62.996 0.483 7.8 434.3 6.62
8/22/2021 10:15:00 PM 17.18 62.924 0.484 7.8 456.3 6.6
8/22/2021 10:30:00 PM 17.14 62.852 0.484 7.79 465 6.59
8/22/2021 10:45:00 PM 17.1 62.78 0.485 7.79 437.8 6.55
8/22/2021 11:00:00 PM 17.05 62.69 0.485 7.79 440.6 6.53
8/22/2021 11:15:00 PM 17 62.6 0.485 7.79 435.3 6.5
8/22/2021 11:30:00 PM 16.95 62.51 0.486 7.78 446 6.5
8/22/2021 11:45:00 PM 16.89 62.402 0.486 7.77 440.4 6.49
8/23/2021 12:00:00 AM 16.84 62.312 0.486 7.77 442.9 6.47
8/23/2021 12:15:00 AM 16.79 62.222 0.486 7.77 441.7 6.46
8/23/2021 12:30:00 AM 16.73 62.114 0.486 7.76 443.2 6.46
8/23/2021 12:45:00 AM 16.68 62.024 0.486 7.76 443.6 6.46
8/23/2021 1:00:00 AM 16.63 61.934 0.486 7.76 450.1 6.45
8/23/2021 1:15:00 AM 16.58 61.844 0.486 7.76 452.6 6.46
8/23/2021 1:30:00 AM 16.53 61.754 0.486 7.76 460.8 6.46
8/23/2021 1:45:00 AM 16.48 61.664 0.485 7.76 457.7 6.46
8/23/2021 2:00:00 AM 16.44 61.592 0.485 7.75 463.1 6.47
8/23/2021 2:15:00 AM 16.39 61.502 0.485 7.76 467.7 6.47
8/23/2021 2:30:00 AM 16.34 61.412 0.485 7.75 480.9 6.48
8/23/2021 2:45:00 AM 16.31 61.358 0.485 7.76 472.7 6.48
8/23/2021 3:00:00 AM 16.26 61.268 0.485 7.76 483.4 6.49
8/23/2021 3:15:00 AM 16.23 61.214 0.485 7.76 467 6.48
8/23/2021 3:30:00 AM 16.18 61.124 0.485 7.76 469.9 6.5
8/23/2021 3:45:00 AM 16.14 61.052 0.485 7.76 475.4 6.5
8/23/2021 4:00:00 AM 16.1 60.98 0.485 7.75 473.7 6.51
8/23/2021 4:15:00 AM 16.06 60.908 0.485 7.76 478.7 6.52
8/23/2021 4:30:00 AM 16.02 60.836 0.485 7.76 485.2 6.52
8/23/2021 4:45:00 AM 15.99 60.782 0.485 7.76 478.3 6.52
8/23/2021 5:00:00 AM 15.97 60.746 0.485 7.76 480.4 6.53
8/23/2021 5:15:00 AM 15.94 60.692 0.485 7.76 481.2 6.55
8/23/2021 5:30:00 AM 15.91 60.638 0.485 7.76 511.3 6.56
8/23/2021 5:45:00 AM 15.88 60.584 0.485 7.76 496.5 6.56
8/23/2021 6:00:00 AM 15.85 60.53 0.485 7.76 482.6 6.57
8/23/2021 6:15:00 AM 15.83 60.494 0.485 7.76 492.4 6.58
8/23/2021 6:30:00 AM 15.81 60.458 0.485 7.77 486.6 6.57
8/23/2021 6:45:00 AM 15.79 60.422 0.485 7.77 482.3 6.59
8/23/2021 7:00:00 AM 15.77 60.386 0.485 7.76 485.8 6.61
8/23/2021 7:15:00 AM 15.75 60.35 0.485 7.77 479.7 6.63
8/23/2021 7:30:00 AM 15.74 60.332 0.485 7.77 479.8 6.65
8/23/2021 7:45:00 AM 15.72 60.296 0.485 7.77 477 6.67
8/23/2021 8:00:00 AM 15.72 60.296 0.485 7.77 498.5 6.7
8/23/2021 8:15:00 AM 15.72 60.296 0.485 7.78 505.6 6.74
8/23/2021 8:30:00 AM 15.73 60.314 0.484 7.79 488 6.8
8/23/2021 8:45:00 AM 15.74 60.332 0.484 7.78 489.5 6.85
8/23/2021 9:00:00 AM 15.74 60.332 0.484 7.79 479.3 6.88
8/23/2021 9:15:00 AM 15.78 60.404 0.484 7.79 481 6.94
8/23/2021 9:30:00 AM 15.84 60.512 0.484 7.8 479.6 7.02
8/23/2021 9:45:00 AM 15.92 60.656 0.484 7.81 487.5 7.11
8/23/2021 10:00:00 AM 16.01 60.818 0.484 7.81 479.6 7.19
8/23/2021 10:15:00 AM 16.1 60.98 0.484 7.83 494.7 7.27
8/23/2021 10:30:00 AM 16.23 61.214 0.484 7.83 488 7.35
8/23/2021 10:45:00 AM 16.36 61.448 0.484 7.84 478.8 7.45
8/23/2021 11:00:00 AM 16.45 61.61 0.483 7.85 483.5 7.5
8/23/2021 11:15:00 AM 16.56 61.808 0.483 7.86 464.2 7.58
8/23/2021 11:30:00 AM 16.73 62.114 0.483 7.87 477.8 7.68
8/23/2021 11:45:00 AM 16.88 62.384 0.483 7.88 471.9 7.77
8/23/2021 12:00:00 PM 17.01 62.618 0.483 7.88 474.7 7.84
8/23/2021 12:15:00 PM 17.14 62.852 0.483 7.89 460 7.88
8/23/2021 12:30:00 PM 17.24 63.032 0.482 7.9 460.9 7.93
8/23/2021 12:45:00 PM 17.41 63.338 0.482 7.91 460.8 8
8/23/2021 1:00:00 PM 17.6 63.68 0.482 7.92 495 8.07
8/23/2021 1:15:00 PM 17.78 64.004 0.482 7.93 492.6 8.15
8/23/2021 1:30:00 PM 17.85 64.13 0.482 7.93 493.8 8.1
8/23/2021 1:45:00 PM 18 64.4 0.482 7.93 570.5 8.11
8/23/2021 2:00:00 PM 18.2 64.76 0.482 7.94 541.6 8.19
8/23/2021 2:15:00 PM 18.44 65.192 0.482 7.95 569.6 8.27
8/23/2021 2:30:00 PM 18.66 65.588 0.482 7.96 552 8.31
8/23/2021 2:45:00 PM 18.85 65.93 0.481 7.97 541.3 8.34
8/23/2021 3:00:00 PM 19.01 66.218 0.481 7.97 535.3 8.33
8/23/2021 3:15:00 PM 19.15 66.47 0.482 7.98 490.8 8.31
8/23/2021 3:30:00 PM 19.3 66.74 0.482 7.98 505.9 8.32
8/23/2021 3:45:00 PM 19.43 66.974 0.483 7.98 496.6 8.29
8/23/2021 4:00:00 PM 19.55 67.19 0.482 7.98 475.8 8.24
8/23/2021 4:15:00 PM 19.66 67.388 0.483 7.98 432.4 8.2
8/23/2021 4:30:00 PM 19.73 67.514 0.482 7.98 510.6 8.1
8/23/2021 4:45:00 PM 19.83 67.694 0.483 7.98 487.5 8.06
8/23/2021 5:00:00 PM 19.93 67.874 0.483 7.98 498.2 8.02
8/23/2021 5:15:00 PM 20.01 68.018 0.483 7.98 502.1 7.98
8/23/2021 5:30:00 PM 20.05 68.09 0.483 7.98 488 7.85
8/23/2021 5:45:00 PM 20.12 68.216 0.483 7.97 501.2 7.78
8/23/2021 6:00:00 PM 20.17 68.306 0.483 7.97 493 7.7
8/23/2021 6:15:00 PM 20.2 68.36 0.484 7.97 519 7.55
8/23/2021 6:30:00 PM 20.21 68.378 0.484 7.96 514.1 7.45
8/23/2021 6:45:00 PM 20.22 68.396 0.485 7.95 527.5 7.34
8/23/2021 7:00:00 PM 20.22 68.396 0.485 7.94 521.2 7.24
8/23/2021 7:15:00 PM 20.23 68.414 0.486 7.93 515.6 7.16
8/23/2021 7:30:00 PM 20.22 68.396 0.487 7.93 536.4 7.06
8/23/2021 7:45:00 PM 20.2 68.36 0.487 7.92 531.2 6.97
8/23/2021 8:00:00 PM 20.16 68.288 0.488 7.91 513.8 6.86
8/23/2021 8:15:00 PM 20.11 68.198 0.49 7.9 528.5 6.75
8/23/2021 8:30:00 PM 20.06 68.108 0.49 7.88 517.6 6.66
8/23/2021 8:45:00 PM 20.01 68.018 0.49 7.87 527.4 6.58
8/23/2021 9:00:00 PM 19.96 67.92799 0.491 7.87 523.9 6.51
8/23/2021 9:15:00 PM 19.89 67.802 0.491 7.86 521.5 6.44
8/23/2021 9:30:00 PM 19.83 67.694 0.492 7.85 522.9 6.37
8/23/2021 9:45:00 PM 19.76 67.568 0.492 7.84 519.2 6.31
8/23/2021 10:00:00 PM 19.7 67.46 0.493 7.84 527.4 6.26
8/23/2021 10:15:00 PM 19.64 67.352 0.494 7.83 498.4 6.21
8/23/2021 10:30:00 PM 19.58 67.244 0.495 7.82 519.9 6.16
8/23/2021 10:45:00 PM 19.51 67.118 0.495 7.81 514 6.13
8/23/2021 11:00:00 PM 19.45 67.01 0.496 7.81 522.6 6.11
8/23/2021 11:15:00 PM 19.38 66.884 0.497 7.81 529.6 6.08
8/23/2021 11:30:00 PM 19.3 66.74 0.498 7.81 536.6 6.06
8/23/2021 11:45:00 PM 19.22 66.596 0.497 7.8 543.1 6.05
8/24/2021 12:00:00 AM 19.13 66.434 0.498 7.79 546.7 6.02
8/24/2021 12:15:00 AM 19.04 66.272 0.498 7.79 549 6.01
8/24/2021 12:30:00 AM 18.95 66.11 0.499 7.79 556.8 6
8/24/2021 12:45:00 AM 18.84 65.912 0.499 7.78 544.6 6
8/24/2021 1:00:00 AM 18.74 65.732 0.499 7.78 525.7 6.01
8/24/2021 1:15:00 AM 18.64 65.552 0.5 7.77 514.1 6.01
8/24/2021 1:30:00 AM 18.53 65.354 0.5 7.78 534.2 6.02
8/24/2021 1:45:00 AM 18.43 65.174 0.5 7.77 525.2 6.03
8/24/2021 2:00:00 AM 18.33 64.994 0.5 7.77 533.9 6.05
8/24/2021 2:15:00 AM 18.22 64.796 0.5 7.77 539.4 6.06
8/24/2021 2:30:00 AM 18.12 64.616 0.5 7.77 549.2 6.07
8/24/2021 2:45:00 AM 18.02 64.436 0.499 7.77 540 6.09
8/24/2021 3:00:00 AM 17.91 64.238 0.5 7.77 557.7 6.1
8/24/2021 3:15:00 AM 17.8 64.04 0.5 7.77 554.4 6.12
8/24/2021 3:30:00 AM 17.69 63.842 0.5 7.77 542.1 6.14
8/24/2021 3:45:00 AM 17.58 63.644 0.501 7.77 527.7 6.16
8/24/2021 4:00:00 AM 17.46 63.428 0.501 7.77 536.4 6.18
8/24/2021 4:15:00 AM 17.36 63.248 0.502 7.77 536.4 6.2
8/24/2021 4:30:00 AM 17.25 63.05 0.502 7.77 545.6 6.22
8/24/2021 4:45:00 AM 17.15 62.87 0.502 7.77 542.3 6.24
8/24/2021 5:00:00 AM 17.05 62.69 0.502 7.77 523.9 6.25
8/24/2021 5:15:00 AM 16.95 62.51 0.502 7.77 529.3 6.26
8/24/2021 5:30:00 AM 16.86 62.348 0.502 7.77 524.8 6.27
8/24/2021 5:45:00 AM 16.76 62.168 0.502 7.77 528.5 6.31
8/24/2021 6:00:00 AM 16.67 62.006 0.503 7.78 535.2 6.32
8/24/2021 6:15:00 AM 16.58 61.844 0.503 7.77 550.1 6.34
8/24/2021 6:30:00 AM 16.48 61.664 0.503 7.78 539.5 6.37
8/24/2021 6:45:00 AM 16.4 61.52 0.503 7.78 547.6 6.39
8/24/2021 7:00:00 AM 16.32 61.376 0.503 7.78 548.9 6.42
8/24/2021 7:15:00 AM 16.25 61.25 0.503 7.78 566.7 6.46
8/24/2021 7:30:00 AM 16.18 61.124 0.503 7.78 553.5 6.52
8/24/2021 7:45:00 AM 16.13 61.034 0.503 7.78 557.7 6.57
8/24/2021 8:00:00 AM 16.07 60.926 0.503 7.79 542.6 6.62
8/24/2021 8:15:00 AM 16.03 60.854 0.503 7.79 551.5 6.68
8/24/2021 8:30:00 AM 16 60.8 0.502 7.79 533.8 6.74
8/24/2021 8:45:00 AM 15.99 60.782 0.502 7.8 568.6 6.83
8/24/2021 9:00:00 AM 15.99 60.782 0.502 7.8 547.2 6.92
8/24/2021 9:15:00 AM 16.01 60.818 0.502 7.82 567.3 7.03
8/24/2021 9:30:00 AM 16.04 60.872 0.501 7.82 560.3 7.13
8/24/2021 9:45:00 AM 16.08 60.944 0.502 7.84 533.3 7.23
8/24/2021 10:00:00 AM 16.14 61.052 0.501 7.84 555.5 7.33
8/24/2021 10:15:00 AM 16.2 61.16 0.501 7.85 550.6 7.4
8/24/2021 10:30:00 AM 16.28 61.304 0.501 7.86 560.8 7.51
8/24/2021 10:45:00 AM 16.36 61.448 0.501 7.87 557.9 7.62
8/24/2021 11:00:00 AM 16.47 61.646 0.501 7.88 567.1 7.71
8/24/2021 11:15:00 AM 16.58 61.844 0.501 7.89 560.7 7.81
8/24/2021 11:30:00 AM 16.71 62.078 0.501 7.9 551.6 7.9
8/24/2021 11:45:00 AM 16.85 62.33 0.5 7.91 545.5 8.05
8/24/2021 12:00:00 PM 17 62.6 0.5 7.92 522.4 8.13
8/24/2021 12:15:00 PM 17.17 62.906 0.499 7.93 536.3 8.22
8/24/2021 12:30:00 PM 17.33 63.194 0.498 7.94 527.3 8.32
8/24/2021 12:45:00 PM 17.5 63.5 0.499 7.95 511.8 8.4
8/24/2021 1:00:00 PM 17.66 63.788 0.499 7.96 504.6 8.46
8/24/2021 1:15:00 PM 17.83 64.094 0.498 7.98 533.8 8.53
8/24/2021 1:30:00 PM 18.03 64.454 0.498 7.98 546.7 8.6
8/24/2021 1:45:00 PM 18.22 64.796 0.495 7.99 606.1 8.66
8/24/2021 2:00:00 PM 18.41 65.138 0.497 8 611.1 8.68
8/24/2021 2:15:00 PM 18.58 65.444 0.498 8.01 650.8 8.72
8/24/2021 2:30:00 PM 18.75 65.75 0.495 8.02 693.9 8.75
8/24/2021 2:45:00 PM 18.92 66.056 0.495 8.03 894.1 8.76
8/24/2021 3:00:00 PM 19.06 66.308 0.496 8.03 898.2 8.75
8/24/2021 3:15:00 PM 19.2 66.56 0.498 8.04 642.4 8.76
8/24/2021 3:30:00 PM 19.34 66.812 0.497 8.04 727.2 8.74
8/24/2021 3:45:00 PM 19.46 67.028 0.497 8.05 820.9 8.71
8/24/2021 4:00:00 PM 19.57 67.226 0.496 8.05 708.1 8.68
8/24/2021 4:15:00 PM 19.67 67.406 0.498 8.05 738 8.62
8/24/2021 4:30:00 PM 19.77 67.586 0.497 8.05 549.9 8.54
8/24/2021 4:45:00 PM 19.86 67.748 0.497 8.05 550.7 8.48
8/24/2021 5:00:00 PM 19.95 67.91 0.495 8.05 588.4 8.37
8/24/2021 5:15:00 PM 20.03 68.054 0.497 8.05 623 8.28
8/24/2021 5:30:00 PM 20.1 68.18 0.498 8.05 623.8 8.19
8/24/2021 5:45:00 PM 20.15 68.27 0.5 8.04 673.9 8.07
8/24/2021 6:00:00 PM 20.18 68.324 0.499 8.04 683.8 7.96
8/24/2021 6:15:00 PM 20.2 68.36 0.499 8.03 702.7 7.82
8/24/2021 6:30:00 PM 20.22 68.396 0.499 8.02 703.8 7.69
8/24/2021 6:45:00 PM 20.23 68.414 0.499 8.02 663.4 7.57
8/24/2021 7:00:00 PM 20.24 68.432 0.501 8.01 673.4 7.45
8/24/2021 7:15:00 PM 20.25 68.45 0.503 8 630.7 7.31
8/24/2021 7:30:00 PM 20.24 68.432 0.506 7.99 600.9 7.2
8/24/2021 7:45:00 PM 20.23 68.414 0.508 7.98 609.5 7.07
8/24/2021 8:00:00 PM 20.22 68.396 0.507 7.96 551.6 6.95
8/24/2021 8:15:00 PM 20.2 68.36 0.507 7.95 524.3 6.86
8/24/2021 8:30:00 PM 20.16 68.288 0.506 7.94 498.4 6.75
8/24/2021 8:45:00 PM 20.12 68.216 0.506 7.93 600.2 6.66
8/24/2021 9:00:00 PM 20.07 68.126 0.506 7.92 514.7 6.58
8/24/2021 9:15:00 PM 20.01 68.018 0.504 7.91 514.7 6.49
8/24/2021 9:30:00 PM 19.96 67.92799 0.503 7.9 563.7 6.41
8/24/2021 9:45:00 PM 19.89 67.802 0.507 7.89 540.3 6.35
8/24/2021 10:00:00 PM 19.83 67.694 0.503 7.88 560.9 6.29
8/24/2021 10:15:00 PM 19.76 67.568 0.507 7.87 555.9 6.24
8/24/2021 10:30:00 PM 19.7 67.46 0.509 7.86 582.4 6.16
8/24/2021 10:45:00 PM 19.63 67.334 0.509 7.85 565.5 6.14
8/24/2021 11:00:00 PM 19.56 67.208 0.507 7.85 599.5 6.11
8/24/2021 11:15:00 PM 19.49 67.082 0.51 7.84 564.6 6.08
8/24/2021 11:30:00 PM 19.42 66.956 0.511 7.84 582.6 6.06
8/24/2021 11:45:00 PM 19.35 66.83 0.511 7.83 603.4 6.04
8/25/2021 12:00:00 AM 19.26 66.668 0.512 7.83 601.7 6.03
8/25/2021 12:15:00 AM 19.18 66.524 0.512 7.82 596.9 6.01
8/25/2021 12:30:00 AM 19.09 66.362 0.513 7.82 609.7 6
8/25/2021 12:45:00 AM 18.99 66.182 0.513 7.82 598.8 5.98
8/25/2021 1:00:00 AM 18.89 66.002 0.514 7.81 582.4 5.98
8/25/2021 1:15:00 AM 18.8 65.84 0.513 7.81 580.6 5.98
8/25/2021 1:30:00 AM 18.72 65.696 0.513 7.8 586 5.98
8/25/2021 1:45:00 AM 18.64 65.552 0.512 7.8 600.7 5.98
8/25/2021 2:00:00 AM 18.56 65.408 0.513 7.8 622.8 5.99
8/25/2021 2:15:00 AM 18.47 65.246 0.514 7.8 605 5.99
8/25/2021 2:30:00 AM 18.37 65.066 0.513 7.8 647.8 6
8/25/2021 2:45:00 AM 18.27 64.886 0.515 7.79 565.2 6.01
8/25/2021 3:00:00 AM 18.15 64.67 0.516 7.79 565 6.04
8/25/2021 3:15:00 AM 18.04 64.472 0.517 7.79 582.1 6.04
8/25/2021 3:30:00 AM 17.92 64.256 0.518 7.79 613.9 6.07
8/25/2021 3:45:00 AM 17.79 64.022 0.519 7.79 624.7 6.09
8/25/2021 4:00:00 AM 17.68 63.824 0.52 7.79 620.4 6.1
8/25/2021 4:15:00 AM 17.56 63.608 0.521 7.79 599.4 6.14
8/25/2021 4:30:00 AM 17.44 63.392 0.521 7.79 647.2 6.16
8/25/2021 4:45:00 AM 17.33 63.194 0.522 7.79 644.9 6.17
8/25/2021 5:00:00 AM 17.22 62.996 0.522 7.79 654.3 6.19
8/25/2021 5:15:00 AM 17.12 62.816 0.522 7.79 677 6.21
8/25/2021 5:30:00 AM 17.01 62.618 0.522 7.79 690 6.24
8/25/2021 5:45:00 AM 16.91 62.438 0.522 7.79 666.9 6.25
8/25/2021 6:00:00 AM 16.81 62.258 0.523 7.79 675 6.29
8/25/2021 6:15:00 AM 16.72 62.096 0.523 7.79 616.7 6.29
8/25/2021 6:30:00 AM 16.63 61.934 0.523 7.79 605.9 6.31
8/25/2021 6:45:00 AM 16.54 61.772 0.524 7.79 604.9 6.34
8/25/2021 7:00:00 AM 16.45 61.61 0.524 7.79 640.8 6.37
8/25/2021 7:15:00 AM 16.36 61.448 0.524 7.79 616.1 6.41
8/25/2021 7:30:00 AM 16.28 61.304 0.524 7.8 672.5 6.44
8/25/2021 7:45:00 AM 16.19 61.142 0.525 7.8 668.4 6.51
8/25/2021 8:00:00 AM 16.13 61.034 0.525 7.8 642.7 6.56
8/25/2021 8:15:00 AM 16.07 60.926 0.525 7.81 647.4 6.64
8/25/2021 8:30:00 AM 16.03 60.854 0.525 7.81 624.4 6.74
8/25/2021 8:45:00 AM 16 60.8 0.525 7.82 686.6 6.87
8/25/2021 9:00:00 AM 15.98 60.764 0.525 7.83 618.7 7.01
8/25/2021 9:15:00 AM 15.98 60.764 0.525 7.83 621.1 7.14
8/25/2021 9:30:00 AM 15.98 60.764 0.525 7.85 604.2 7.25
8/25/2021 9:45:00 AM 16 60.8 0.525 7.86 607.6 7.38
8/25/2021 10:00:00 AM 16.04 60.872 0.525 7.87 603.8 7.52
8/25/2021 10:15:00 AM 16.08 60.944 0.525 7.88 606.4 7.65
8/25/2021 10:30:00 AM 16.13 61.034 0.525 7.89 598.3 7.75
8/25/2021 10:45:00 AM 16.18 61.124 0.524 7.9 593.1 7.85
8/25/2021 11:00:00 AM 16.26 61.268 0.525 7.91 597.7 7.93
8/25/2021 11:15:00 AM 16.36 61.448 0.525 7.92 598.4 7.99
8/25/2021 11:30:00 AM 16.47 61.646 0.524 7.93 629.5 8.11
8/25/2021 11:45:00 AM 16.6 61.88 0.523 7.93 691.3 8.23
8/25/2021 12:00:00 PM 16.74 62.132 0.522 7.94 617.5 8.32
8/25/2021 12:15:00 PM 16.88 62.384 0.522 7.95 790.7 8.42
8/25/2021 12:30:00 PM 17.04 62.672 0.521 7.96 831.8 8.52
8/25/2021 12:45:00 PM 17.21 62.978 0.52 7.97 887.9 8.59
8/25/2021 1:00:00 PM 17.38 63.284 0.519 7.98 910.1 8.66
8/25/2021 1:15:00 PM 17.55 63.59 0.519 7.99 811.6 8.74
8/25/2021 1:30:00 PM 17.74 63.932 0.519 8 735.4 8.78
8/25/2021 1:45:00 PM 17.9 64.22 0.518 8.01 754.8 8.83
8/25/2021 2:00:00 PM 18.07 64.526 0.517 8.02 780.9 8.91
8/25/2021 2:15:00 PM 18.25 64.85 0.516 8.03 631.6 8.91
8/25/2021 2:30:00 PM 18.41 65.138 0.516 8.04 652.4 8.92
8/25/2021 2:45:00 PM 18.57 65.426 0.516 8.04 731.3 8.97
8/25/2021 3:00:00 PM 18.71 65.67799 0.515 8.05 780.2 8.96
8/25/2021 3:15:00 PM 18.85 65.93 0.516 8.06 560.2 8.97
8/25/2021 3:30:00 PM 18.98 66.164 0.515 8.06 571.4 8.95
8/25/2021 3:45:00 PM 19.11 66.398 0.515 8.07 837.8 8.9
8/25/2021 4:00:00 PM 19.23 66.614 0.514 8.07 544.8 8.9
8/25/2021 4:15:00 PM 19.35 66.83 0.513 8.08 676.2 8.86
8/25/2021 4:30:00 PM 19.45 67.01 0.514 8.08 593 8.83
8/25/2021 4:45:00 PM 19.55 67.19 0.512 8.09 586.8 8.75
8/25/2021 5:00:00 PM 19.63 67.334 0.512 8.08 617.4 8.64
8/25/2021 5:15:00 PM 19.69 67.442 0.511 8.08 683.4 8.54
8/25/2021 5:30:00 PM 19.75 67.55 0.511 8.08 732.9 8.43
8/25/2021 5:45:00 PM 19.8 67.64 0.512 8.08 631.9 8.34
8/25/2021 6:00:00 PM 19.84 67.712 0.512 8.07 648.6 8.16
8/25/2021 6:15:00 PM 19.85 67.73 0.512 8.06 653.6 8.04
8/25/2021 6:30:00 PM 19.87 67.766 0.51 8.06 652.8 7.88
8/25/2021 6:45:00 PM 19.89 67.802 0.511 8.05 640.9 7.71
8/25/2021 7:00:00 PM 19.92 67.856 0.511 8.04 657.7 7.58
8/25/2021 7:15:00 PM 19.93 67.874 0.511 8.03 636.4 7.46
8/25/2021 7:30:00 PM 19.95 67.91 0.511 8.02 610 7.34
8/25/2021 7:45:00 PM 19.96 67.92799 0.511 8.01 646.9 7.21
8/25/2021 8:00:00 PM 19.97 67.946 0.511 8 680.6 7.08
8/25/2021 8:15:00 PM 19.97 67.946 0.511 7.99 600.9 6.95
8/25/2021 8:30:00 PM 19.97 67.946 0.511 7.98 587.5 6.83
8/25/2021 8:45:00 PM 19.95 67.91 0.512 7.97 587.1 6.72
8/25/2021 9:00:00 PM 19.92 67.856 0.512 7.96 603.9 6.61
8/25/2021 9:15:00 PM 19.89 67.802 0.512 7.94 625.2 6.52
8/25/2021 9:30:00 PM 19.85 67.73 0.513 7.93 600.6 6.44
8/25/2021 9:45:00 PM 19.81 67.658 0.513 7.92 632.5 6.37
8/25/2021 10:00:00 PM 19.77 67.586 0.514 7.91 632.9 6.28
8/25/2021 10:15:00 PM 19.72 67.496 0.514 7.9 658.7 6.23
8/25/2021 10:30:00 PM 19.68 67.424 0.515 7.89 643.3 6.14
8/25/2021 10:45:00 PM 19.63 67.334 0.515 7.89 651 6.12
8/25/2021 11:00:00 PM 19.58 67.244 0.516 7.88 637.9 6.06
8/25/2021 11:15:00 PM 19.53 67.154 0.516 7.87 646.1 6.01
8/25/2021 11:30:00 PM 19.48 67.064 0.517 7.86 643.7 5.99
8/25/2021 11:45:00 PM 19.42 66.956 0.517 7.86 657.1 5.95
8/26/2021 12:00:00 AM 19.37 66.866 0.518 7.85 632.6 5.92
8/26/2021 12:15:00 AM 19.3 66.74 0.519 7.84 638 5.9
8/26/2021 12:30:00 AM 19.24 66.632 0.519 7.84 657.4 5.89
8/26/2021 12:45:00 AM 19.17 66.506 0.52 7.83 656.9 5.88
8/26/2021 1:00:00 AM 19.1 66.38 0.52 7.83 650.9 5.86
8/26/2021 1:15:00 AM 19.02 66.236 0.521 7.83 656.4 5.86
8/26/2021 1:30:00 AM 18.95 66.11 0.522 7.82 661.6 5.86
8/26/2021 1:45:00 AM 18.87 65.966 0.523 7.82 656.4 5.84
8/26/2021 2:00:00 AM 18.79 65.82201 0.523 7.82 651.7 5.86
8/26/2021 2:15:00 AM 18.71 65.67799 0.524 7.81 658.6 5.85
8/26/2021 2:30:00 AM 18.62 65.516 0.524 7.81 667.4 5.86
8/26/2021 2:45:00 AM 18.53 65.354 0.525 7.81 666.6 5.87
8/26/2021 3:00:00 AM 18.44 65.192 0.525 7.81 666.4 5.89
8/26/2021 3:15:00 AM 18.36 65.048 0.526 7.81 656.1 5.89
8/26/2021 3:30:00 AM 18.28 64.904 0.526 7.8 665.9 5.91
8/26/2021 3:45:00 AM 18.19 64.742 0.527 7.8 653.8 5.92
8/26/2021 4:00:00 AM 18.11 64.598 0.527 7.8 672.3 5.93
8/26/2021 4:15:00 AM 18.02 64.436 0.527 7.8 680.5 5.94
8/26/2021 4:30:00 AM 17.93 64.274 0.527 7.8 718.1 5.96
8/26/2021 4:45:00 AM 17.85 64.13 0.528 7.8 669.6 5.97
8/26/2021 5:00:00 AM 17.76 63.968 0.528 7.8 662.2 6
8/26/2021 5:15:00 AM 17.66 63.788 0.528 7.8 674 6.02
8/26/2021 5:30:00 AM 17.58 63.644 0.529 7.8 674.2 6.02
8/26/2021 5:45:00 AM 17.49 63.482 0.529 7.8 663.6 6.05
8/26/2021 6:00:00 AM 17.41 63.338 0.529 7.8 674.1 6.07
8/26/2021 6:15:00 AM 17.32 63.176 0.529 7.8 671.5 6.07
8/26/2021 6:30:00 AM 17.24 63.032 0.529 7.8 690.8 6.1
8/26/2021 6:45:00 AM 17.15 62.87 0.529 7.8 665.5 6.13
8/26/2021 7:00:00 AM 17.07 62.726 0.529 7.8 665.4 6.16
8/26/2021 7:15:00 AM 16.99 62.582 0.529 7.8 686.1 6.22
8/26/2021 7:30:00 AM 16.93 62.474 0.528 7.8 678.9 6.29
8/26/2021 7:45:00 AM 16.86 62.348 0.528 7.81 686.5 6.37
8/26/2021 8:00:00 AM 16.81 62.258 0.528 7.82 683.6 6.44
8/26/2021 8:15:00 AM 16.75 62.15 0.528 7.82 666.2 6.5
8/26/2021 8:30:00 AM 16.71 62.078 0.528 7.82 670.6 6.62
8/26/2021 8:45:00 AM 16.68 62.024 0.527 7.83 669.4 6.73
8/26/2021 9:00:00 AM 16.67 62.006 0.527 7.85 662.5 6.85
8/26/2021 9:15:00 AM 16.66 61.988 0.527 7.85 673.8 6.97
8/26/2021 9:30:00 AM 16.68 62.024 0.527 7.86 694.6 7.08
8/26/2021 9:45:00 AM 16.69 62.042 0.526 7.87 683 7.19
8/26/2021 10:00:00 AM 16.73 62.114 0.526 7.88 702.7 7.32
8/26/2021 10:15:00 AM 16.79 62.222 0.526 7.89 653.2 7.45
8/26/2021 10:30:00 AM 16.85 62.33 0.525 7.9 711.9 7.57
8/26/2021 10:45:00 AM 16.94 62.492 0.525 7.91 686.1 7.72
8/26/2021 11:00:00 AM 17.03 62.654 0.525 7.92 680.2 7.81
8/26/2021 11:15:00 AM 17.15 62.87 0.524 7.94 679.6 7.94
8/26/2021 11:30:00 AM 17.27 63.086 0.524 7.94 658.4 8.06
8/26/2021 11:45:00 AM 17.39 63.302 0.524 7.95 660.6 8.18
8/26/2021 12:00:00 PM 17.52 63.536 0.523 7.97 668.9 8.3
8/26/2021 12:15:00 PM 17.66 63.788 0.523 7.98 684.1 8.38
8/26/2021 12:30:00 PM 17.8 64.04 0.523 7.99 698.8 8.5
8/26/2021 12:45:00 PM 17.95 64.31 0.523 8 739 8.58
8/26/2021 1:00:00 PM 18.11 64.598 0.524 8.01 775.4 8.66
8/26/2021 1:15:00 PM 18.26 64.868 0.523 8.02 759.1 8.72
8/26/2021 1:30:00 PM 18.42 65.156 0.522 8.03 767.4 8.79
8/26/2021 1:45:00 PM 18.57 65.426 0.522 8.04 851.5 8.86
8/26/2021 2:00:00 PM 18.73 65.714 0.522 8.05 687.3 8.93
8/26/2021 2:15:00 PM 18.9 66.02 0.521 8.06 745.9 8.98
8/26/2021 2:30:00 PM 19.05 66.29 0.52 8.07 780 9.03
8/26/2021 2:45:00 PM 19.2 66.56 0.52 8.08 819.6 9.06
8/26/2021 3:00:00 PM 19.34 66.812 0.519 8.09 861.4 9.05
8/26/2021 3:15:00 PM 19.46 67.028 0.518 8.1 887.1 9.05
8/26/2021 3:30:00 PM 19.57 67.226 0.519 8.1 1099 9.02
8/26/2021 3:45:00 PM 19.68 67.424 0.517 8.1 1170 8.96
8/26/2021 4:00:00 PM 19.79 67.622 0.518 8.11 1412 8.92
8/26/2021 4:15:00 PM 19.88 67.784 0.518 8.11 1160 8.85
8/26/2021 4:30:00 PM 19.98 67.964 0.518 8.11 1188 8.8
8/26/2021 4:45:00 PM 20.06 68.108 0.518 8.11 1216 8.72
8/26/2021 5:00:00 PM 20.12 68.216 0.52 8.11 1270 8.63
8/26/2021 5:15:00 PM 20.18 68.324 0.52 8.11 1337 8.54
8/26/2021 5:30:00 PM 20.24 68.432 0.519 8.11 1392 8.39
8/26/2021 5:45:00 PM 20.27 68.486 0.52 8.1 1440 8.29
8/26/2021 6:00:00 PM 20.29 68.522 0.519 8.1 1471 8.17
8/26/2021 6:15:00 PM 20.3 68.54 0.52 8.09 1508 8
8/26/2021 6:30:00 PM 20.3 68.54 0.52 8.09 1602 7.87
8/26/2021 6:45:00 PM 20.3 68.54 0.52 8.07 1562 7.68
8/26/2021 7:00:00 PM 20.31 68.558 0.519 8.07 1554 7.59
8/26/2021 7:15:00 PM 20.32 68.576 0.519 8.06 1561 7.44
8/26/2021 7:30:00 PM 20.31 68.558 0.519 8.05 1550 7.31
8/26/2021 7:45:00 PM 20.31 68.558 0.518 8.04 1548 7.13
8/26/2021 8:00:00 PM 20.3 68.54 0.518 8.02 1542 7
8/26/2021 8:15:00 PM 20.29 68.522 0.518 8.01 1519 6.86
8/26/2021 8:30:00 PM 20.28 68.504 0.518 8 1496 6.75
8/26/2021 8:45:00 PM 20.26 68.468 0.518 7.99 1451 6.63
8/26/2021 9:00:00 PM 20.25 68.45 0.518 7.98 1427 6.52
8/26/2021 9:15:00 PM 20.23 68.414 0.518 7.96 1382 6.43
8/26/2021 9:30:00 PM 20.26 68.468 0.514 7.96 1329 6.32
8/26/2021 9:45:00 PM 20.59 69.062 0.536 7.93 1275 6.06
8/26/2021 10:00:00 PM 20.31 68.558 0.523 7.92 1211 5.97
8/26/2021 10:15:00 PM 20.17 68.306 0.519 7.91 1170 5.95
8/26/2021 10:30:00 PM 20.11 68.198 0.519 7.9 1129 5.88
8/26/2021 10:45:00 PM 20.04 68.07201 0.519 7.88 1048 5.86
8/26/2021 11:00:00 PM 19.99 67.982 0.52 7.88 980 5.84
8/26/2021 11:15:00 PM 19.95 67.91 0.521 7.88 909.2 5.81
8/26/2021 11:30:00 PM 19.9 67.82 0.521 7.87 867.8 5.78
8/26/2021 11:45:00 PM 19.85 67.73 0.521 7.87 795.7 5.78
8/27/2021 12:00:00 AM 19.8 67.64 0.522 7.86 747.2 5.75
8/27/2021 12:15:00 AM 19.75 67.55 0.522 7.86 719.8 5.73
8/27/2021 12:30:00 AM 19.69 67.442 0.523 7.85 732.2 5.72
8/27/2021 12:45:00 AM 19.64 67.352 0.523 7.85 717.7 5.69
8/27/2021 1:00:00 AM 19.57 67.226 0.524 7.84 723.8 5.71
8/27/2021 1:15:00 AM 19.51 67.118 0.524 7.84 726.8 5.68
8/27/2021 1:30:00 AM 19.45 67.01 0.525 7.84 732.4 5.67
8/27/2021 1:45:00 AM 19.39 66.902 0.526 7.83 738.9 5.64
8/27/2021 2:00:00 AM 19.32 66.776 0.527 7.83 726.8 5.63
8/27/2021 2:15:00 AM 19.25 66.65 0.527 7.83 730.6 5.65
8/27/2021 2:30:00 AM 19.18 66.524 0.528 7.83 730.2 5.67
8/27/2021 2:45:00 AM 19.11 66.398 0.529 7.82 721.1 5.67
8/27/2021 3:00:00 AM 19.04 66.272 0.53 7.82 719.5 5.66
8/27/2021 3:15:00 AM 18.97 66.146 0.53 7.82 725.7 5.69
8/27/2021 3:30:00 AM 18.89 66.002 0.531 7.82 730.1 5.69
8/27/2021 3:45:00 AM 18.81 65.858 0.532 7.82 741.6 5.7
8/27/2021 4:00:00 AM 18.72 65.696 0.533 7.82 755.4 5.71
8/27/2021 4:15:00 AM 18.64 65.552 0.533 7.82 732.6 5.73
8/27/2021 4:30:00 AM 18.56 65.408 0.534 7.82 738.9 5.75
8/27/2021 4:45:00 AM 18.48 65.264 0.534 7.82 741.3 5.77
8/27/2021 5:00:00 AM 18.41 65.138 0.534 7.82 742.8 5.78
8/27/2021 5:15:00 AM 18.33 64.994 0.535 7.82 738.7 5.8
8/27/2021 5:30:00 AM 18.26 64.868 0.535 7.82 736 5.85
8/27/2021 5:45:00 AM 18.17 64.706 0.535 7.82 743.3 5.85
8/27/2021 6:00:00 AM 18.09 64.562 0.536 7.81 751.2 5.85
8/27/2021 6:15:00 AM 18.02 64.436 0.535 7.81 771.3 5.85
8/27/2021 6:30:00 AM 17.94 64.292 0.535 7.81 755.9 5.87
8/27/2021 6:45:00 AM 17.87 64.166 0.535 7.81 762.2 5.88
8/27/2021 7:00:00 AM 17.8 64.04 0.535 7.81 746.6 5.91
8/27/2021 7:15:00 AM 17.75 63.95 0.535 7.81 751.2 5.95
8/27/2021 7:30:00 AM 17.68 63.824 0.534 7.81 751.8 6.01
8/27/2021 7:45:00 AM 17.63 63.734 0.534 7.81 725.1 6.06
8/27/2021 8:00:00 AM 17.57 63.626 0.534 7.81 725.9 6.12
8/27/2021 8:15:00 AM 17.51 63.518 0.534 7.82 718.7 6.18
8/27/2021 8:30:00 AM 17.47 63.446 0.534 7.82 725.6 6.23
8/27/2021 8:45:00 AM 17.42 63.356 0.534 7.83 732.8 6.36
8/27/2021 9:00:00 AM 17.37 63.266 0.534 7.84 735.7 6.43
8/27/2021 9:15:00 AM 17.32 63.176 0.533 7.84 743.6 6.52
8/27/2021 9:30:00 AM 17.29 63.122 0.534 7.85 735.8 6.67
8/27/2021 9:45:00 AM 17.27 63.086 0.533 7.86 748.2 6.82
8/27/2021 10:00:00 AM 17.26 63.068 0.533 7.87 757.8 6.96
8/27/2021 10:15:00 AM 17.25 63.05 0.533 7.88 754.9 7.14
8/27/2021 10:30:00 AM 17.28 63.104 0.532 7.89 752.9 7.34
8/27/2021 10:45:00 AM 17.34 63.212 0.532 7.91 679 7.54
8/27/2021 11:00:00 AM 17.39 63.302 0.531 7.92 677.4 7.72
8/27/2021 11:15:00 AM 17.43 63.374 0.531 7.93 664.9 7.86
8/27/2021 11:30:00 AM 17.48 63.464 0.53 7.95 663.2 8.02
8/27/2021 11:45:00 AM 17.54 63.572 0.53 7.97 658.9 8.19
8/27/2021 12:00:00 PM 17.62 63.716 0.53 7.98 661.6 8.3
8/27/2021 12:15:00 PM 17.66 63.788 0.529 7.99 656.2 8.41
8/27/2021 12:30:00 PM 17.71 63.878 0.53 8 656.8 8.51
8/27/2021 12:45:00 PM 17.79 64.022 0.53 8.01 657.9 8.59
8/27/2021 1:00:00 PM 17.93 64.274 0.529 8.02 668 8.75
8/27/2021 1:15:00 PM 18.03 64.454 0.529 8.04 692.7 8.88
8/27/2021 1:30:00 PM 18.11 64.598 0.528 8.05 718.1 8.93
8/27/2021 1:45:00 PM 18.18 64.724 0.526 8.06 748.8 9.01
8/27/2021 2:00:00 PM 18.24 64.832 0.526 8.07 797.7 9.06
8/27/2021 2:15:00 PM 18.42 65.156 0.526 8.08 676.7 9.16
8/27/2021 2:30:00 PM 18.6 65.48 0.527 8.1 683.6 9.26
8/27/2021 2:45:00 PM 18.78 65.804 0.524 8.11 708.8 9.32
8/27/2021 3:00:00 PM 18.91 66.038 0.524 8.11 759.7 9.34
8/27/2021 3:15:00 PM 19.01 66.218 0.522 8.12 716.5 9.34
8/27/2021 3:30:00 PM 19.1 66.38 0.526 8.12 776.7 9.32
8/27/2021 3:45:00 PM 19.11 66.398 0.523 8.12 807.3 9.25
8/27/2021 4:00:00 PM 19.19 66.542 0.524 8.14 832.6 9.25
8/27/2021 4:15:00 PM 19.24 66.632 0.523 8.14 823.8 9.21
8/27/2021 4:30:00 PM 19.24 66.632 0.522 8.14 901.5 9.07
8/27/2021 4:45:00 PM 19.28 66.704 0.521 8.14 895.9 8.89
8/27/2021 5:00:00 PM 19.3 66.74 0.521 8.14 909.5 8.75
8/27/2021 5:15:00 PM 19.32 66.776 0.523 8.13 921.2 8.58
8/27/2021 5:30:00 PM 19.39 66.902 0.521 8.13 958.9 8.5
8/27/2021 5:45:00 PM 19.48 67.064 0.519 8.14 908.7 8.55
8/27/2021 6:00:00 PM 19.54 67.172 0.52 8.15 813.4 8.56
8/27/2021 6:15:00 PM 19.54 67.172 0.519 8.14 823.2 8.44
8/27/2021 6:30:00 PM 19.54 67.172 0.519 8.14 819.3 8.28
8/27/2021 6:45:00 PM 19.51 67.118 0.518 8.12 827.4 8.06
8/27/2021 7:00:00 PM 19.46 67.028 0.518 8.11 820 7.78
8/27/2021 7:15:00 PM 19.42 66.956 0.518 8.09 815.4 7.6
8/27/2021 7:30:00 PM 19.4 66.92 0.519 8.08 801.8 7.47
8/27/2021 7:45:00 PM 19.4 66.92 0.519 8.08 795.6 7.37
8/27/2021 8:00:00 PM 19.4 66.92 0.518 8.07 787.6 7.28
8/27/2021 8:15:00 PM 19.39 66.902 0.518 8.06 779.3 7.16
8/27/2021 8:30:00 PM 19.37 66.866 0.518 8.04 766.2 7.02
8/27/2021 8:45:00 PM 19.34 66.812 0.519 8.03 753 6.89
8/27/2021 9:00:00 PM 19.32 66.776 0.52 8.01 736.4 6.74
8/27/2021 9:15:00 PM 19.3 66.74 0.52 8 713.2 6.63
8/27/2021 9:30:00 PM 19.3 66.74 0.52 7.99 688.6 6.55
8/27/2021 9:45:00 PM 19.28 66.704 0.52 7.98 664.7 6.47
8/27/2021 10:00:00 PM 19.26 66.668 0.52 7.97 646.6 6.41
8/27/2021 10:15:00 PM 19.23 66.614 0.52 7.96 627.3 6.32
8/27/2021 10:30:00 PM 19.19 66.542 0.52 7.96 631.8 6.25
8/27/2021 10:45:00 PM 19.15 66.47 0.52 7.94 605.6 6.17
8/27/2021 11:00:00 PM 19.09 66.362 0.519 7.93 609.1 6.13
8/27/2021 11:15:00 PM 19.04 66.272 0.52 7.92 610 6.09
8/27/2021 11:30:00 PM 18.99 66.182 0.52 7.91 612 6.04
8/27/2021 11:45:00 PM 18.93 66.074 0.52 7.9 611.2 6
8/28/2021 12:00:00 AM 18.87 65.966 0.52 7.89 609.8 5.96
8/28/2021 12:15:00 AM 18.82 65.876 0.521 7.88 614.9 5.93
8/28/2021 12:30:00 AM 18.77 65.786 0.521 7.88 602.3 5.91
8/28/2021 12:45:00 AM 18.71 65.67799 0.522 7.87 602.5 5.9
8/28/2021 1:00:00 AM 18.65 65.57 0.522 7.87 607.4 5.88
8/28/2021 1:15:00 AM 18.59 65.462 0.523 7.87 614.4 5.85
8/28/2021 1:30:00 AM 18.54 65.372 0.524 7.86 619.5 5.85
8/28/2021 1:45:00 AM 18.47 65.246 0.525 7.86 626.8 5.86
8/28/2021 2:00:00 AM 18.4 65.12 0.525 7.85 632 5.84
8/28/2021 2:15:00 AM 18.33 64.994 0.526 7.85 646.7 5.85
8/28/2021 2:30:00 AM 18.27 64.886 0.528 7.85 659.9 5.84
8/28/2021 2:45:00 AM 18.2 64.76 0.529 7.85 663.4 5.85
8/28/2021 3:00:00 AM 18.13 64.634 0.53 7.84 671.1 5.84
8/28/2021 3:15:00 AM 18.05 64.49 0.532 7.84 696.2 5.86
8/28/2021 3:30:00 AM 17.97 64.346 0.534 7.84 699.9 5.89
8/28/2021 3:45:00 AM 17.91 64.238 0.535 7.84 714.8 5.89
8/28/2021 4:00:00 AM 17.83 64.094 0.536 7.84 691.1 5.9
8/28/2021 4:15:00 AM 17.75 63.95 0.536 7.84 679.2 5.92
8/28/2021 4:30:00 AM 17.67 63.806 0.537 7.84 696.6 5.94
8/28/2021 4:45:00 AM 17.6 63.68 0.537 7.84 702.2 5.94
8/28/2021 5:00:00 AM 17.53 63.554 0.537 7.84 703.5 5.94
8/28/2021 5:15:00 AM 17.46 63.428 0.537 7.84 703.3 5.96
8/28/2021 5:30:00 AM 17.38 63.284 0.537 7.84 721.4 5.98
8/28/2021 5:45:00 AM 17.32 63.176 0.538 7.84 746.5 5.99
8/28/2021 6:00:00 AM 17.25 63.05 0.538 7.83 753.3 6.01
8/28/2021 6:15:00 AM 17.2 62.96 0.538 7.84 741.5 6.02
8/28/2021 6:30:00 AM 17.13 62.834 0.538 7.83 761 6.05
8/28/2021 6:45:00 AM 17.07 62.726 0.537 7.83 762.1 6.06
8/28/2021 7:00:00 AM 17.02 62.636 0.537 7.83 780.8 6.08
8/28/2021 7:15:00 AM 16.97 62.546 0.537 7.83 763 6.11
8/28/2021 7:30:00 AM 16.92 62.456 0.537 7.84 798.5 6.15
8/28/2021 7:45:00 AM 16.87 62.366 0.536 7.84 782.1 6.21
8/28/2021 8:00:00 AM 16.84 62.312 0.536 7.84 793.9 6.31
8/28/2021 8:15:00 AM 16.8 62.24 0.536 7.85 778.7 6.38
8/28/2021 8:30:00 AM 16.76 62.168 0.535 7.85 806.4 6.44
8/28/2021 8:45:00 AM 16.73 62.114 0.535 7.86 803.1 6.53
8/28/2021 9:00:00 AM 16.71 62.078 0.535 7.86 825.1 6.62
8/28/2021 9:15:00 AM 16.73 62.114 0.534 7.88 818.1 6.79
8/28/2021 9:30:00 AM 16.76 62.168 0.533 7.89 753 7.01
8/28/2021 9:45:00 AM 16.81 62.258 0.533 7.9 732.6 7.19
8/28/2021 10:00:00 AM 16.88 62.384 0.532 7.91 747.9 7.36
8/28/2021 10:15:00 AM 16.93 62.474 0.532 7.92 729.1 7.46
8/28/2021 10:30:00 AM 16.96 62.528 0.531 7.93 733 7.59
8/28/2021 10:45:00 AM 17.01 62.618 0.531 7.94 742.7 7.68
8/28/2021 11:00:00 AM 17.08 62.744 0.53 7.95 737.4 7.8
8/28/2021 11:15:00 AM 17.21 62.978 0.529 7.96 768.9 7.98
8/28/2021 11:30:00 AM 17.38 63.284 0.528 7.97 684.9 8.14
8/28/2021 11:45:00 AM 17.56 63.608 0.528 7.99 704.7 8.33
8/28/2021 12:00:00 PM 17.76 63.968 0.527 8 701.7 8.51
8/28/2021 12:15:00 PM 17.89 64.202 0.527 8.02 675.2 8.6
8/28/2021 12:30:00 PM 18 64.4 0.527 8.03 671.9 8.68
8/28/2021 12:45:00 PM 18.13 64.634 0.527 8.04 669.1 8.71
8/28/2021 1:00:00 PM 18.28 64.904 0.526 8.05 666.3 8.82
8/28/2021 1:15:00 PM 18.47 65.246 0.525 8.06 657.9 8.97
8/28/2021 1:30:00 PM 18.51 65.318 0.525 8.07 703.4 8.91
8/28/2021 1:45:00 PM 18.69 65.642 0.525 8.08 710.1 8.99
8/28/2021 2:00:00 PM 18.84 65.912 0.524 8.08 713.5 9.04
8/28/2021 2:15:00 PM 18.99 66.182 0.524 8.09 721 9.15
8/28/2021 2:30:00 PM 19.19 66.542 0.525 8.1 736.8 9.25
8/28/2021 2:45:00 PM 19.35 66.83 0.529 8.12 754.6 9.32
8/28/2021 3:00:00 PM 19.4 66.92 0.526 8.13 832.1 9.24
8/28/2021 3:15:00 PM 19.4 66.92 0.525 8.12 796.6 9.06
8/28/2021 3:30:00 PM 19.34 66.812 0.525 8.12 849.9 8.76
8/28/2021 3:45:00 PM 19.24 66.632 0.525 8.1 927 8.44
8/28/2021 4:00:00 PM 19.18 66.524 0.523 8.08 960.2 8.15
8/28/2021 4:15:00 PM 19.31 66.758 0.519 8.08 864.2 7.87
8/28/2021 4:30:00 PM 19.89 67.802 0.525 8.06 1056 7.44
8/28/2021 4:45:00 PM 19.76 67.568 0.514 8.04 1016 7.27
8/28/2021 5:00:00 PM 19.37 66.866 0.514 8.05 881.5 7.44
8/28/2021 5:15:00 PM 19.29 66.722 0.515 8.08 878.5 7.64
8/28/2021 5:30:00 PM 19.36 66.848 0.514 8.09 847.2 7.5
8/28/2021 5:45:00 PM 19.4 66.92 0.505 8.09 838.2 7.37
8/28/2021 6:00:00 PM 19.58 67.244 0.483 8.08 843.6 7.16
8/28/2021 6:15:00 PM 19.91 67.838 0.443 8.05 815.1 6.8
8/28/2021 6:30:00 PM 20.15 68.27 0.418 8.01 807 6.54
8/28/2021 6:45:00 PM 20.32 68.576 0.403 7.97 796.4 6.36
8/28/2021 7:00:00 PM 20.5 68.9 0.387 7.93 764.4 6.14
8/28/2021 7:15:00 PM 20.66 69.188 0.382 7.88 709.3 5.93
8/28/2021 7:30:00 PM 20.68 69.224 0.398 7.87 802.8 5.97
8/28/2021 7:45:00 PM 20.22 68.396 0.438 7.91 755.1 6.25
8/28/2021 8:00:00 PM 20.04 68.07201 0.444 7.94 826.4 6.23
8/28/2021 8:15:00 PM 20.55 68.99 0.408 7.92 807.9 5.81
8/28/2021 8:30:00 PM 21.12 70.016 0.365 7.87 785.1 5.35
8/28/2021 8:45:00 PM 21.35 70.43 0.337 7.82 822.7 5.08
8/28/2021 9:00:00 PM 21.38 70.484 0.325 7.78 821.9 4.95
8/28/2021 9:15:00 PM 21.33 70.394 0.321 7.75 825 4.89
8/28/2021 9:30:00 PM 21.23 70.214 0.322 7.72 841.1 4.84
8/28/2021 9:45:00 PM 21.08 69.944 0.328 7.7 838.1 4.82
8/28/2021 10:00:00 PM 20.89 69.602 0.335 7.67 848 4.79
8/28/2021 10:15:00 PM 20.7 69.26 0.344 7.65 873.3 4.78
8/28/2021 10:30:00 PM 20.53 68.954 0.353 7.64 750.5 4.77
8/28/2021 10:45:00 PM 20.38 68.684 0.362 7.63 840.9 4.78
8/28/2021 11:00:00 PM 20.24 68.432 0.371 7.63 846.7 4.8
8/28/2021 11:15:00 PM 20.11 68.198 0.378 7.62 853.1 4.81
8/28/2021 11:30:00 PM 19.99 67.982 0.384 7.63 781.5 4.79
8/28/2021 11:45:00 PM 19.89 67.802 0.389 7.62 833.1 4.75
8/29/2021 12:00:00 AM 19.8 67.64 0.392 7.62 783.6 4.71
8/29/2021 12:15:00 AM 19.72 67.496 0.395 7.62 857.4 4.69
8/29/2021 12:30:00 AM 19.65 67.37 0.397 7.62 834.6 4.69
8/29/2021 12:45:00 AM 19.58 67.244 0.4 7.62 807.6 4.73
8/29/2021 1:00:00 AM 19.52 67.136 0.401 7.62 777.4 4.78
8/29/2021 1:15:00 AM 19.46 67.028 0.404 7.62 892 4.83
8/29/2021 1:30:00 AM 19.39 66.902 0.406 7.62 777.1 4.87
8/29/2021 1:45:00 AM 19.33 66.794 0.409 7.62 756.7 4.91
8/29/2021 2:00:00 AM 19.25 66.65 0.412 7.63 838.6 4.95
8/29/2021 2:15:00 AM 19.17 66.506 0.416 7.63 763.9 5
8/29/2021 2:30:00 AM 19.09 66.362 0.422 7.64 886.1 5.05
8/29/2021 2:45:00 AM 19 66.2 0.427 7.64 791.3 5.1
8/29/2021 3:00:00 AM 18.91 66.038 0.432 7.65 898 5.16
8/29/2021 3:15:00 AM 18.8 65.84 0.437 7.65 789.4 5.2
8/29/2021 3:30:00 AM 18.7 65.66 0.443 7.66 791.2 5.26
8/29/2021 3:45:00 AM 18.6 65.48 0.447 7.67 863.4 5.3
8/29/2021 4:00:00 AM 18.51 65.318 0.45 7.68 847 5.36
8/29/2021 4:15:00 AM 18.41 65.138 0.454 7.68 846.6 5.41
8/29/2021 4:30:00 AM 18.32 64.976 0.457 7.69 846 5.45
8/29/2021 4:45:00 AM 18.23 64.814 0.459 7.69 823 5.51
8/29/2021 5:00:00 AM 18.15 64.67 0.462 7.7 809.1 5.55
8/29/2021 5:15:00 AM 18.06 64.508 0.465 7.71 741.7 5.6
8/29/2021 5:30:00 AM 17.98 64.364 0.467 7.71 770.6 5.65
8/29/2021 5:45:00 AM 17.9 64.22 0.469 7.72 775.6 5.67
8/29/2021 6:00:00 AM 17.81 64.058 0.472 7.73 797.6 5.73
8/29/2021 6:15:00 AM 17.72 63.896 0.475 7.74 801.3 5.77
8/29/2021 6:30:00 AM 17.63 63.734 0.477 7.74 808.2 5.81
8/29/2021 6:45:00 AM 17.54 63.572 0.48 7.75 823.4 5.85
8/29/2021 7:00:00 AM 17.46 63.428 0.482 7.75 797.7 5.9
8/29/2021 7:15:00 AM 17.38 63.284 0.484 7.76 757.5 5.92
8/29/2021 7:30:00 AM 17.3 63.14 0.486 7.76 768.4 5.96
8/29/2021 7:45:00 AM 17.23 63.014 0.488 7.77 803.2 6.01
8/29/2021 8:00:00 AM 17.16 62.888 0.49 7.78 759.4 6.06
8/29/2021 8:15:00 AM 17.1 62.78 0.491 7.78 739.9 6.12
8/29/2021 8:30:00 AM 17.04 62.672 0.493 7.79 741.6 6.16
8/29/2021 8:45:00 AM 16.99 62.582 0.494 7.79 745.8 6.22
8/29/2021 9:00:00 AM 16.94 62.492 0.495 7.8 784.4 6.29
8/29/2021 9:15:00 AM 16.92 62.456 0.496 7.81 741.6 6.4
8/29/2021 9:30:00 AM 16.92 62.456 0.498 7.82 775.7 6.56
8/29/2021 9:45:00 AM 16.93 62.474 0.498 7.83 752.3 6.72
8/29/2021 10:00:00 AM 16.92 62.456 0.499 7.85 765.6 6.82
8/29/2021 10:15:00 AM 16.88 62.384 0.5 7.85 744.9 6.86
8/29/2021 10:30:00 AM 16.85 62.33 0.501 7.86 777.9 6.88
8/29/2021 10:45:00 AM 16.84 62.312 0.502 7.86 760.8 6.94
8/29/2021 11:00:00 AM 16.87 62.366 0.503 7.88 758.6 7.11
8/29/2021 11:15:00 AM 16.92 62.456 0.504 7.89 765.8 7.32
8/29/2021 11:30:00 AM 16.95 62.51 0.504 7.91 749.3 7.46
8/29/2021 11:45:00 AM 16.96 62.528 0.505 7.92 765.9 7.51
8/29/2021 12:00:00 PM 16.96 62.528 0.506 7.92 740.6 7.53
8/29/2021 12:15:00 PM 16.97 62.546 0.507 7.93 731.2 7.55
8/29/2021 12:30:00 PM 17.01 62.618 0.507 7.94 778.7 7.65
8/29/2021 12:45:00 PM 17.08 62.744 0.508 7.95 759.6 7.83
8/29/2021 1:00:00 PM 17.16 62.888 0.508 7.97 770.4 8.01
8/29/2021 1:15:00 PM 17.21 62.978 0.508 7.98 774.3 8.08
8/29/2021 1:30:00 PM 17.22 62.996 0.509 7.99 753.7 8.1
8/29/2021 1:45:00 PM 17.21 62.978 0.51 8 742.4 8.05
8/29/2021 2:00:00 PM 17.23 63.014 0.51 8 729.3 8.06
8/29/2021 2:15:00 PM 17.23 63.014 0.51 8.01 734.3 8.06
8/29/2021 2:30:00 PM 17.23 63.014 0.511 8.01 750.6 8
8/29/2021 2:45:00 PM 17.23 63.014 0.512 8.01 763 7.96
8/29/2021 3:00:00 PM 17.24 63.032 0.512 8.01 805.8 7.92
8/29/2021 3:15:00 PM 17.26 63.068 0.511 8.01 805.2 7.93
8/29/2021 3:30:00 PM 17.27 63.086 0.512 8.02 802.9 7.91
8/29/2021 3:45:00 PM 17.29 63.122 0.511 8.02 751.3 7.88
8/29/2021 4:00:00 PM 17.32 63.176 0.511 8.02 757.9 7.86
8/29/2021 4:15:00 PM 17.34 63.212 0.511 8.02 739 7.84
8/29/2021 4:30:00 PM 17.36 63.248 0.511 8.02 754.8 7.82
8/29/2021 4:45:00 PM 17.39 63.302 0.51 8.02 756.9 7.75
8/29/2021 5:00:00 PM 17.41 63.338 0.51 8.02 744 7.66
8/29/2021 5:15:00 PM 17.42 63.356 0.51 8.01 741.3 7.54
8/29/2021 5:30:00 PM 17.45 63.41 0.51 8.01 745.9 7.43
8/29/2021 5:45:00 PM 17.47 63.446 0.508 8.01 763.2 7.4
8/29/2021 6:00:00 PM 17.49 63.482 0.508 8 752.3 7.34
8/29/2021 6:15:00 PM 17.5 63.5 0.507 8 737.9 7.26
8/29/2021 6:30:00 PM 17.51 63.518 0.507 7.99 761 7.2
8/29/2021 6:45:00 PM 17.51 63.518 0.506 7.98 739.8 7.11
8/29/2021 7:00:00 PM 17.51 63.518 0.507 7.98 741.1 7.05
8/29/2021 7:15:00 PM 17.51 63.518 0.507 7.97 745.2 6.99
8/29/2021 7:30:00 PM 17.52 63.536 0.507 7.97 733.4 6.91
8/29/2021 7:45:00 PM 17.52 63.536 0.507 7.96 735 6.84
8/29/2021 8:00:00 PM 17.52 63.536 0.508 7.95 757.3 6.74
8/29/2021 8:15:00 PM 17.52 63.536 0.508 7.95 744 6.7
8/29/2021 8:30:00 PM 17.5 63.5 0.508 7.94 745.7 6.65
8/29/2021 8:45:00 PM 17.48 63.464 0.509 7.94 760.6 6.59
8/29/2021 9:00:00 PM 17.47 63.446 0.509 7.93 766.4 6.54
8/29/2021 9:15:00 PM 17.46 63.428 0.51 7.93 758.9 6.51
8/29/2021 9:30:00 PM 17.45 63.41 0.51 7.92 775.6 6.46
8/29/2021 9:45:00 PM 17.43 63.374 0.511 7.91 781.5 6.41
8/29/2021 10:00:00 PM 17.42 63.356 0.511 7.91 799.5 6.38
8/29/2021 10:15:00 PM 17.39 63.302 0.512 7.9 803.2 6.36
8/29/2021 10:30:00 PM 17.36 63.248 0.513 7.9 809.2 6.33
8/29/2021 10:45:00 PM 17.33 63.194 0.513 7.89 788.7 6.29
8/29/2021 11:00:00 PM 17.3 63.14 0.514 7.89 812.7 6.29
8/29/2021 11:15:00 PM 17.27 63.086 0.515 7.89 821.4 6.25
8/29/2021 11:30:00 PM 17.25 63.05 0.515 7.88 835.4 6.23
8/29/2021 11:45:00 PM 17.22 62.996 0.515 7.88 832 6.22
8/30/2021 12:00:00 AM 17.19 62.942 0.516 7.87 836.1 6.2
8/30/2021 12:15:00 AM 17.15 62.87 0.516 7.87 876.4 6.17
8/30/2021 12:30:00 AM 17.12 62.816 0.516 7.86 865.8 6.15
8/30/2021 12:45:00 AM 17.08 62.744 0.517 7.86 841.4 6.14
8/30/2021 1:00:00 AM 17.04 62.672 0.517 7.85 902.1 6.13
8/30/2021 1:15:00 AM 17.01 62.618 0.517 7.85 835.8 6.12
8/30/2021 1:30:00 AM 16.97 62.546 0.517 7.85 820.3 6.13
8/30/2021 1:45:00 AM 16.93 62.474 0.517 7.85 838.7 6.13
8/30/2021 2:00:00 AM 16.89 62.402 0.517 7.85 815.3 6.15
8/30/2021 2:15:00 AM 16.84 62.312 0.517 7.85 792.7 6.14
8/30/2021 2:30:00 AM 16.8 62.24 0.517 7.84 806.8 6.16
8/30/2021 2:45:00 AM 16.76 62.168 0.517 7.85 823.6 6.16
8/30/2021 3:00:00 AM 16.71 62.078 0.517 7.84 866.9 6.18
8/30/2021 3:15:00 AM 16.67 62.006 0.517 7.84 876.2 6.18
8/30/2021 3:30:00 AM 16.62 61.916 0.517 7.84 902.9 6.19
8/30/2021 3:45:00 AM 16.58 61.844 0.517 7.83 919.7 6.21
8/30/2021 4:00:00 AM 16.53 61.754 0.517 7.84 805.9 6.21
8/30/2021 4:15:00 AM 16.49 61.682 0.516 7.84 824.7 6.22
8/30/2021 4:30:00 AM 16.45 61.61 0.516 7.84 800.8 6.23
8/30/2021 4:45:00 AM 16.4 61.52 0.516 7.83 818.9 6.23
8/30/2021 5:00:00 AM 16.36 61.448 0.516 7.84 814.8 6.25
8/30/2021 5:15:00 AM 16.31 61.358 0.515 7.84 780.2 6.26
8/30/2021 5:30:00 AM 16.27 61.286 0.515 7.84 820.7 6.27
8/30/2021 5:45:00 AM 16.22 61.196 0.515 7.84 860.4 6.28
8/30/2021 6:00:00 AM 16.18 61.124 0.515 7.84 901.5 6.3
8/30/2021 6:15:00 AM 16.14 61.052 0.515 7.84 892.3 6.3
8/30/2021 6:30:00 AM 16.1 60.98 0.515 7.84 897.5 6.3
8/30/2021 6:45:00 AM 16.06 60.908 0.514 7.84 933.3 6.32
8/30/2021 7:00:00 AM 16.02 60.836 0.514 7.84 948.3 6.33
8/30/2021 7:15:00 AM 15.98 60.764 0.514 7.84 960.3 6.36
8/30/2021 7:30:00 AM 15.96 60.728 0.514 7.84 970.6 6.42
8/30/2021 7:45:00 AM 15.94 60.692 0.513 7.85 955.4 6.48
8/30/2021 8:00:00 AM 15.91 60.638 0.513 7.85 968.1 6.54
8/30/2021 8:15:00 AM 15.91 60.638 0.513 7.86 955.7 6.64
8/30/2021 8:30:00 AM 15.93 60.674 0.512 7.86 972.4 6.73
8/30/2021 8:45:00 AM 15.92 60.656 0.512 7.87 971.1 6.82
8/30/2021 9:00:00 AM 15.92 60.656 0.512 7.87 972.6 6.91
8/30/2021 9:15:00 AM 15.92 60.656 0.512 7.88 862.3 6.99
8/30/2021 9:30:00 AM 15.94 60.692 0.511 7.89 968 7.11
8/30/2021 9:45:00 AM 15.96 60.728 0.511 7.9 972.4 7.2
8/30/2021 10:00:00 AM 15.99 60.782 0.51 7.91 947.8 7.32
8/30/2021 10:15:00 AM 16.03 60.854 0.51 7.91 960.2 7.42
8/30/2021 10:30:00 AM 16.09 60.962 0.51 7.93 914.1 7.56
8/30/2021 10:45:00 AM 16.13 61.034 0.509 7.94 890.7 7.61
8/30/2021 11:00:00 AM 16.19 61.142 0.509 7.95 899.5 7.71
8/30/2021 11:15:00 AM 16.24 61.232 0.509 7.96 867.8 7.79
8/30/2021 11:30:00 AM 16.31 61.358 0.509 7.97 884.1 7.91
8/30/2021 11:45:00 AM 16.39 61.502 0.508 7.98 887.2 8.07
8/30/2021 12:00:00 PM 16.46 61.628 0.507 7.99 863.5 8.18
8/30/2021 12:15:00 PM 16.55 61.79 0.507 8 873.4 8.25
8/30/2021 12:30:00 PM 16.64 61.952 0.507 8.02 869 8.36
8/30/2021 12:45:00 PM 16.69 62.042 0.507 8.03 846 8.32
8/30/2021 1:00:00 PM 16.76 62.168 0.506 8.03 849 8.35
8/30/2021 1:15:00 PM 16.86 62.348 0.506 8.04 831.5 8.4
8/30/2021 1:30:00 PM 17.03 62.654 0.505 8.06 835 8.57
8/30/2021 1:45:00 PM 17.11 62.798 0.505 8.07 813.1 8.67
8/30/2021 2:00:00 PM 17.3 63.14 0.505 8.09 796.1 8.8
8/30/2021 2:15:00 PM 17.44 63.392 0.504 8.1 788.2 8.88
8/30/2021 2:30:00 PM 17.56 63.608 0.504 8.11 825.6 8.89
8/30/2021 2:45:00 PM 17.69 63.842 0.504 8.12 815 8.92
8/30/2021 3:00:00 PM 17.72 63.896 0.505 8.12 830.9 8.8
8/30/2021 3:15:00 PM 17.89 64.202 0.5 8.11 821.1 8.54
8/30/2021 3:30:00 PM 17.86 64.148 0.501 8.12 846.2 8.5
8/30/2021 3:45:00 PM 17.96 64.328 0.5 8.12 814.9 8.57
8/30/2021 4:00:00 PM 17.97 64.346 0.501 8.13 811.4 8.58
8/30/2021 4:15:00 PM 18.04 64.472 0.501 8.13 794.1 8.57
8/30/2021 4:30:00 PM 18.11 64.598 0.502 8.14 894 8.58
8/30/2021 4:45:00 PM 18.23 64.814 0.501 8.15 949.4 8.63
8/30/2021 5:00:00 PM 18.34 65.012 0.5 8.15 866 8.59
8/30/2021 5:15:00 PM 18.4 65.12 0.499 8.15 838.5 8.54
8/30/2021 5:30:00 PM 18.46 65.228 0.502 8.15 839.5 8.5
8/30/2021 5:45:00 PM 18.54 65.372 0.501 8.15 831.4 8.41
8/30/2021 6:00:00 PM 18.61 65.498 0.501 8.14 831.5 8.29
8/30/2021 6:15:00 PM 18.67 65.606 0.503 8.14 911.4 8.24
8/30/2021 6:30:00 PM 18.72 65.696 0.502 8.15 1013 8.09
8/30/2021 6:45:00 PM 18.75 65.75 0.502 8.14 907.8 7.9
8/30/2021 7:00:00 PM 18.76 65.768 0.501 8.13 870.4 7.82
8/30/2021 7:15:00 PM 18.76 65.768 0.502 8.13 890.4 7.69
8/30/2021 7:30:00 PM 18.76 65.768 0.502 8.11 859.6 7.53
8/30/2021 7:45:00 PM 18.78 65.804 0.502 8.1 893.6 7.38
8/30/2021 8:00:00 PM 18.79 65.82201 0.502 8.09 825.5 7.27
8/30/2021 8:15:00 PM 18.81 65.858 0.502 8.07 829.2 7.12
8/30/2021 8:30:00 PM 18.82 65.876 0.502 8.06 846.4 7.01
8/30/2021 8:45:00 PM 18.83 65.894 0.502 8.05 842 6.88
8/30/2021 9:00:00 PM 18.83 65.894 0.502 8.04 853 6.79
8/30/2021 9:15:00 PM 18.82 65.876 0.503 8.03 811 6.72
8/30/2021 9:30:00 PM 18.8 65.84 0.503 8.02 852.3 6.63
8/30/2021 9:45:00 PM 18.78 65.804 0.503 8 840.1 6.52
8/30/2021 10:00:00 PM 18.75 65.75 0.503 7.99 875.2 6.43
8/30/2021 10:15:00 PM 18.71 65.67799 0.504 7.97 852.1 6.33
8/30/2021 10:30:00 PM 18.68 65.624 0.504 7.96 850.8 6.28
8/30/2021 10:45:00 PM 18.64 65.552 0.504 7.95 888.3 6.21
8/30/2021 11:00:00 PM 18.61 65.498 0.504 7.94 806.4 6.15
8/30/2021 11:15:00 PM 18.58 65.444 0.505 7.93 845.6 6.12
8/30/2021 11:30:00 PM 18.54 65.372 0.504 7.92 847.3 6.08
8/30/2021 11:45:00 PM 18.51 65.318 0.505 7.91 902 6.03
8/31/2021 12:00:00 AM 18.48 65.264 0.505 7.9 918.5 6
8/31/2021 12:15:00 AM 18.44 65.192 0.505 7.9 929.2 5.96
8/31/2021 12:30:00 AM 18.4 65.12 0.506 7.89 920.1 5.98
8/31/2021 12:45:00 AM 18.36 65.048 0.506 7.88 906.3 5.91
8/31/2021 1:00:00 AM 18.31 64.958 0.506 7.87 898.9 5.9
8/31/2021 1:15:00 AM 18.26 64.868 0.507 7.87 906.9 5.87
8/31/2021 1:30:00 AM 18.21 64.778 0.508 7.86 931.3 5.85
8/31/2021 1:45:00 AM 18.16 64.688 0.508 7.86 932.3 5.84
8/31/2021 2:00:00 AM 18.11 64.598 0.509 7.85 914 5.82
8/31/2021 2:15:00 AM 18.05 64.49 0.51 7.85 959.4 5.82
8/31/2021 2:30:00 AM 17.98 64.364 0.51 7.84 952.3 5.84
8/31/2021 2:45:00 AM 17.91 64.238 0.51 7.84 976.3 5.82
8/31/2021 3:00:00 AM 17.84 64.112 0.511 7.84 978 5.83
8/31/2021 3:15:00 AM 17.77 63.986 0.511 7.84 973.9 5.84
8/31/2021 3:30:00 AM 17.71 63.878 0.512 7.84 997.2 5.82
8/31/2021 3:45:00 AM 17.64 63.752 0.512 7.85 985.3 5.86
8/31/2021 4:00:00 AM 17.57 63.626 0.512 7.84 994.5 5.84
8/31/2021 4:15:00 AM 17.5 63.5 0.512 7.84 978.9 5.87
8/31/2021 4:30:00 AM 17.43 63.374 0.512 7.84 973.9 5.89
8/31/2021 4:45:00 AM 17.36 63.248 0.513 7.84 854.5 5.88
8/31/2021 5:00:00 AM 17.28 63.104 0.513 7.84 866 5.9
8/31/2021 5:15:00 AM 17.2 62.96 0.513 7.84 886 5.94
8/31/2021 5:30:00 AM 17.12 62.816 0.513 7.84 904.1 5.96
8/31/2021 5:45:00 AM 17.05 62.69 0.513 7.84 886 5.96
8/31/2021 6:00:00 AM 16.98 62.564 0.514 7.84 910.1 5.96
8/31/2021 6:15:00 AM 16.91 62.438 0.514 7.84 959.7 5.97
8/31/2021 6:30:00 AM 16.84 62.312 0.514 7.83 937.3 5.98
8/31/2021 6:45:00 AM 16.77 62.186 0.514 7.83 956.8 6.02
8/31/2021 7:00:00 AM 16.71 62.078 0.514 7.83 996.6 6.01
8/31/2021 7:15:00 AM 16.65 61.97 0.514 7.83 987.5 6.08
8/31/2021 7:30:00 AM 16.58 61.844 0.514 7.84 1035 6.15
8/31/2021 7:45:00 AM 16.53 61.754 0.513 7.84 1005 6.2
8/31/2021 8:00:00 AM 16.5 61.7 0.513 7.84 993.4 6.28
8/31/2021 8:15:00 AM 16.46 61.628 0.513 7.85 987.5 6.38
8/31/2021 8:30:00 AM 16.44 61.592 0.513 7.86 977.4 6.52
8/31/2021 8:45:00 AM 16.43 61.574 0.513 7.87 955.9 6.62
8/31/2021 9:00:00 AM 16.42 61.556 0.512 7.88 959.6 6.79
8/31/2021 9:15:00 AM 16.43 61.574 0.512 7.89 942.1 6.91
8/31/2021 9:30:00 AM 16.43 61.574 0.512 7.9 887.6 7.05
8/31/2021 9:45:00 AM 16.44 61.592 0.512 7.91 904.4 7.13
8/31/2021 10:00:00 AM 16.45 61.61 0.512 7.91 903.3 7.22
8/31/2021 10:15:00 AM 16.45 61.61 0.511 7.93 914.7 7.38
8/31/2021 10:30:00 AM 16.46 61.628 0.511 7.94 906.6 7.5
8/31/2021 10:45:00 AM 16.49 61.682 0.511 7.95 924.3 7.69
8/31/2021 11:00:00 AM 16.51 61.718 0.51 7.96 921.6 7.79
8/31/2021 11:15:00 AM 16.55 61.79 0.51 7.98 929.9 7.98
8/31/2021 11:30:00 AM 16.58 61.844 0.51 7.99 920.3 8.09
8/31/2021 11:45:00 AM 16.6 61.88 0.509 8 919.2 8.19
8/31/2021 12:00:00 PM 16.61 61.898 0.509 8.01 901.1 8.24
8/31/2021 12:15:00 PM 16.64 61.952 0.509 8.02 897 8.33
8/31/2021 12:30:00 PM 16.68 62.024 0.508 8.03 885 8.37
8/31/2021 12:45:00 PM 16.7 62.06 0.508 8.04 893.8 8.4
8/31/2021 1:00:00 PM 16.71 62.078 0.508 8.05 920.1 8.4
8/31/2021 1:15:00 PM 16.74 62.132 0.508 8.05 923 8.46
8/31/2021 1:30:00 PM 16.77 62.186 0.508 8.06 894.7 8.43
8/31/2021 1:45:00 PM 16.88 62.384 0.508 8.08 937 8.63
8/31/2021 2:00:00 PM 16.97 62.546 0.507 8.09 891.5 8.8
8/31/2021 2:15:00 PM 17.01 62.618 0.506 8.1 915.6 8.85
8/31/2021 2:30:00 PM 17.03 62.654 0.506 8.11 948.6 8.85
8/31/2021 2:45:00 PM 17.02 62.636 0.507 8.12 932.4 8.76
8/31/2021 3:00:00 PM 17 62.6 0.507 8.12 957.7 8.64
8/31/2021 3:15:00 PM 17.01 62.618 0.506 8.12 989.5 8.54
8/31/2021 3:30:00 PM 17.02 62.636 0.506 8.12 988.7 8.45
8/31/2021 3:45:00 PM 17.03 62.654 0.508 8.11 1005 8.38
8/31/2021 4:00:00 PM 17.05 62.69 0.508 8.11 991 8.3
8/31/2021 4:15:00 PM 17.07 62.726 0.507 8.11 1020 8.21
8/31/2021 4:30:00 PM 17.08 62.744 0.507 8.11 1033 8.13
8/31/2021 4:45:00 PM 17.1 62.78 0.507 8.11 1060 8.14
8/31/2021 5:00:00 PM 17.12 62.816 0.506 8.11 1045 8.12
8/31/2021 5:15:00 PM 17.13 62.834 0.506 8.12 1050 8.1
8/31/2021 5:30:00 PM 17.13 62.834 0.505 8.12 1004 8.06
8/31/2021 5:45:00 PM 17.13 62.834 0.505 8.11 1004 7.96
8/31/2021 6:00:00 PM 17.13 62.834 0.505 8.11 1009 7.86
8/31/2021 6:15:00 PM 17.14 62.852 0.505 8.1 1005 7.76
8/31/2021 6:30:00 PM 17.14 62.852 0.505 8.1 990.7 7.66
8/31/2021 6:45:00 PM 17.14 62.852 0.504 8.09 986.6 7.57
8/31/2021 7:00:00 PM 17.14 62.852 0.504 8.09 1003 7.47
8/31/2021 7:15:00 PM 17.13 62.834 0.504 8.08 989.6 7.37
8/31/2021 7:30:00 PM 17.12 62.816 0.504 8.07 997.6 7.27
8/31/2021 7:45:00 PM 17.1 62.78 0.504 8.06 902.8 7.15
8/31/2021 8:00:00 PM 17.09 62.762 0.504 8.05 877.8 7.03
8/31/2021 8:15:00 PM 17.07 62.726 0.504 8.04 890.1 6.94
8/31/2021 8:30:00 PM 17.06 62.708 0.505 8.03 868.8 6.86
8/31/2021 8:45:00 PM 17.05 62.69 0.505 8.02 851.7 6.78
8/31/2021 9:00:00 PM 17.04 62.672 0.505 8.01 859.9 6.72
8/31/2021 9:15:00 PM 17.03 62.654 0.505 8 867.3 6.66
8/31/2021 9:30:00 PM 17.01 62.618 0.505 7.99 874.6 6.62
8/31/2021 9:45:00 PM 17 62.6 0.506 7.99 870.8 6.56
8/31/2021 10:00:00 PM 16.98 62.564 0.506 7.98 897.3 6.56
8/31/2021 10:15:00 PM 16.98 62.564 0.506 7.97 899.8 6.5
8/31/2021 10:30:00 PM 16.96 62.528 0.506 7.96 897.6 6.43
8/31/2021 10:45:00 PM 16.94 62.492 0.506 7.95 909.1 6.39
8/31/2021 11:00:00 PM 16.92 62.456 0.507 7.95 915.4 6.37
8/31/2021 11:15:00 PM 16.9 62.42 0.507 7.94 946.7 6.35
8/31/2021 11:30:00 PM 16.88 62.384 0.507 7.94 965.2 6.31
8/31/2021 11:45:00 PM 16.86 62.348 0.508 7.93 980.7 6.25
9/1/2021 12:00:00 AM 16.84 62.312 0.508 7.92 997.9 6.26
9/1/2021 12:15:00 AM 16.82 62.276 0.508 7.92 995.1 6.23
9/1/2021 12:30:00 AM 16.8 62.24 0.508 7.91 1011 6.18
9/1/2021 12:45:00 AM 16.78 62.204 0.509 7.91 1020 6.19
9/1/2021 1:00:00 AM 16.76 62.168 0.509 7.9 1023 6.14
9/1/2021 1:15:00 AM 16.73 62.114 0.509 7.9 995.9 6.16
9/1/2021 1:30:00 AM 16.72 62.096 0.509 7.9 1009 6.13
9/1/2021 1:45:00 AM 16.7 62.06 0.509 7.88 1006 6.05
9/1/2021 2:00:00 AM 16.66 61.988 0.51 7.88 1034 6.06
9/1/2021 2:15:00 AM 16.62 61.916 0.51 7.88 1033 6.05
9/1/2021 2:30:00 AM 16.59 61.862 0.51 7.87 1020 6.02
9/1/2021 2:45:00 AM 16.57 61.826 0.51 7.87 1038 6
9/1/2021 3:00:00 AM 16.55 61.79 0.51 7.86 1028 6
9/1/2021 3:15:00 AM 16.53 61.754 0.515 7.86 1032 5.99
9/1/2021 3:30:00 AM 16.52 61.736 0.516 7.86 1042 5.99
9/1/2021 3:45:00 AM 16.48 61.664 0.514 7.86 1032 5.98
9/1/2021 4:00:00 AM 16.46 61.628 0.512 7.86 1045 5.98
9/1/2021 4:15:00 AM 16.43 61.574 0.511 7.86 1034 6.01
9/1/2021 4:30:00 AM 16.39 61.502 0.509 7.85 1094 6
9/1/2021 4:45:00 AM 16.38 61.484 0.507 7.85 1031 6.03
9/1/2021 5:00:00 AM 16.42 61.556 0.505 7.84 1035 5.99
9/1/2021 5:15:00 AM 16.45 61.61 0.501 7.84 1033 5.97
9/1/2021 5:30:00 AM 16.53 61.754 0.493 7.84 1051 5.96
9/1/2021 5:45:00 AM 16.55 61.79 0.486 7.84 1067 6.02
9/1/2021 6:00:00 AM 16.68 62.024 0.474 7.84 1043 6.03
9/1/2021 6:15:00 AM 16.71 62.078 0.466 7.84 1054 6.05
9/1/2021 6:30:00 AM 16.88 62.384 0.448 7.85 1088 6.17
9/1/2021 6:45:00 AM 17.17 62.906 0.414 7.86 1176 6.28
9/1/2021 7:00:00 AM 16.75 62.15 0.438 7.84 961.5 6.27
9/1/2021 7:15:00 AM 16.81 62.258 0.431 7.84 1001 6.27
9/1/2021 7:30:00 AM 16.79 62.222 0.424 7.83 966 6.26
9/1/2021 7:45:00 AM 16.84 62.312 0.411 7.83 1061 6.26
9/1/2021 8:00:00 AM 17.06 62.708 0.388 7.82 1066 6.21
9/1/2021 8:15:00 AM 17.35 63.23 0.357 7.8 997.1 6.19
9/1/2021 8:30:00 AM 17.59 63.662 0.331 7.78 971.4 6.2
9/1/2021 8:45:00 AM 17.76 63.968 0.313 7.76 981.9 6.2
9/1/2021 9:00:00 AM 17.88 64.184 0.3 7.76 983.6 6.25
9/1/2021 9:15:00 AM 17.74 63.932 0.313 7.77 930.8 6.24
9/1/2021 9:30:00 AM 17.73 63.914 0.325 7.77 976.6 6.09
9/1/2021 9:45:00 AM 18.09 64.562 0.309 7.77 844.7 5.78
9/1/2021 10:00:00 AM 18.55 65.39 0.277 7.74 852.5 5.61
9/1/2021 10:15:00 AM 18.87 65.966 0.252 7.7 786.2 5.53
9/1/2021 10:30:00 AM 19.08 66.344 0.237 7.67 786 5.47
9/1/2021 10:45:00 AM 19.2 66.56 0.223 7.66 764.1 5.52
9/1/2021 11:00:00 AM 19.24 66.632 0.214 7.63 574 5.51
9/1/2021 11:15:00 AM 19.27 66.686 0.207 7.62 403.5 5.5
9/1/2021 11:30:00 AM 19.29 66.722 0.199 7.6 341.7 5.53
9/1/2021 11:45:00 AM 19.32 66.776 0.193 7.59 316.5 5.53
9/1/2021 12:00:00 PM 19.29 66.722 0.193 7.58 345.4 5.52
9/1/2021 12:15:00 PM 19.25 66.65 0.193 7.57 599.9 5.5
9/1/2021 12:30:00 PM 19.24 66.632 0.191 7.56 615.9 5.48
9/1/2021 12:45:00 PM 19.26 66.668 0.19 7.55 550.4 5.47
9/1/2021 1:00:00 PM 19.28 66.704 0.19 7.54 562.6 5.46
9/1/2021 1:15:00 PM 19.27 66.686 0.189 7.53 540.9 5.47
9/1/2021 1:30:00 PM 19.25 66.65 0.189 7.52 554.6 5.49
9/1/2021 1:45:00 PM 19.23 66.614 0.189 7.52 661.1 5.49
9/1/2021 2:00:00 PM 19.22 66.596 0.19 7.51 658.8 5.49
9/1/2021 2:15:00 PM 19.21 66.578 0.19 7.51 741.5 5.49
9/1/2021 2:30:00 PM 19.21 66.578 0.192 7.49 632.1 5.49
9/1/2021 2:45:00 PM 19.2 66.56 0.192 7.49 698.2 5.49
9/1/2021 3:00:00 PM 19.19 66.542 0.192 7.49 718.9 5.51
9/1/2021 3:15:00 PM 19.17 66.506 0.193 7.49 458.4 5.51
9/1/2021 3:30:00 PM 19.16 66.488 0.193 7.49 330.5 5.52
9/1/2021 3:45:00 PM 19.15 66.47 0.194 7.49 376.4 5.54
9/1/2021 4:00:00 PM 19.13 66.434 0.195 7.49 373.1 5.54
9/1/2021 4:15:00 PM 19.12 66.416 0.195 7.49 566.1 5.55
9/1/2021 4:30:00 PM 19.1 66.38 0.195 7.48 671.9 5.57
9/1/2021 4:45:00 PM 19.08 66.344 0.196 7.48 344.3 5.59
9/1/2021 5:00:00 PM 19.05 66.29 0.197 7.49 431.8 5.59
9/1/2021 5:15:00 PM 19.03 66.254 0.197 7.49 360.2 5.6
9/1/2021 5:30:00 PM 19.01 66.218 0.197 7.49 289.8 5.59
9/1/2021 5:45:00 PM 18.97 66.146 0.198 7.49 411.1 5.6
9/1/2021 6:00:00 PM 18.94 66.092 0.199 7.49 1368 5.59
9/1/2021 6:15:00 PM 18.91 66.038 0.199 7.48 898.5 5.6
9/1/2021 6:30:00 PM 18.88 65.984 0.2 7.49 532.8 5.6
9/1/2021 6:45:00 PM 18.85 65.93 0.2 7.48 1992 5.61
9/1/2021 7:00:00 PM 18.82 65.876 0.2 7.48 2989 5.6
9/1/2021 7:15:00 PM 18.79 65.82201 0.2 7.47 1316 5.59
9/1/2021 7:30:00 PM 18.76 65.768 0.2 7.47 1272 5.58
9/1/2021 7:45:00 PM 18.73 65.714 0.2 7.46 1620 5.57
9/1/2021 8:00:00 PM 18.7 65.66 0.201 7.46 1139 5.55
9/1/2021 8:15:00 PM 18.66 65.588 0.202 7.46 886 5.55
9/1/2021 8:30:00 PM 18.62 65.516 0.204 7.45 868.2 5.54
9/1/2021 8:45:00 PM 18.57 65.426 0.205 7.45 668.3 5.53
9/1/2021 9:00:00 PM 18.52 65.336 0.207 7.45 926.1 5.52
9/1/2021 9:15:00 PM 18.47 65.246 0.209 7.44 915.6 5.51
9/1/2021 9:30:00 PM 18.42 65.156 0.211 7.44 848.2 5.5
9/1/2021 9:45:00 PM 18.36 65.048 0.214 7.44 937.8 5.5
9/1/2021 10:00:00 PM 18.3 64.94 0.217 7.44 914.9 5.5
9/1/2021 10:15:00 PM 18.24 64.832 0.22 7.44 601.2 5.5
9/1/2021 10:30:00 PM 18.18 64.724 0.223 7.44 897.4 5.5
9/1/2021 10:45:00 PM 18.13 64.634 0.227 7.44 948.9 5.5
9/1/2021 11:00:00 PM 18.07 64.526 0.232 7.44 991.3 5.51
9/1/2021 11:15:00 PM 18 64.4 0.236 7.44 1172 5.51
9/1/2021 11:30:00 PM 17.94 64.292 0.24 7.44 1359 5.51
9/1/2021 11:45:00 PM 17.87 64.166 0.245 7.44 850 5.51
9/2/2021 12:00:00 AM 17.79 64.022 0.249 7.44 931.2 5.52
9/2/2021 12:15:00 AM 17.72 63.896 0.254 7.44 1031 5.53
9/2/2021 12:30:00 AM 17.64 63.752 0.258 7.45 1040 5.53
9/2/2021 12:45:00 AM 17.56 63.608 0.262 7.45 1625 5.54
9/2/2021 1:00:00 AM 17.47 63.446 0.266 7.46 1422 5.55
9/2/2021 1:15:00 AM 17.4 63.32 0.27 7.45 1028 5.58
9/2/2021 1:30:00 AM 17.32 63.176 0.274 7.46 1361 5.59
9/2/2021 1:45:00 AM 17.24 63.032 0.278 7.46 1283 5.6
9/2/2021 2:00:00 AM 17.15 62.87 0.282 7.47 993.1 5.62
9/2/2021 2:15:00 AM 17.06 62.708 0.285 7.47 1136 5.64
9/2/2021 2:30:00 AM 16.97 62.546 0.289 7.48 1304 5.65
9/2/2021 2:45:00 AM 16.88 62.384 0.292 7.48 1349 5.66
9/2/2021 3:00:00 AM 16.79 62.222 0.296 7.49 1206 5.68
9/2/2021 3:15:00 AM 16.7 62.06 0.299 7.48 1548 5.7
9/2/2021 3:30:00 AM 16.61 61.898 0.302 7.49 1375 5.73
9/2/2021 3:45:00 AM 16.52 61.736 0.306 7.49 1302 5.74
9/2/2021 4:00:00 AM 16.44 61.592 0.309 7.5 934 5.77
9/2/2021 4:15:00 AM 16.35 61.43 0.312 7.5 1454 5.79
9/2/2021 4:30:00 AM 16.26 61.268 0.314 7.51 1480 5.81
9/2/2021 4:45:00 AM 16.18 61.124 0.317 7.51 1922 5.83
9/2/2021 5:00:00 AM 16.09 60.962 0.32 7.51 1771 5.86
9/2/2021 5:15:00 AM 16 60.8 0.322 7.5 1831 5.88
9/2/2021 5:30:00 AM 15.92 60.656 0.325 7.51 1481 5.89
9/2/2021 5:45:00 AM 15.83 60.494 0.327 7.52 1397 5.91
9/2/2021 6:00:00 AM 15.76 60.368 0.329 7.52 1280 5.93
9/2/2021 6:15:00 AM 15.68 60.224 0.331 7.52 895 5.94
9/2/2021 6:30:00 AM 15.6 60.08 0.333 7.52 901.9 5.97
9/2/2021 6:45:00 AM 15.53 59.954 0.335 7.52 920.7 5.99
9/2/2021 7:00:00 AM 15.47 59.846 0.337 7.52 633.5 6.01
9/2/2021 7:15:00 AM 15.4 59.72 0.338 7.52 904.3 6.02
9/2/2021 7:30:00 AM 15.35 59.63 0.34 7.53 974.4 6.05
9/2/2021 7:45:00 AM 15.3 59.54 0.341 7.53 771.5 6.07
9/2/2021 8:00:00 AM 15.26 59.468 0.343 7.53 700.8 6.1
9/2/2021 8:15:00 AM 15.24 59.432 0.344 7.53 541.9 6.13
9/2/2021 8:30:00 AM 15.22 59.396 0.345 7.53 694.4 6.17
9/2/2021 8:45:00 AM 15.2 59.36 0.346 7.54 569.1 6.22
9/2/2021 9:00:00 AM 15.21 59.378 0.348 7.54 741.2 6.27
9/2/2021 9:15:00 AM 15.22 59.396 0.349 7.55 754 6.32
9/2/2021 9:30:00 AM 15.25 59.45 0.35 7.55 735.4 6.37
9/2/2021 9:45:00 AM 15.29 59.522